Darstellungsparameter: Aktuell verwendete Einstellungen:
Skalierung der Graphiken ... ?
xyx+y,   Skalierungsfaktor:      Skalierung: Modus: x, Faktor: 1
Darstellungszeitraum ... ?
Vom - - bis: - -   Zeitraum: 17.08.2020 - 06.09.2020
Min/Max/Avg-Anzeige ... ?
Zeige MMA aktuell
Zeige MMA Monat
Zeige MMA alles
Zeige --A aktuell
Zeige --A Monat
Zeige --A alles
Keine MMA-Anzeige
MMA:
Average (ber die Originaldaten)
MMA-Basis: 17.08.2020 - 06.09.2020
Quicknavigation für Darstellung... ?
Tage:      1T, 2T, 3T, 5T -1T -2T -3T -5T +1T +2T +3T +5T
Wochen: 1W, 2W, 3W -1W -2W -3W +1W +2W +3W
Monate: 1M, 3M, 6M -1M -3M -6M +1M +3M +6M
Jahre:    1J, 3J, 5J, 10J -1J -3J -5J -10J +1J +3J +5J +10J
Nutze für die Darstellung ... ?
Originaldaten oder Mittelwerte auf ...
Stundenbasis Tagesbasis Wochenbasis
Monatsbasis Jahresbasis      Datenbasis: Original-Daten
Darstellen als:
Statistik (Auto) Statistik J:M      Darstellung:
Zur Graphik,    zurück zur Übersicht aller Sensoren.
 
Tabellarische Datenbersicht: ?
 
Sensor: Nr:Datum:Temp:Abs-Feuchte:Windchill:Wind:
Aussen-T/F 1 17-08-2020 00:00:00 18.3 C 14.85 g/m*3 18.3 C 4.8 km/h
2 17-08-2020 00:05:00 18.3 C 15.01 g/m*3 18.3 C 4.8 km/h
3 17-08-2020 00:10:00 18.4 C 15.1 g/m*3 18.4 C 6.4 km/h
4 17-08-2020 00:15:00 18.4 C 15.1 g/m*3 18.4 C 6.4 km/h
5 17-08-2020 00:20:00 18.5 C 15.19 g/m*3 18.5 C 6.4 km/h
6 17-08-2020 00:25:00 18.6 C 15.28 g/m*3 18.6 C 9.7 km/h
7 17-08-2020 00:30:00 18.6 C 15.28 g/m*3 18.6 C 9.7 km/h
8 17-08-2020 00:35:00 18.6 C 15.28 g/m*3 18.6 C 0 km/h
9 17-08-2020 00:40:00 18.7 C 15.37 g/m*3 18.7 C 8.1 km/h
10 17-08-2020 00:45:00 18.7 C 15.37 g/m*3 18.7 C 4.8 km/h
11 17-08-2020 00:50:00 18.7 C 15.37 g/m*3 18.7 C 1.6 km/h
12 17-08-2020 00:55:00 18.7 C 15.37 g/m*3 18.7 C 1.6 km/h
13 17-08-2020 01:00:00 18.6 C 15.28 g/m*3 18.6 C 4.8 km/h
14 17-08-2020 01:05:00 18.6 C 15.28 g/m*3 18.6 C 1.6 km/h
15 17-08-2020 01:10:00 18.5 C 15.19 g/m*3 18.5 C 4.8 km/h
16 17-08-2020 01:15:00 18.4 C 15.1 g/m*3 18.4 C 1.6 km/h
17 17-08-2020 01:20:00 18.4 C 15.1 g/m*3 18.4 C 3.2 km/h
18 17-08-2020 01:25:00 18.3 C 15.01 g/m*3 18.3 C 4.8 km/h
19 17-08-2020 01:30:00 18.3 C 15.01 g/m*3 18.3 C 1.6 km/h
20 17-08-2020 01:35:00 18.2 C 14.92 g/m*3 18.2 C 3.2 km/h
21 17-08-2020 01:40:00 18.2 C 14.92 g/m*3 18.2 C 3.2 km/h
22 17-08-2020 01:45:00 18.2 C 14.92 g/m*3 18.2 C 4.8 km/h
23 17-08-2020 01:50:00 18.2 C 14.92 g/m*3 18.2 C 3.2 km/h
24 17-08-2020 01:55:00 18.3 C 15.01 g/m*3 18.3 C 0 km/h
25 17-08-2020 02:00:00 18.3 C 15.01 g/m*3 18.3 C 0 km/h
Sensor: Nr:Datum:Temp:Abs-Feuchte:Windchill:Wind:
Aussen-T/F 26 17-08-2020 02:05:00 18.3 C 15.01 g/m*3 18.3 C 0 km/h
27 17-08-2020 02:10:00 18.3 C 15.01 g/m*3 18.3 C 0 km/h
28 17-08-2020 02:15:00 18.2 C 14.92 g/m*3 18.2 C 4.8 km/h
29 17-08-2020 02:20:00 18.2 C 14.92 g/m*3 18.2 C 6.4 km/h
30 17-08-2020 02:25:00 18.1 C 14.83 g/m*3 18.1 C 4.8 km/h
31 17-08-2020 02:30:00 18.1 C 14.83 g/m*3 18.1 C 4.8 km/h
32 17-08-2020 02:35:00 18 C 14.75 g/m*3 18 C 4.8 km/h
33 17-08-2020 02:40:00 17.9 C 14.66 g/m*3 17.9 C 1.6 km/h
34 17-08-2020 02:45:00 17.9 C 14.66 g/m*3 17.9 C 4.8 km/h
35 17-08-2020 02:50:00 17.8 C 14.57 g/m*3 17.8 C 4.8 km/h
36 17-08-2020 02:55:00 17.8 C 14.57 g/m*3 17.8 C 0 km/h
37 17-08-2020 03:00:00 17.8 C 14.57 g/m*3 17.8 C 0 km/h
38 17-08-2020 03:05:00 18 C 14.9 g/m*3 18 C 12.9 km/h
39 17-08-2020 03:10:00 18.1 C 14.99 g/m*3 18.1 C 14.5 km/h
40 17-08-2020 03:15:00 18.2 C 15.08 g/m*3 18.2 C 8.1 km/h
41 17-08-2020 03:20:00 18.3 C 15.17 g/m*3 18.3 C 4.8 km/h
42 17-08-2020 03:25:00 18.3 C 15.17 g/m*3 18.3 C 6.4 km/h
43 17-08-2020 03:30:00 18.3 C 15.17 g/m*3 18.3 C 8.1 km/h
44 17-08-2020 03:35:00 18.4 C 15.26 g/m*3 18.4 C 6.4 km/h
45 17-08-2020 03:40:00 18.4 C 15.26 g/m*3 18.4 C 0 km/h
46 17-08-2020 03:45:00 18.4 C 15.26 g/m*3 18.4 C 4.8 km/h
47 17-08-2020 03:50:00 18.4 C 15.26 g/m*3 18.4 C 6.4 km/h
48 17-08-2020 03:55:00 18.4 C 15.26 g/m*3 18.4 C 6.4 km/h
49 17-08-2020 04:00:00 18.4 C 15.26 g/m*3 18.4 C 6.4 km/h
50 17-08-2020 04:05:00 18.4 C 15.26 g/m*3 18.4 C 3.2 km/h
Sensor: Nr:Datum:Temp:Abs-Feuchte:Windchill:Wind:
Aussen-T/F 51 17-08-2020 04:10:00 18.3 C 15.01 g/m*3 18.3 C 4.8 km/h
52 17-08-2020 04:15:00 18.2 C 14.92 g/m*3 18.2 C 3.2 km/h
53 17-08-2020 04:20:00 18.1 C 14.83 g/m*3 18.1 C 4.8 km/h
54 17-08-2020 04:25:00 17.9 C 14.66 g/m*3 17.9 C 4.8 km/h
55 17-08-2020 04:30:00 17.8 C 14.57 g/m*3 17.8 C 0 km/h
56 17-08-2020 04:35:00 17.6 C 14.4 g/m*3 17.6 C 0 km/h
57 17-08-2020 04:40:00 17.6 C 14.4 g/m*3 17.6 C 0 km/h
58 17-08-2020 04:45:00 17.5 C 14.31 g/m*3 17.5 C 1.6 km/h
59 17-08-2020 04:50:00 17.4 C 14.23 g/m*3 17.4 C 3.2 km/h
60 17-08-2020 04:55:00 17.3 C 14.14 g/m*3 17.3 C 6.4 km/h
61 17-08-2020 05:00:00 17.3 C 14.14 g/m*3 17.3 C 6.4 km/h
62 17-08-2020 05:05:00 17.3 C 14.14 g/m*3 17.3 C 4.8 km/h
63 17-08-2020 05:10:00 17.3 C 14.29 g/m*3 17.3 C 3.2 km/h
64 17-08-2020 05:15:00 17.3 C 14.29 g/m*3 17.3 C 0 km/h
65 17-08-2020 05:20:00 17.4 C 14.38 g/m*3 17.4 C 0 km/h
66 17-08-2020 05:25:00 17.4 C 14.38 g/m*3 17.4 C 0 km/h
67 17-08-2020 05:30:00 17.4 C 14.38 g/m*3 17.4 C 0 km/h
68 17-08-2020 05:35:00 17.6 C 14.55 g/m*3 17.6 C 1.6 km/h
69 17-08-2020 05:40:00 17.6 C 14.55 g/m*3 17.6 C 1.6 km/h
70 17-08-2020 05:45:00 17.6 C 14.55 g/m*3 17.6 C 1.6 km/h
71 17-08-2020 05:50:00 17.7 C 14.64 g/m*3 17.7 C 3.2 km/h
72 17-08-2020 05:55:00 17.7 C 14.64 g/m*3 17.7 C 1.6 km/h
73 17-08-2020 06:00:00 17.6 C 14.55 g/m*3 17.6 C 3.2 km/h
74 17-08-2020 06:05:00 17.6 C 14.55 g/m*3 17.6 C 0 km/h
75 17-08-2020 06:10:00 17.6 C 14.55 g/m*3 17.6 C 0 km/h
Sensor: Nr:Datum:Temp:Abs-Feuchte:Windchill:Wind:
Aussen-T/F 76 17-08-2020 06:15:00 17.6 C 14.55 g/m*3 17.6 C 1.6 km/h
77 17-08-2020 06:20:00 17.6 C 14.55 g/m*3 17.6 C 3.2 km/h
78 17-08-2020 06:25:00 17.5 C 14.46 g/m*3 17.5 C 3.2 km/h
79 17-08-2020 06:30:00 17.5 C 14.46 g/m*3 17.5 C 4.8 km/h
80 17-08-2020 06:35:00 17.4 C 14.38 g/m*3 17.4 C 3.2 km/h
81 17-08-2020 06:40:00 17.4 C 14.38 g/m*3 17.4 C 1.6 km/h
82 17-08-2020 06:45:00 17.3 C 14.29 g/m*3 17.3 C 3.2 km/h
83 17-08-2020 06:50:00 17.3 C 14.29 g/m*3 17.3 C 3.2 km/h
84 17-08-2020 06:55:00 17.3 C 14.29 g/m*3 17.3 C 3.2 km/h
85 17-08-2020 07:00:00 17.3 C 14.29 g/m*3 17.3 C 1.6 km/h
86 17-08-2020 07:05:00 17.3 C 14.29 g/m*3 17.3 C 1.6 km/h
87 17-08-2020 07:10:00 17.3 C 14.29 g/m*3 17.3 C 1.6 km/h
88 17-08-2020 07:15:00 17.3 C 14.29 g/m*3 17.3 C 1.6 km/h
89 17-08-2020 07:20:00 17.4 C 14.38 g/m*3 17.4 C 3.2 km/h
90 17-08-2020 07:25:00 17.4 C 14.38 g/m*3 17.4 C 0 km/h
91 17-08-2020 07:30:00 17.5 C 14.46 g/m*3 17.5 C 0 km/h
92 17-08-2020 07:35:00 17.6 C 14.55 g/m*3 17.6 C 0 km/h
93 17-08-2020 07:40:00 17.6 C 14.55 g/m*3 17.6 C 0 km/h
94 17-08-2020 07:45:00 17.6 C 14.55 g/m*3 17.6 C 1.6 km/h
95 17-08-2020 07:50:00 17.7 C 14.64 g/m*3 17.7 C 0 km/h
96 17-08-2020 07:55:00 17.7 C 14.64 g/m*3 17.7 C 0 km/h
97 17-08-2020 08:00:00 17.7 C 14.64 g/m*3 17.7 C 3.2 km/h
98 17-08-2020 08:05:00 17.8 C 14.72 g/m*3 17.8 C 4.8 km/h
99 17-08-2020 08:10:00 17.8 C 14.72 g/m*3 17.8 C 4.8 km/h
100 17-08-2020 08:15:00 17.9 C 14.81 g/m*3 17.9 C 0 km/h
Sensor: Nr:Datum:Temp:Abs-Feuchte:Windchill:Wind:
Aussen-T/F 101 17-08-2020 08:20:00 17.9 C 14.81 g/m*3 17.9 C 0 km/h
102 17-08-2020 08:25:00 18.1 C 14.99 g/m*3 18.1 C 0 km/h
103 17-08-2020 08:30:00 18.1 C 14.99 g/m*3 18.1 C 0 km/h
104 17-08-2020 08:35:00 18.2 C 15.08 g/m*3 18.2 C 0 km/h
105 17-08-2020 08:40:00 18.3 C 15.17 g/m*3 18.3 C 1.6 km/h
106 17-08-2020 08:45:00 18.4 C 15.26 g/m*3 18.4 C 1.6 km/h
107 17-08-2020 08:50:00 18.4 C 15.26 g/m*3 18.4 C 0 km/h
108 17-08-2020 08:55:00 18.6 C 15.44 g/m*3 18.6 C 0 km/h
109 17-08-2020 09:00:00 18.7 C 15.53 g/m*3 18.7 C 0 km/h
110 17-08-2020 09:05:00 18.8 C 15.62 g/m*3 18.8 C 1.6 km/h
111 17-08-2020 09:10:00 18.8 C 15.62 g/m*3 18.8 C 1.6 km/h
112 17-08-2020 09:15:00 18.8 C 15.62 g/m*3 18.8 C 0 km/h
113 17-08-2020 09:20:00 18.8 C 15.62 g/m*3 18.8 C 0 km/h
114 17-08-2020 09:25:00 18.8 C 15.62 g/m*3 18.8 C 0 km/h
115 17-08-2020 09:30:00 18.9 C 15.71 g/m*3 18.9 C 0 km/h
116 17-08-2020 09:35:00 18.9 C 15.71 g/m*3 18.9 C 1.6 km/h
117 17-08-2020 09:40:00 18.9 C 15.71 g/m*3 18.9 C 0 km/h
118 17-08-2020 09:45:00 18.9 C 15.71 g/m*3 18.9 C 0 km/h
119 17-08-2020 09:50:00 19 C 15.81 g/m*3 19 C 0 km/h
120 17-08-2020 09:55:00 19.1 C 15.9 g/m*3 19.1 C 0 km/h
121 17-08-2020 10:00:00 19.1 C 15.9 g/m*3 19.1 C 1.6 km/h
122 17-08-2020 10:05:00 19.1 C 15.9 g/m*3 19.1 C 1.6 km/h
123 17-08-2020 10:10:00 19.1 C 15.9 g/m*3 19.1 C 4.8 km/h
124 17-08-2020 10:15:00 19.2 C 15.99 g/m*3 19.2 C 4.8 km/h
125 17-08-2020 10:20:00 19.2 C 15.99 g/m*3 19.2 C 8.1 km/h
Sensor: Nr:Datum:Temp:Abs-Feuchte:Windchill:Wind:
Aussen-T/F 126 17-08-2020 10:25:00 19.2 C 15.83 g/m*3 19.2 C 6.4 km/h
127 17-08-2020 10:30:00 19.3 C 15.92 g/m*3 19.3 C 6.4 km/h
128 17-08-2020 10:35:00 19.4 C 15.85 g/m*3 19.4 C 1.6 km/h
129 17-08-2020 10:40:00 19.4 C 15.85 g/m*3 19.4 C 8.1 km/h
130 17-08-2020 10:45:00 19.6 C 15.87 g/m*3 19.6 C 4.8 km/h
131 17-08-2020 10:50:00 19.8 C 16.23 g/m*3 19.8 C 8.1 km/h
132 17-08-2020 10:55:00 19.9 C 16.15 g/m*3 19.9 C 8.1 km/h
133 17-08-2020 11:00:00 20.1 C 16.34 g/m*3 20.1 C 4.8 km/h
134 17-08-2020 11:05:00 20.2 C 16.26 g/m*3 20.2 C 4.8 km/h
135 17-08-2020 11:10:00 20.4 C 16.45 g/m*3 20.4 C 4.8 km/h
136 17-08-2020 11:15:00 20.6 C 16.29 g/m*3 20.6 C 11.3 km/h
137 17-08-2020 11:20:00 20.6 C 16.29 g/m*3 20.6 C 8.1 km/h
138 17-08-2020 11:25:00 20.8 C 16.48 g/m*3 20.8 C 8.1 km/h
139 17-08-2020 11:30:00 20.8 C 16.12 g/m*3 20.8 C 9.7 km/h
140 17-08-2020 11:35:00 20.9 C 16.39 g/m*3 20.9 C 8.1 km/h
141 17-08-2020 11:40:00 21.1 C 16.4 g/m*3 21.1 C 8.1 km/h
142 17-08-2020 11:45:00 21.2 C 16.31 g/m*3 21.2 C 8.1 km/h
143 17-08-2020 11:50:00 21.3 C 16.4 g/m*3 21.3 C 8.1 km/h
144 17-08-2020 11:55:00 21.4 C 16.31 g/m*3 21.4 C 9.7 km/h
145 17-08-2020 12:00:00 21.6 C 16.5 g/m*3 21.6 C 4.8 km/h
146 17-08-2020 12:05:00 21.7 C 16.41 g/m*3 21.7 C 8.1 km/h
147 17-08-2020 12:10:00 21.8 C 16.5 g/m*3 21.8 C 11.3 km/h
148 17-08-2020 12:15:00 21.9 C 16.4 g/m*3 21.9 C 9.7 km/h
149 17-08-2020 12:20:00 22.1 C 16.79 g/m*3 22.1 C 6.4 km/h
150 17-08-2020 12:25:00 22.1 C 16.4 g/m*3 22.1 C 11.3 km/h
Sensor: Nr:Datum:Temp:Abs-Feuchte:Windchill:Wind:
Aussen-T/F 151 17-08-2020 12:30:00 22 C 16.3 g/m*3 22 C 8.1 km/h
152 17-08-2020 12:35:00 22.1 C 16.4 g/m*3 22.1 C 4.8 km/h
153 17-08-2020 12:40:00 22.2 C 16.69 g/m*3 22.2 C 4.8 km/h
154 17-08-2020 12:45:00 22.3 C 16.39 g/m*3 22.3 C 6.4 km/h
155 17-08-2020 12:50:00 22.3 C 16.39 g/m*3 22.3 C 8.1 km/h
156 17-08-2020 12:55:00 22.4 C 16.68 g/m*3 22.4 C 3.2 km/h
157 17-08-2020 13:00:00 22.5 C 16.38 g/m*3 22.5 C 0 km/h
158 17-08-2020 13:05:00 22.6 C 16.47 g/m*3 22.6 C 0 km/h
159 17-08-2020 13:10:00 22.7 C 16.57 g/m*3 22.7 C 4.8 km/h
160 17-08-2020 13:15:00 22.9 C 16.55 g/m*3 22.9 C 4.8 km/h
161 17-08-2020 13:20:00 23.1 C 16.12 g/m*3 23.1 C 4.8 km/h
162 17-08-2020 13:25:00 23.3 C 16.73 g/m*3 23.3 C 4.8 km/h
163 17-08-2020 13:30:00 23.5 C 16.28 g/m*3 23.5 C 3.2 km/h
164 17-08-2020 13:35:00 23.7 C 16.26 g/m*3 23.7 C 9.7 km/h
165 17-08-2020 13:40:00 23.8 C 16.13 g/m*3 23.8 C 8.1 km/h
166 17-08-2020 13:45:00 24 C 16.32 g/m*3 24 C 9.7 km/h
167 17-08-2020 13:50:00 24.1 C 16.63 g/m*3 24.1 C 8.1 km/h
168 17-08-2020 13:55:00 24.1 C 16.41 g/m*3 24.1 C 8.1 km/h
169 17-08-2020 14:00:00 24.2 C 16.28 g/m*3 24.2 C 11.3 km/h
170 17-08-2020 14:05:00 24.3 C 15.93 g/m*3 24.3 C 11.3 km/h
171 17-08-2020 14:10:00 24.3 C 15.49 g/m*3 24.3 C 9.7 km/h
172 17-08-2020 14:15:00 24.3 C 15.93 g/m*3 24.3 C 11.3 km/h
173 17-08-2020 14:20:00 24.3 C 15.71 g/m*3 24.3 C 12.9 km/h
174 17-08-2020 14:25:00 24.4 C 15.58 g/m*3 24.4 C 12.9 km/h
175 17-08-2020 14:30:00 24.4 C 15.58 g/m*3 24.4 C 8.1 km/h
Sensor: Nr:Datum:Temp:Abs-Feuchte:Windchill:Wind:
Aussen-T/F 176 17-08-2020 14:35:00 24.4 C 15.13 g/m*3 24.4 C 12.9 km/h
177 17-08-2020 14:40:00 24.5 C 14.99 g/m*3 24.5 C 12.9 km/h
178 17-08-2020 14:45:00 24.7 C 15.16 g/m*3 24.7 C 16.1 km/h
179 17-08-2020 14:50:00 24.9 C 15.34 g/m*3 24.9 C 16.1 km/h
180 17-08-2020 14:55:00 25 C 14.96 g/m*3 25 C 16.1 km/h
181 17-08-2020 15:00:00 25 C 14.96 g/m*3 25 C 9.7 km/h
182 17-08-2020 15:05:00 25.1 C 15.05 g/m*3 25.1 C 9.7 km/h
183 17-08-2020 15:10:00 25.3 C 15.22 g/m*3 25.3 C 12.9 km/h
184 17-08-2020 15:15:00 25.6 C 15.24 g/m*3 25.6 C 11.3 km/h
185 17-08-2020 15:20:00 25.6 C 15.24 g/m*3 25.6 C 12.9 km/h
186 17-08-2020 15:25:00 25.7 C 15.56 g/m*3 25.7 C 8.1 km/h
187 17-08-2020 15:30:00 25.9 C 15.01 g/m*3 25.9 C 8.1 km/h
188 17-08-2020 15:35:00 26.1 C 14.44 g/m*3 26.1 C 11.3 km/h
189 17-08-2020 15:40:00 26 C 14.12 g/m*3 26 C 11.3 km/h
190 17-08-2020 15:45:00 25.7 C 14.6 g/m*3 25.7 C 6.4 km/h
191 17-08-2020 15:50:00 25.5 C 14.91 g/m*3 25.5 C 9.7 km/h
192 17-08-2020 15:55:00 25.5 C 14.91 g/m*3 25.5 C 4.8 km/h
193 17-08-2020 16:00:00 25.7 C 14.6 g/m*3 25.7 C 9.7 km/h
194 17-08-2020 16:05:00 26.2 C 14.28 g/m*3 26.2 C 8.1 km/h
195 17-08-2020 16:10:00 26.3 C 14.11 g/m*3 26.3 C 8.1 km/h
196 17-08-2020 16:15:00 26.3 C 15.1 g/m*3 26.3 C 11.3 km/h
197 17-08-2020 16:20:00 26.6 C 14.6 g/m*3 26.6 C 9.7 km/h
198 17-08-2020 16:25:00 26.9 C 15.36 g/m*3 26.9 C 6.4 km/h
199 17-08-2020 16:30:00 27.2 C 14.05 g/m*3 27.2 C 11.3 km/h
200 17-08-2020 16:35:00 27.2 C 13.53 g/m*3 27.2 C 14.5 km/h
Sensor: Nr:Datum:Temp:Abs-Feuchte:Windchill:Wind:
Aussen-T/F 201 17-08-2020 16:40:00 27.3 C 13.87 g/m*3 27.3 C 8.1 km/h
202 17-08-2020 16:45:00 27.7 C 13.64 g/m*3 27.7 C 12.9 km/h
203 17-08-2020 16:50:00 27.8 C 13.72 g/m*3 27.8 C 12.9 km/h
204 17-08-2020 16:55:00 27.8 C 13.99 g/m*3 27.8 C 11.3 km/h
205 17-08-2020 17:00:00 27.9 C 14.06 g/m*3 27.9 C 9.7 km/h
206 17-08-2020 17:05:00 28.1 C 13.4 g/m*3 28.1 C 8.1 km/h
207 17-08-2020 17:10:00 28.2 C 13.75 g/m*3 28.2 C 12.9 km/h
208 17-08-2020 17:15:00 28.2 C 13.75 g/m*3 28.2 C 12.9 km/h
209 17-08-2020 17:20:00 28.2 C 13.47 g/m*3 28.2 C 9.7 km/h
210 17-08-2020 17:25:00 28.3 C 13.82 g/m*3 28.3 C 8.1 km/h
211 17-08-2020 17:30:00 28.3 C 13.55 g/m*3 28.3 C 9.7 km/h
212 17-08-2020 17:35:00 28.4 C 13.62 g/m*3 28.4 C 11.3 km/h
213 17-08-2020 17:40:00 28.1 C 12.85 g/m*3 28.1 C 9.7 km/h
214 17-08-2020 17:45:00 27.5 C 12.7 g/m*3 27.5 C 12.9 km/h
215 17-08-2020 17:50:00 27.2 C 13.27 g/m*3 27.2 C 6.4 km/h
216 17-08-2020 17:55:00 26.8 C 13.49 g/m*3 26.8 C 4.8 km/h
217 17-08-2020 18:00:00 26.5 C 13.77 g/m*3 26.5 C 4.8 km/h
218 17-08-2020 18:05:00 26.3 C 13.37 g/m*3 26.3 C 6.4 km/h
219 17-08-2020 18:10:00 26.1 C 12.98 g/m*3 26.1 C 8.1 km/h
220 17-08-2020 18:15:00 26.4 C 12.94 g/m*3 26.4 C 8.1 km/h
221 17-08-2020 18:20:00 27.2 C 13.01 g/m*3 27.2 C 14.5 km/h
222 17-08-2020 18:25:00 27.1 C 12.94 g/m*3 27.1 C 12.9 km/h
223 17-08-2020 18:30:00 26.7 C 13.16 g/m*3 26.7 C 4.8 km/h
224 17-08-2020 18:35:00 26.4 C 12.7 g/m*3 26.4 C 9.7 km/h
225 17-08-2020 18:40:00 26.2 C 13.79 g/m*3 26.2 C 3.2 km/h
Sensor: Nr:Datum:Temp:Abs-Feuchte:Windchill:Wind:
Aussen-T/F 226 17-08-2020 18:45:00 26.6 C 13.09 g/m*3 26.6 C 8.1 km/h
227 17-08-2020 18:50:00 27.1 C 12.68 g/m*3 27.1 C 11.3 km/h
228 17-08-2020 18:55:00 27.3 C 12.56 g/m*3 27.3 C 9.7 km/h
229 17-08-2020 19:00:00 27.3 C 12.56 g/m*3 27.3 C 14.5 km/h
230 17-08-2020 19:05:00 27.2 C 12.49 g/m*3 27.2 C 14.5 km/h
231 17-08-2020 19:10:00 27 C 12.87 g/m*3 27 C 11.3 km/h
232 17-08-2020 19:15:00 26.8 C 12.47 g/m*3 26.8 C 11.3 km/h
233 17-08-2020 19:20:00 26.7 C 13.16 g/m*3 26.7 C 11.3 km/h
234 17-08-2020 19:25:00 26.4 C 11.95 g/m*3 26.4 C 12.9 km/h
235 17-08-2020 19:30:00 26.3 C 11.88 g/m*3 26.3 C 9.7 km/h
236 17-08-2020 19:35:00 26.2 C 13.29 g/m*3 26.2 C 8.1 km/h
237 17-08-2020 19:40:00 26.1 C 12.24 g/m*3 26.1 C 3.2 km/h
238 17-08-2020 19:45:00 25.9 C 13.8 g/m*3 25.9 C 6.4 km/h
239 17-08-2020 19:50:00 25.8 C 13.72 g/m*3 25.8 C 3.2 km/h
240 17-08-2020 19:55:00 25.6 C 14.52 g/m*3 25.6 C 4.8 km/h
241 17-08-2020 20:00:00 25.3 C 14.28 g/m*3 25.3 C 4.8 km/h
242 17-08-2020 20:05:00 24.9 C 12.59 g/m*3 24.9 C 6.4 km/h
243 17-08-2020 20:10:00 24.6 C 14.18 g/m*3 24.6 C 4.8 km/h
244 17-08-2020 20:15:00 24.2 C 14.08 g/m*3 24.2 C 8.1 km/h
245 17-08-2020 20:20:00 23.6 C 14.25 g/m*3 23.6 C 8.1 km/h
246 17-08-2020 20:25:00 23.1 C 13.85 g/m*3 23.1 C 8.1 km/h
247 17-08-2020 20:30:00 22.5 C 13.78 g/m*3 22.5 C 8.1 km/h
248 17-08-2020 20:35:00 22 C 13.78 g/m*3 22 C 8.1 km/h
249 17-08-2020 20:40:00 21.7 C 13.73 g/m*3 21.7 C 8.1 km/h
250 17-08-2020 20:45:00 21.3 C 13.79 g/m*3 21.3 C 9.7 km/h
Sensor: Nr:Datum:Temp:Abs-Feuchte:Windchill:Wind:
Aussen-T/F 251 17-08-2020 20:50:00 21.1 C 13.63 g/m*3 21.1 C 8.1 km/h
252 17-08-2020 20:55:00 20.8 C 13.76 g/m*3 20.8 C 6.4 km/h
253 17-08-2020 21:00:00 20.7 C 13.86 g/m*3 20.7 C 8.1 km/h
254 17-08-2020 21:05:00 20.5 C 13.88 g/m*3 20.5 C 6.4 km/h
255 17-08-2020 21:10:00 20.3 C 13.72 g/m*3 20.3 C 6.4 km/h
256 17-08-2020 21:15:00 20.2 C 13.64 g/m*3 20.2 C 6.4 km/h
257 17-08-2020 21:20:00 20.1 C 13.73 g/m*3 20.1 C 6.4 km/h
258 17-08-2020 21:25:00 20.1 C 13.91 g/m*3 20.1 C 4.8 km/h
259 17-08-2020 21:30:00 20 C 13.83 g/m*3 20 C 4.8 km/h
260 17-08-2020 21:35:00 19.9 C 13.74 g/m*3 19.9 C 4.8 km/h
261 17-08-2020 21:40:00 19.9 C 13.92 g/m*3 19.9 C 3.2 km/h
262 17-08-2020 21:45:00 19.8 C 13.84 g/m*3 19.8 C 3.2 km/h
263 17-08-2020 21:50:00 19.8 C 13.66 g/m*3 19.8 C 0 km/h
264 17-08-2020 21:55:00 19.7 C 13.75 g/m*3 19.7 C 0 km/h
265 17-08-2020 22:00:00 19.7 C 13.75 g/m*3 19.7 C 0 km/h
266 17-08-2020 22:05:00 19.7 C 13.75 g/m*3 19.7 C 0 km/h
267 17-08-2020 22:10:00 19.6 C 13.67 g/m*3 19.6 C 4.8 km/h
268 17-08-2020 22:15:00 19.6 C 13.67 g/m*3 19.6 C 4.8 km/h
269 17-08-2020 22:20:00 19.6 C 13.67 g/m*3 19.6 C 4.8 km/h
270 17-08-2020 22:25:00 19.6 C 13.84 g/m*3 19.6 C 3.2 km/h
271 17-08-2020 22:30:00 19.6 C 13.67 g/m*3 19.6 C 4.8 km/h
272 17-08-2020 22:35:00 19.6 C 13.67 g/m*3 19.6 C 3.2 km/h
273 17-08-2020 22:40:00 19.6 C 13.84 g/m*3 19.6 C 0 km/h
274 17-08-2020 22:45:00 19.6 C 13.84 g/m*3 19.6 C 0 km/h
275 17-08-2020 22:50:00 19.6 C 13.67 g/m*3 19.6 C 0 km/h
Sensor: Nr:Datum:Temp:Abs-Feuchte:Windchill:Wind:
Aussen-T/F 276 17-08-2020 22:55:00 19.6 C 13.84 g/m*3 19.6 C 0 km/h
277 17-08-2020 23:00:00 19.5 C 13.76 g/m*3 19.5 C 0 km/h
278 17-08-2020 23:05:00 19.4 C 13.51 g/m*3 19.4 C 0 km/h
279 17-08-2020 23:10:00 19.3 C 13.44 g/m*3 19.3 C 0 km/h
280 17-08-2020 23:15:00 19.3 C 13.6 g/m*3 19.3 C 3.2 km/h
281 17-08-2020 23:20:00 19.2 C 13.36 g/m*3 19.2 C 3.2 km/h
282 17-08-2020 23:25:00 19.2 C 13.52 g/m*3 19.2 C 4.8 km/h
283 17-08-2020 23:30:00 19.2 C 13.52 g/m*3 19.2 C 3.2 km/h
284 17-08-2020 23:35:00 19.2 C 13.69 g/m*3 19.2 C 3.2 km/h
285 17-08-2020 23:40:00 19.3 C 13.77 g/m*3 19.3 C 3.2 km/h
286 17-08-2020 23:45:00 19.2 C 13.52 g/m*3 19.2 C 3.2 km/h
287 17-08-2020 23:50:00 19.3 C 13.6 g/m*3 19.3 C 4.8 km/h
288 17-08-2020 23:55:00 19.3 C 13.77 g/m*3 19.3 C 3.2 km/h
289 18-08-2020 00:00:00 19.3 C 13.77 g/m*3 19.3 C 1.6 km/h
290 18-08-2020 00:05:00 19.3 C 13.77 g/m*3 19.3 C 0 km/h
291 18-08-2020 00:10:00 19.2 C 13.52 g/m*3 19.2 C 0 km/h
292 18-08-2020 00:15:00 19.2 C 13.52 g/m*3 19.2 C 0 km/h
293 18-08-2020 00:20:00 19.1 C 13.44 g/m*3 19.1 C 3.2 km/h
294 18-08-2020 00:25:00 19 C 13.53 g/m*3 19 C 1.6 km/h
295 18-08-2020 00:30:00 18.9 C 13.45 g/m*3 18.9 C 1.6 km/h
296 18-08-2020 00:35:00 18.8 C 13.37 g/m*3 18.8 C 1.6 km/h
297 18-08-2020 00:40:00 18.8 C 13.37 g/m*3 18.8 C 3.2 km/h
298 18-08-2020 00:45:00 18.7 C 13.29 g/m*3 18.7 C 1.6 km/h
299 18-08-2020 00:50:00 18.6 C 13.37 g/m*3 18.6 C 1.6 km/h
300 18-08-2020 00:55:00 18.6 C 13.37 g/m*3 18.6 C 0 km/h
Sensor: Nr:Datum:Temp:Abs-Feuchte:Windchill:Wind:
Aussen-T/F 301 18-08-2020 01:00:00 18.6 C 13.53 g/m*3 18.6 C 0 km/h
302 18-08-2020 01:05:00 18.6 C 13.53 g/m*3 18.6 C 1.6 km/h
303 18-08-2020 01:10:00 18.6 C 13.53 g/m*3 18.6 C 0 km/h
304 18-08-2020 01:15:00 18.5 C 13.45 g/m*3 18.5 C 0 km/h
305 18-08-2020 01:20:00 18.4 C 13.37 g/m*3 18.4 C 0 km/h
306 18-08-2020 01:25:00 18.4 C 13.37 g/m*3 18.4 C 0 km/h
307 18-08-2020 01:30:00 18.3 C 13.29 g/m*3 18.3 C 0 km/h
308 18-08-2020 01:35:00 18.3 C 13.45 g/m*3 18.3 C 0 km/h
309 18-08-2020 01:40:00 18.3 C 13.45 g/m*3 18.3 C 0 km/h
310 18-08-2020 01:45:00 18.3 C 13.45 g/m*3 18.3 C 0 km/h
311 18-08-2020 01:50:00 18.3 C 13.6 g/m*3 18.3 C 1.6 km/h
312 18-08-2020 01:55:00 18.3 C 13.6 g/m*3 18.3 C 0 km/h
313 18-08-2020 02:00:00 18.2 C 13.37 g/m*3 18.2 C 1.6 km/h
314 18-08-2020 02:05:00 18.2 C 13.37 g/m*3 18.2 C 1.6 km/h
315 18-08-2020 02:10:00 18.2 C 13.37 g/m*3 18.2 C 0 km/h
316 18-08-2020 02:15:00 18.2 C 13.37 g/m*3 18.2 C 0 km/h
317 18-08-2020 02:20:00 18.2 C 13.37 g/m*3 18.2 C 0 km/h
318 18-08-2020 02:25:00 18.2 C 13.37 g/m*3 18.2 C 3.2 km/h
319 18-08-2020 02:30:00 18.2 C 13.37 g/m*3 18.2 C 1.6 km/h
320 18-08-2020 02:35:00 18.2 C 13.37 g/m*3 18.2 C 4.8 km/h
321 18-08-2020 02:40:00 18.2 C 13.37 g/m*3 18.2 C 0 km/h
322 18-08-2020 02:45:00 18.2 C 13.37 g/m*3 18.2 C 1.6 km/h
323 18-08-2020 02:50:00 18.2 C 13.37 g/m*3 18.2 C 0 km/h
324 18-08-2020 02:55:00 18.2 C 13.37 g/m*3 18.2 C 3.2 km/h
325 18-08-2020 03:00:00 18.2 C 13.21 g/m*3 18.2 C 1.6 km/h
Sensor: Nr:Datum:Temp:Abs-Feuchte:Windchill:Wind:
Aussen-T/F 326 18-08-2020 03:05:00 18.1 C 13.13 g/m*3 18.1 C 3.2 km/h
327 18-08-2020 03:10:00 18 C 13.06 g/m*3 18 C 3.2 km/h
328 18-08-2020 03:15:00 17.9 C 12.98 g/m*3 17.9 C 3.2 km/h
329 18-08-2020 03:20:00 17.8 C 12.9 g/m*3 17.8 C 4.8 km/h
330 18-08-2020 03:25:00 17.7 C 12.82 g/m*3 17.7 C 1.6 km/h
331 18-08-2020 03:30:00 17.6 C 12.75 g/m*3 17.6 C 3.2 km/h
332 18-08-2020 03:35:00 17.4 C 12.6 g/m*3 17.4 C 3.2 km/h
333 18-08-2020 03:40:00 17.3 C 12.52 g/m*3 17.3 C 3.2 km/h
334 18-08-2020 03:45:00 17.2 C 12.59 g/m*3 17.2 C 0 km/h
335 18-08-2020 03:50:00 17.1 C 12.52 g/m*3 17.1 C 1.6 km/h
336 18-08-2020 03:55:00 17 C 12.44 g/m*3 17 C 1.6 km/h
337 18-08-2020 04:00:00 16.9 C 12.37 g/m*3 16.9 C 0 km/h
338 18-08-2020 04:05:00 16.9 C 12.51 g/m*3 16.9 C 1.6 km/h
339 18-08-2020 04:10:00 16.8 C 12.44 g/m*3 16.8 C 1.6 km/h
340 18-08-2020 04:15:00 16.8 C 12.58 g/m*3 16.8 C 0 km/h
341 18-08-2020 04:20:00 16.8 C 12.58 g/m*3 16.8 C 0 km/h
342 18-08-2020 04:25:00 16.8 C 12.58 g/m*3 16.8 C 0 km/h
343 18-08-2020 04:30:00 16.8 C 12.58 g/m*3 16.8 C 0 km/h
344 18-08-2020 04:35:00 16.7 C 12.51 g/m*3 16.7 C 0 km/h
345 18-08-2020 04:40:00 16.7 C 12.51 g/m*3 16.7 C 0 km/h
346 18-08-2020 04:45:00 16.7 C 12.51 g/m*3 16.7 C 0 km/h
347 18-08-2020 04:50:00 16.7 C 12.51 g/m*3 16.7 C 0 km/h
348 18-08-2020 04:55:00 16.6 C 12.43 g/m*3 16.6 C 0 km/h
349 18-08-2020 05:00:00 16.6 C 12.57 g/m*3 16.6 C 0 km/h
350 18-08-2020 05:05:00 16.5 C 12.5 g/m*3 16.5 C 0 km/h
Sensor: Nr:Datum:Temp:Abs-Feuchte:Windchill:Wind:
Aussen-T/F 351 18-08-2020 05:10:00 16.5 C 12.5 g/m*3 16.5 C 0 km/h
352 18-08-2020 05:15:00 16.5 C 12.5 g/m*3 16.5 C 3.2 km/h
353 18-08-2020 05:20:00 16.6 C 12.71 g/m*3 16.6 C 1.6 km/h
354 18-08-2020 05:25:00 16.6 C 12.71 g/m*3 16.6 C 1.6 km/h
355 18-08-2020 05:30:00 16.6 C 12.71 g/m*3 16.6 C 4.8 km/h
356 18-08-2020 05:35:00 16.6 C 12.71 g/m*3 16.6 C 3.2 km/h
357 18-08-2020 05:40:00 16.7 C 12.65 g/m*3 16.7 C 4.8 km/h
358 18-08-2020 05:45:00 16.7 C 12.65 g/m*3 16.7 C 0 km/h
359 18-08-2020 05:50:00 16.6 C 12.57 g/m*3 16.6 C 4.8 km/h
360 18-08-2020 05:55:00 16.6 C 12.57 g/m*3 16.6 C 1.6 km/h
361 18-08-2020 06:00:00 16.6 C 12.57 g/m*3 16.6 C 1.6 km/h
362 18-08-2020 06:05:00 16.5 C 12.5 g/m*3 16.5 C 0 km/h
363 18-08-2020 06:10:00 16.4 C 12.42 g/m*3 16.4 C 1.6 km/h
364 18-08-2020 06:15:00 16.3 C 12.35 g/m*3 16.3 C 0 km/h
365 18-08-2020 06:20:00 16.3 C 12.35 g/m*3 16.3 C 4.8 km/h
366 18-08-2020 06:25:00 16.3 C 12.35 g/m*3 16.3 C 3.2 km/h
367 18-08-2020 06:30:00 16.3 C 12.35 g/m*3 16.3 C 4.8 km/h
368 18-08-2020 06:35:00 16.4 C 12.42 g/m*3 16.4 C 6.4 km/h
369 18-08-2020 06:40:00 16.4 C 12.42 g/m*3 16.4 C 1.6 km/h
370 18-08-2020 06:45:00 16.5 C 12.5 g/m*3 16.5 C 4.8 km/h
371 18-08-2020 06:50:00 16.7 C 12.51 g/m*3 16.7 C 8.1 km/h
372 18-08-2020 06:55:00 16.9 C 12.51 g/m*3 16.9 C 1.6 km/h
373 18-08-2020 07:00:00 17.1 C 12.52 g/m*3 17.1 C 6.4 km/h
374 18-08-2020 07:05:00 17.2 C 12.59 g/m*3 17.2 C 6.4 km/h
375 18-08-2020 07:10:00 17.3 C 12.52 g/m*3 17.3 C 3.2 km/h
Sensor: Nr:Datum:Temp:Abs-Feuchte:Windchill:Wind:
Aussen-T/F 376 18-08-2020 07:15:00 17.4 C 12.6 g/m*3 17.4 C 6.4 km/h
377 18-08-2020 07:20:00 17.6 C 12.6 g/m*3 17.6 C 3.2 km/h
378 18-08-2020 07:25:00 17.6 C 12.75 g/m*3 17.6 C 8.1 km/h
379 18-08-2020 07:30:00 17.7 C 12.67 g/m*3 17.7 C 4.8 km/h
380 18-08-2020 07:35:00 17.7 C 12.82 g/m*3 17.7 C 6.4 km/h
381 18-08-2020 07:40:00 17.7 C 12.82 g/m*3 17.7 C 3.2 km/h
382 18-08-2020 07:45:00 17.7 C 12.82 g/m*3 17.7 C 6.4 km/h
383 18-08-2020 07:50:00 17.7 C 12.82 g/m*3 17.7 C 6.4 km/h
384 18-08-2020 07:55:00 17.7 C 12.82 g/m*3 17.7 C 6.4 km/h
385 18-08-2020 08:00:00 17.7 C 12.98 g/m*3 17.7 C 8.1 km/h
386 18-08-2020 08:05:00 17.7 C 12.82 g/m*3 17.7 C 9.7 km/h
387 18-08-2020 08:10:00 17.7 C 12.98 g/m*3 17.7 C 6.4 km/h
388 18-08-2020 08:15:00 17.7 C 12.98 g/m*3 17.7 C 3.2 km/h
389 18-08-2020 08:20:00 17.7 C 12.98 g/m*3 17.7 C 6.4 km/h
390 18-08-2020 08:25:00 17.7 C 12.98 g/m*3 17.7 C 8.1 km/h
391 18-08-2020 08:30:00 17.8 C 13.05 g/m*3 17.8 C 9.7 km/h
392 18-08-2020 08:35:00 17.9 C 12.98 g/m*3 17.9 C 12.9 km/h
393 18-08-2020 08:40:00 18 C 13.06 g/m*3 18 C 12.9 km/h
394 18-08-2020 08:45:00 18.1 C 12.98 g/m*3 18.1 C 9.7 km/h
395 18-08-2020 08:50:00 18.1 C 12.98 g/m*3 18.1 C 12.9 km/h
396 18-08-2020 08:55:00 18.2 C 13.06 g/m*3 18.2 C 9.7 km/h
397 18-08-2020 09:00:00 18.3 C 13.13 g/m*3 18.3 C 11.3 km/h
398 18-08-2020 09:05:00 18.4 C 13.21 g/m*3 18.4 C 11.3 km/h
399 18-08-2020 09:10:00 18.4 C 13.21 g/m*3 18.4 C 8.1 km/h
400 18-08-2020 09:15:00 18.5 C 13.29 g/m*3 18.5 C 6.4 km/h
Sensor: Nr:Datum:Temp:Abs-Feuchte:Windchill:Wind:
Aussen-T/F 401 18-08-2020 09:20:00 18.6 C 13.21 g/m*3 18.6 C 9.7 km/h
402 18-08-2020 09:25:00 18.7 C 13.29 g/m*3 18.7 C 8.1 km/h
403 18-08-2020 09:30:00 18.8 C 13.37 g/m*3 18.8 C 8.1 km/h
404 18-08-2020 09:35:00 18.9 C 13.28 g/m*3 18.9 C 11.3 km/h
405 18-08-2020 09:40:00 19 C 13.36 g/m*3 19 C 11.3 km/h
406 18-08-2020 09:45:00 19.1 C 13.44 g/m*3 19.1 C 8.1 km/h
407 18-08-2020 09:50:00 19.1 C 13.44 g/m*3 19.1 C 9.7 km/h
408 18-08-2020 09:55:00 19.2 C 13.36 g/m*3 19.2 C 4.8 km/h
409 18-08-2020 10:00:00 19.3 C 13.44 g/m*3 19.3 C 11.3 km/h
410 18-08-2020 10:05:00 19.5 C 13.59 g/m*3 19.5 C 11.3 km/h
411 18-08-2020 10:10:00 19.7 C 13.75 g/m*3 19.7 C 4.8 km/h
412 18-08-2020 10:15:00 19.8 C 13.66 g/m*3 19.8 C 9.7 km/h
413 18-08-2020 10:20:00 19.9 C 13.57 g/m*3 19.9 C 8.1 km/h
414 18-08-2020 10:25:00 20 C 13.83 g/m*3 20 C 8.1 km/h
415 18-08-2020 10:30:00 20.1 C 13.73 g/m*3 20.1 C 1.6 km/h
416 18-08-2020 10:35:00 20.2 C 13.99 g/m*3 20.2 C 6.4 km/h
417 18-08-2020 10:40:00 20.3 C 13.89 g/m*3 20.3 C 4.8 km/h
418 18-08-2020 10:45:00 20.3 C 13.72 g/m*3 20.3 C 4.8 km/h
419 18-08-2020 10:50:00 20.4 C 13.98 g/m*3 20.4 C 1.6 km/h
420 18-08-2020 10:55:00 20.6 C 13.96 g/m*3 20.6 C 6.4 km/h
421 18-08-2020 11:00:00 20.8 C 13.94 g/m*3 20.8 C 4.8 km/h
422 18-08-2020 11:05:00 20.9 C 13.84 g/m*3 20.9 C 8.1 km/h
423 18-08-2020 11:10:00 21.2 C 14.08 g/m*3 21.2 C 4.8 km/h
424 18-08-2020 11:15:00 21.3 C 13.79 g/m*3 21.3 C 6.4 km/h
425 18-08-2020 11:20:00 21.4 C 13.69 g/m*3 21.4 C 4.8 km/h
Sensor: Nr:Datum:Temp:Abs-Feuchte:Windchill:Wind:
Aussen-T/F 426 18-08-2020 11:25:00 21.5 C 13.58 g/m*3 21.5 C 8.1 km/h
427 18-08-2020 11:30:00 21.6 C 13.47 g/m*3 21.6 C 8.1 km/h
428 18-08-2020 11:35:00 21.7 C 13.35 g/m*3 21.7 C 8.1 km/h
429 18-08-2020 11:40:00 21.7 C 13.35 g/m*3 21.7 C 4.8 km/h
430 18-08-2020 11:45:00 21.8 C 13.05 g/m*3 21.8 C 9.7 km/h
431 18-08-2020 11:50:00 22 C 13.2 g/m*3 22 C 12.9 km/h
432 18-08-2020 11:55:00 22.2 C 13.55 g/m*3 22.2 C 4.8 km/h
433 18-08-2020 12:00:00 22.3 C 13.23 g/m*3 22.3 C 11.3 km/h
434 18-08-2020 12:05:00 22.4 C 13.31 g/m*3 22.4 C 16.1 km/h
435 18-08-2020 12:10:00 22.5 C 13.38 g/m*3 22.5 C 3.2 km/h
436 18-08-2020 12:15:00 22.6 C 13.06 g/m*3 22.6 C 9.7 km/h
437 18-08-2020 12:20:00 22.7 C 13.13 g/m*3 22.7 C 9.7 km/h
438 18-08-2020 12:25:00 22.7 C 13.33 g/m*3 22.7 C 6.4 km/h
439 18-08-2020 12:30:00 22.8 C 13.21 g/m*3 22.8 C 9.7 km/h
440 18-08-2020 12:35:00 22.8 C 13 g/m*3 22.8 C 9.7 km/h
441 18-08-2020 12:40:00 23 C 13.15 g/m*3 23 C 8.1 km/h
442 18-08-2020 12:45:00 23.1 C 13.02 g/m*3 23.1 C 8.1 km/h
443 18-08-2020 12:50:00 23.2 C 13.1 g/m*3 23.2 C 9.7 km/h
444 18-08-2020 12:55:00 23.4 C 12.62 g/m*3 23.4 C 9.7 km/h
445 18-08-2020 13:00:00 23.4 C 13.04 g/m*3 23.4 C 9.7 km/h
446 18-08-2020 13:05:00 23.4 C 13.46 g/m*3 23.4 C 6.4 km/h
447 18-08-2020 13:10:00 23.3 C 13.17 g/m*3 23.3 C 9.7 km/h
448 18-08-2020 13:15:00 23.3 C 12.96 g/m*3 23.3 C 9.7 km/h
449 18-08-2020 13:20:00 23.4 C 13.04 g/m*3 23.4 C 12.9 km/h
450 18-08-2020 13:25:00 23.5 C 13.32 g/m*3 23.5 C 11.3 km/h
Sensor: Nr:Datum:Temp:Abs-Feuchte:Windchill:Wind:
Aussen-T/F 451 18-08-2020 13:30:00 23.6 C 12.97 g/m*3 23.6 C 9.7 km/h
452 18-08-2020 13:35:00 23.6 C 12.97 g/m*3 23.6 C 6.4 km/h
453 18-08-2020 13:40:00 23.6 C 12.97 g/m*3 23.6 C 4.8 km/h
454 18-08-2020 13:45:00 23.7 C 13.26 g/m*3 23.7 C 8.1 km/h
455 18-08-2020 13:50:00 23.8 C 13.34 g/m*3 23.8 C 4.8 km/h
456 18-08-2020 13:55:00 23.9 C 13.2 g/m*3 23.9 C 8.1 km/h
457 18-08-2020 14:00:00 24 C 13.05 g/m*3 24 C 3.2 km/h
458 18-08-2020 14:05:00 24.1 C 13.13 g/m*3 24.1 C 0 km/h
459 18-08-2020 14:10:00 24.2 C 13.2 g/m*3 24.2 C 9.7 km/h
460 18-08-2020 14:15:00 24.3 C 12.83 g/m*3 24.3 C 8.1 km/h
461 18-08-2020 14:20:00 24.6 C 13.05 g/m*3 24.6 C 12.9 km/h
462 18-08-2020 14:25:00 24.7 C 13.13 g/m*3 24.7 C 6.4 km/h
463 18-08-2020 14:30:00 24.8 C 13.2 g/m*3 24.8 C 9.7 km/h
464 18-08-2020 14:35:00 24.9 C 12.82 g/m*3 24.9 C 8.1 km/h
465 18-08-2020 14:40:00 25 C 13.12 g/m*3 25 C 11.3 km/h
466 18-08-2020 14:45:00 25.1 C 12.73 g/m*3 25.1 C 14.5 km/h
467 18-08-2020 14:50:00 24.9 C 12.59 g/m*3 24.9 C 8.1 km/h
468 18-08-2020 14:55:00 24.9 C 12.59 g/m*3 24.9 C 9.7 km/h
469 18-08-2020 15:00:00 24.9 C 12.59 g/m*3 24.9 C 6.4 km/h
470 18-08-2020 15:05:00 24.8 C 12.75 g/m*3 24.8 C 14.5 km/h
471 18-08-2020 15:10:00 24.4 C 13.13 g/m*3 24.4 C 12.9 km/h
472 18-08-2020 15:15:00 24.1 C 12.47 g/m*3 24.1 C 19.3 km/h
473 18-08-2020 15:20:00 23.6 C 12.76 g/m*3 23.6 C 19.3 km/h
474 18-08-2020 15:25:00 23.5 C 12.9 g/m*3 23.5 C 12.9 km/h
475 18-08-2020 15:30:00 23.4 C 13.04 g/m*3 23.4 C 9.7 km/h
Sensor: Nr:Datum:Temp:Abs-Feuchte:Windchill:Wind:
Aussen-T/F 476 18-08-2020 15:35:00 23.6 C 12.97 g/m*3 23.6 C 8.1 km/h
477 18-08-2020 15:40:00 23.7 C 12.83 g/m*3 23.7 C 11.3 km/h
478 18-08-2020 15:45:00 23.7 C 12.62 g/m*3 23.7 C 11.3 km/h
479 18-08-2020 15:50:00 23.6 C 11.91 g/m*3 23.6 C 11.3 km/h
480 18-08-2020 15:55:00 23.7 C 11.55 g/m*3 23.7 C 9.7 km/h
481 18-08-2020 16:00:00 23.8 C 11.4 g/m*3 23.8 C 12.9 km/h
482 18-08-2020 16:05:00 23.6 C 11.27 g/m*3 23.6 C 9.7 km/h
483 18-08-2020 16:10:00 23.4 C 11.35 g/m*3 23.4 C 4.8 km/h
484 18-08-2020 16:15:00 23.2 C 11.23 g/m*3 23.2 C 9.7 km/h
485 18-08-2020 16:20:00 22.9 C 11.24 g/m*3 22.9 C 6.4 km/h
486 18-08-2020 16:25:00 22.8 C 11.18 g/m*3 22.8 C 6.4 km/h
487 18-08-2020 16:30:00 22.7 C 11.31 g/m*3 22.7 C 1.6 km/h
488 18-08-2020 16:35:00 22.7 C 12.12 g/m*3 22.7 C 8.1 km/h
489 18-08-2020 16:40:00 22 C 13.2 g/m*3 22 C 8.1 km/h
490 18-08-2020 16:45:00 21.3 C 14.17 g/m*3 21.3 C 9.7 km/h
491 18-08-2020 16:50:00 20.4 C 13.98 g/m*3 20.4 C 11.3 km/h
492 18-08-2020 16:55:00 19.6 C 13.84 g/m*3 19.6 C 12.9 km/h
493 18-08-2020 17:00:00 18.9 C 13.45 g/m*3 18.9 C 9.7 km/h
494 18-08-2020 17:05:00 18.6 C 13.69 g/m*3 18.6 C 8.1 km/h
495 18-08-2020 17:10:00 18.4 C 13.84 g/m*3 18.4 C 11.3 km/h
496 18-08-2020 17:15:00 18.3 C 14.07 g/m*3 18.3 C 8.1 km/h
497 18-08-2020 17:20:00 18.4 C 14.31 g/m*3 18.4 C 6.4 km/h
498 18-08-2020 17:25:00 18.6 C 14.64 g/m*3 18.6 C 3.2 km/h
499 18-08-2020 17:30:00 18.7 C 14.73 g/m*3 18.7 C 0 km/h
500 18-08-2020 17:35:00 18.9 C 15.07 g/m*3 18.9 C 0 km/h
Sensor: Nr:Datum:Temp:Abs-Feuchte:Windchill:Wind:
Aussen-T/F 501 18-08-2020 17:40:00 19.1 C 15.25 g/m*3 19.1 C 0 km/h
502 18-08-2020 17:45:00 19.4 C 15.68 g/m*3 19.4 C 1.6 km/h
503 18-08-2020 17:50:00 19.7 C 15.96 g/m*3 19.7 C 4.8 km/h
504 18-08-2020 17:55:00 19.8 C 15.89 g/m*3 19.8 C 1.6 km/h
505 18-08-2020 18:00:00 19.8 C 15.89 g/m*3 19.8 C 4.8 km/h
506 18-08-2020 18:05:00 19.9 C 15.98 g/m*3 19.9 C 8.1 km/h
507 18-08-2020 18:10:00 19.7 C 15.45 g/m*3 19.7 C 8.1 km/h
508 18-08-2020 18:15:00 19.5 C 15.27 g/m*3 19.5 C 6.4 km/h
509 18-08-2020 18:20:00 19.4 C 15.18 g/m*3 19.4 C 6.4 km/h
510 18-08-2020 18:25:00 19.4 C 15.35 g/m*3 19.4 C 4.8 km/h
511 18-08-2020 18:30:00 19.4 C 15.35 g/m*3 19.4 C 6.4 km/h
512 18-08-2020 18:35:00 19.4 C 15.35 g/m*3 19.4 C 9.7 km/h
513 18-08-2020 18:40:00 19.4 C 15.35 g/m*3 19.4 C 1.6 km/h
514 18-08-2020 18:45:00 19.4 C 15.35 g/m*3 19.4 C 6.4 km/h
515 18-08-2020 18:50:00 19.3 C 15.26 g/m*3 19.3 C 4.8 km/h
516 18-08-2020 18:55:00 19.2 C 15.17 g/m*3 19.2 C 6.4 km/h
517 18-08-2020 19:00:00 19.1 C 15.08 g/m*3 19.1 C 6.4 km/h
518 18-08-2020 19:05:00 18.9 C 14.9 g/m*3 18.9 C 8.1 km/h
519 18-08-2020 19:10:00 18.7 C 14.73 g/m*3 18.7 C 8.1 km/h
520 18-08-2020 19:15:00 18.6 C 14.64 g/m*3 18.6 C 8.1 km/h
521 18-08-2020 19:20:00 18.4 C 14.47 g/m*3 18.4 C 9.7 km/h
522 18-08-2020 19:25:00 18.2 C 14.3 g/m*3 18.2 C 9.7 km/h
523 18-08-2020 19:30:00 18.1 C 14.37 g/m*3 18.1 C 8.1 km/h
524 18-08-2020 19:35:00 18 C 14.28 g/m*3 18 C 6.4 km/h
525 18-08-2020 19:40:00 18 C 14.28 g/m*3 18 C 6.4 km/h
Sensor: Nr:Datum:Temp:Abs-Feuchte:Windchill:Wind:
Aussen-T/F 526 18-08-2020 19:45:00 17.9 C 14.2 g/m*3 17.9 C 4.8 km/h
527 18-08-2020 19:50:00 17.9 C 14.35 g/m*3 17.9 C 6.4 km/h
528 18-08-2020 19:55:00 17.9 C 14.35 g/m*3 17.9 C 4.8 km/h
529 18-08-2020 20:00:00 18 C 14.44 g/m*3 18 C 6.4 km/h
530 18-08-2020 20:05:00 18 C 14.44 g/m*3 18 C 6.4 km/h
531 18-08-2020 20:10:00 17.9 C 14.35 g/m*3 17.9 C 6.4 km/h
532 18-08-2020 20:15:00 17.9 C 14.35 g/m*3 17.9 C 4.8 km/h
533 18-08-2020 20:20:00 17.9 C 14.35 g/m*3 17.9 C 4.8 km/h
534 18-08-2020 20:25:00 17.9 C 14.35 g/m*3 17.9 C 8.1 km/h
535 18-08-2020 20:30:00 17.9 C 14.35 g/m*3 17.9 C 4.8 km/h
536 18-08-2020 20:35:00 17.8 C 14.27 g/m*3 17.8 C 8.1 km/h
537 18-08-2020 20:40:00 17.7 C 14.18 g/m*3 17.7 C 6.4 km/h
538 18-08-2020 20:45:00 17.6 C 14.1 g/m*3 17.6 C 6.4 km/h
539 18-08-2020 20:50:00 17.4 C 13.93 g/m*3 17.4 C 8.1 km/h
540 18-08-2020 20:55:00 17.3 C 13.85 g/m*3 17.3 C 6.4 km/h
541 18-08-2020 21:00:00 17.1 C 13.68 g/m*3 17.1 C 8.1 km/h
542 18-08-2020 21:05:00 17 C 13.6 g/m*3 17 C 6.4 km/h
543 18-08-2020 21:10:00 16.9 C 13.52 g/m*3 16.9 C 6.4 km/h
544 18-08-2020 21:15:00 16.9 C 13.52 g/m*3 16.9 C 6.4 km/h
545 18-08-2020 21:20:00 16.8 C 13.44 g/m*3 16.8 C 6.4 km/h
546 18-08-2020 21:25:00 16.8 C 13.44 g/m*3 16.8 C 6.4 km/h
547 18-08-2020 21:30:00 16.7 C 13.36 g/m*3 16.7 C 8.1 km/h
548 18-08-2020 21:35:00 16.6 C 13.28 g/m*3 16.6 C 8.1 km/h
549 18-08-2020 21:40:00 16.6 C 13.42 g/m*3 16.6 C 6.4 km/h
550 18-08-2020 21:45:00 16.5 C 13.34 g/m*3 16.5 C 6.4 km/h
Sensor: Nr:Datum:Temp:Abs-Feuchte:Windchill:Wind:
Aussen-T/F 551 18-08-2020 21:50:00 16.4 C 13.26 g/m*3 16.4 C 3.2 km/h
552 18-08-2020 21:55:00 16.3 C 13.18 g/m*3 16.3 C 4.8 km/h
553 18-08-2020 22:00:00 16.2 C 12.96 g/m*3 16.2 C 1.6 km/h
554 18-08-2020 22:05:00 16.2 C 13.1 g/m*3 16.2 C 3.2 km/h
555 18-08-2020 22:10:00 16.1 C 13.02 g/m*3 16.1 C 3.2 km/h
556 18-08-2020 22:15:00 16.1 C 13.02 g/m*3 16.1 C 1.6 km/h
557 18-08-2020 22:20:00 16 C 12.94 g/m*3 16 C 3.2 km/h
558 18-08-2020 22:25:00 16 C 12.94 g/m*3 16 C 1.6 km/h
559 18-08-2020 22:30:00 16 C 12.94 g/m*3 16 C 1.6 km/h
560 18-08-2020 22:35:00 15.9 C 12.87 g/m*3 15.9 C 4.8 km/h
561 18-08-2020 22:40:00 15.9 C 12.87 g/m*3 15.9 C 6.4 km/h
562 18-08-2020 22:45:00 15.9 C 12.87 g/m*3 15.9 C 0 km/h
563 18-08-2020 22:50:00 15.8 C 12.79 g/m*3 15.8 C 3.2 km/h
564 18-08-2020 22:55:00 15.7 C 12.71 g/m*3 15.7 C 3.2 km/h
565 18-08-2020 23:00:00 15.6 C 12.63 g/m*3 15.6 C 3.2 km/h
566 18-08-2020 23:05:00 15.4 C 12.48 g/m*3 15.4 C 3.2 km/h
567 18-08-2020 23:10:00 15.3 C 12.41 g/m*3 15.3 C 0 km/h
568 18-08-2020 23:15:00 15.2 C 12.33 g/m*3 15.2 C 0 km/h
569 18-08-2020 23:20:00 15.1 C 12.26 g/m*3 15.1 C 4.8 km/h
570 18-08-2020 23:25:00 15.1 C 12.26 g/m*3 15.1 C 4.8 km/h
571 18-08-2020 23:30:00 15 C 12.18 g/m*3 15 C 3.2 km/h
572 18-08-2020 23:35:00 14.9 C 12.11 g/m*3 14.9 C 0 km/h
573 18-08-2020 23:40:00 14.9 C 12.11 g/m*3 14.9 C 0 km/h
574 18-08-2020 23:45:00 14.8 C 12.03 g/m*3 14.8 C 0 km/h
575 18-08-2020 23:50:00 14.8 C 12.03 g/m*3 14.8 C 0 km/h
Sensor: Nr:Datum:Temp:Abs-Feuchte:Windchill:Wind:
Aussen-T/F 576 18-08-2020 23:55:00 14.8 C 12.03 g/m*3 14.8 C 0 km/h
577 19-08-2020 00:00:00 14.8 C 12.03 g/m*3 14.8 C 0 km/h
578 19-08-2020 00:05:00 14.8 C 12.03 g/m*3 14.8 C 0 km/h
579 19-08-2020 00:10:00 14.8 C 12.03 g/m*3 14.8 C 0 km/h
580 19-08-2020 00:15:00 14.8 C 12.16 g/m*3 14.8 C 0 km/h
581 19-08-2020 00:20:00 14.8 C 12.16 g/m*3 14.8 C 1.6 km/h
582 19-08-2020 00:25:00 14.8 C 12.16 g/m*3 14.8 C 0 km/h
583 19-08-2020 00:30:00 14.8 C 12.16 g/m*3 14.8 C 0 km/h
584 19-08-2020 00:35:00 14.8 C 12.16 g/m*3 14.8 C 1.6 km/h
585 19-08-2020 00:40:00 14.8 C 12.16 g/m*3 14.8 C 0 km/h
586 19-08-2020 00:45:00 14.8 C 12.16 g/m*3 14.8 C 0 km/h
587 19-08-2020 00:50:00 14.8 C 12.16 g/m*3 14.8 C 3.2 km/h
588 19-08-2020 00:55:00 14.8 C 12.16 g/m*3 14.8 C 3.2 km/h
589 19-08-2020 01:00:00 14.7 C 12.09 g/m*3 14.7 C 0 km/h
590 19-08-2020 01:05:00 14.7 C 12.09 g/m*3 14.7 C 0 km/h
591 19-08-2020 01:10:00 14.6 C 12.01 g/m*3 14.6 C 0 km/h
592 19-08-2020 01:15:00 14.6 C 12.01 g/m*3 14.6 C 0 km/h
593 19-08-2020 01:20:00 14.5 C 11.94 g/m*3 14.5 C 0 km/h
594 19-08-2020 01:25:00 14.5 C 11.94 g/m*3 14.5 C 0 km/h
595 19-08-2020 01:30:00 14.4 C 11.87 g/m*3 14.4 C 0 km/h
596 19-08-2020 01:35:00 14.4 C 11.87 g/m*3 14.4 C 0 km/h
597 19-08-2020 01:40:00 14.3 C 11.79 g/m*3 14.3 C 0 km/h
598 19-08-2020 01:45:00 14.2 C 11.72 g/m*3 14.2 C 0 km/h
599 19-08-2020 01:50:00 14.2 C 11.72 g/m*3 14.2 C 0 km/h
600 19-08-2020 01:55:00 14.2 C 11.72 g/m*3 14.2 C 0 km/h
Sensor: Nr:Datum:Temp:Abs-Feuchte:Windchill:Wind:
Aussen-T/F 601 19-08-2020 02:00:00 14.1 C 11.65 g/m*3 14.1 C 0 km/h
602 19-08-2020 02:05:00 14.1 C 11.65 g/m*3 14.1 C 0 km/h
603 19-08-2020 02:10:00 14.1 C 11.65 g/m*3 14.1 C 0 km/h
604 19-08-2020 02:15:00 14.1 C 11.65 g/m*3 14.1 C 0 km/h
605 19-08-2020 02:20:00 14.1 C 11.65 g/m*3 14.1 C 0 km/h
606 19-08-2020 02:25:00 14.1 C 11.65 g/m*3 14.1 C 0 km/h
607 19-08-2020 02:30:00 14.1 C 11.65 g/m*3 14.1 C 0 km/h
608 19-08-2020 02:35:00 14.1 C 11.65 g/m*3 14.1 C 0 km/h
609 19-08-2020 02:40:00 14.1 C 11.65 g/m*3 14.1 C 0 km/h
610 19-08-2020 02:45:00 14 C 11.58 g/m*3 14 C 0 km/h
611 19-08-2020 02:50:00 13.9 C 11.51 g/m*3 13.9 C 0 km/h
612 19-08-2020 02:55:00 13.9 C 11.51 g/m*3 13.9 C 0 km/h
613 19-08-2020 03:00:00 13.9 C 11.51 g/m*3 13.9 C 0 km/h
614 19-08-2020 03:05:00 13.8 C 11.44 g/m*3 13.8 C 1.6 km/h
615 19-08-2020 03:10:00 13.8 C 11.44 g/m*3 13.8 C 0 km/h
616 19-08-2020 03:15:00 13.8 C 11.44 g/m*3 13.8 C 0 km/h
617 19-08-2020 03:20:00 13.8 C 11.44 g/m*3 13.8 C 0 km/h
618 19-08-2020 03:25:00 13.8 C 11.44 g/m*3 13.8 C 0 km/h
619 19-08-2020 03:30:00 13.7 C 11.37 g/m*3 13.7 C 0 km/h
620 19-08-2020 03:35:00 13.7 C 11.37 g/m*3 13.7 C 1.6 km/h
621 19-08-2020 03:40:00 13.7 C 11.49 g/m*3 13.7 C 0 km/h
622 19-08-2020 03:45:00 13.7 C 11.37 g/m*3 13.7 C 0 km/h
623 19-08-2020 03:50:00 13.7 C 11.37 g/m*3 13.7 C 0 km/h
624 19-08-2020 03:55:00 13.7 C 11.37 g/m*3 13.7 C 0 km/h
625 19-08-2020 04:00:00 13.6 C 11.3 g/m*3 13.6 C 0 km/h
Sensor: Nr:Datum:Temp:Abs-Feuchte:Windchill:Wind:
Aussen-T/F 626 19-08-2020 04:05:00 13.5 C 11.23 g/m*3 13.5 C 1.6 km/h
627 19-08-2020 04:10:00 13.5 C 11.35 g/m*3 13.5 C 0 km/h
628 19-08-2020 04:15:00 13.5 C 11.35 g/m*3 13.5 C 0 km/h
629 19-08-2020 04:20:00 13.5 C 11.35 g/m*3 13.5 C 0 km/h
630 19-08-2020 04:25:00 13.5 C 11.35 g/m*3 13.5 C 0 km/h
631 19-08-2020 04:30:00 13.4 C 11.28 g/m*3 13.4 C 0 km/h
632 19-08-2020 04:35:00 13.4 C 11.28 g/m*3 13.4 C 0 km/h
633 19-08-2020 04:40:00 13.3 C 11.09 g/m*3 13.3 C 0 km/h
634 19-08-2020 04:45:00 13.3 C 11.09 g/m*3 13.3 C 0 km/h
635 19-08-2020 04:50:00 13.2 C 11.02 g/m*3 13.2 C 0 km/h
636 19-08-2020 04:55:00 13.1 C 10.95 g/m*3 13.1 C 0 km/h
637 19-08-2020 05:00:00 13.1 C 10.95 g/m*3 13.1 C 0 km/h
638 19-08-2020 05:05:00 13.1 C 11.07 g/m*3 13.1 C 0 km/h
639 19-08-2020 05:10:00 13.1 C 10.95 g/m*3 13.1 C 0 km/h
640 19-08-2020 05:15:00 13 C 10.89 g/m*3 13 C 0 km/h
641 19-08-2020 05:20:00 13.1 C 11.07 g/m*3 13.1 C 0 km/h
642 19-08-2020 05:25:00 13.1 C 11.07 g/m*3 13.1 C 0 km/h
643 19-08-2020 05:30:00 13.1 C 11.07 g/m*3 13.1 C 0 km/h
644 19-08-2020 05:35:00 13.1 C 11.07 g/m*3 13.1 C 1.6 km/h
645 19-08-2020 05:40:00 13.1 C 11.07 g/m*3 13.1 C 0 km/h
646 19-08-2020 05:45:00 13.1 C 11.07 g/m*3 13.1 C 0 km/h
647 19-08-2020 05:50:00 13.2 C 11.14 g/m*3 13.2 C 0 km/h
648 19-08-2020 05:55:00 13.2 C 11.14 g/m*3 13.2 C 0 km/h
649 19-08-2020 06:00:00 13.1 C 11.07 g/m*3 13.1 C 0 km/h
650 19-08-2020 06:05:00 13.1 C 11.07 g/m*3 13.1 C 0 km/h
Sensor: Nr:Datum:Temp:Abs-Feuchte:Windchill:Wind:
Aussen-T/F 651 19-08-2020 06:10:00 13 C 11 g/m*3 13 C 0 km/h
652 19-08-2020 06:15:00 12.9 C 10.93 g/m*3 12.9 C 0 km/h
653 19-08-2020 06:20:00 13 C 11 g/m*3 13 C 0 km/h
654 19-08-2020 06:25:00 13.1 C 11.07 g/m*3 13.1 C 0 km/h
655 19-08-2020 06:30:00 13.1 C 11.07 g/m*3 13.1 C 0 km/h
656 19-08-2020 06:35:00 13.2 C 11.14 g/m*3 13.2 C 0 km/h
657 19-08-2020 06:40:00 13.3 C 11.21 g/m*3 13.3 C 0 km/h
658 19-08-2020 06:45:00 13.3 C 11.21 g/m*3 13.3 C 0 km/h
659 19-08-2020 06:50:00 13.4 C 11.28 g/m*3 13.4 C 0 km/h
660 19-08-2020 06:55:00 13.4 C 11.28 g/m*3 13.4 C 0 km/h
661 19-08-2020 07:00:00 13.5 C 11.35 g/m*3 13.5 C 0 km/h
662 19-08-2020 07:05:00 13.6 C 11.42 g/m*3 13.6 C 0 km/h
663 19-08-2020 07:10:00 13.7 C 11.49 g/m*3 13.7 C 0 km/h
664 19-08-2020 07:15:00 13.8 C 11.56 g/m*3 13.8 C 0 km/h
665 19-08-2020 07:20:00 13.9 C 11.63 g/m*3 13.9 C 0 km/h
666 19-08-2020 07:25:00 13.9 C 11.63 g/m*3 13.9 C 0 km/h
667 19-08-2020 07:30:00 13.9 C 11.63 g/m*3 13.9 C 0 km/h
668 19-08-2020 07:35:00 14 C 11.7 g/m*3 14 C 0 km/h
669 19-08-2020 07:40:00 14.1 C 11.77 g/m*3 14.1 C 0 km/h
670 19-08-2020 07:45:00 14.2 C 11.84 g/m*3 14.2 C 0 km/h
671 19-08-2020 07:50:00 14.2 C 11.84 g/m*3 14.2 C 0 km/h
672 19-08-2020 07:55:00 14.3 C 11.92 g/m*3 14.3 C 0 km/h
673 19-08-2020 08:00:00 14.4 C 11.99 g/m*3 14.4 C 0 km/h
674 19-08-2020 08:05:00 14.4 C 11.99 g/m*3 14.4 C 1.6 km/h
675 19-08-2020 08:10:00 14.4 C 11.99 g/m*3 14.4 C 0 km/h
Sensor: Nr:Datum:Temp:Abs-Feuchte:Windchill:Wind:
Aussen-T/F 676 19-08-2020 08:15:00 14.4 C 11.99 g/m*3 14.4 C 0 km/h
677 19-08-2020 08:20:00 14.4 C 11.99 g/m*3 14.4 C 1.6 km/h
678 19-08-2020 08:25:00 14.4 C 11.99 g/m*3 14.4 C 3.2 km/h
679 19-08-2020 08:30:00 14.5 C 12.06 g/m*3 14.5 C 0 km/h
680 19-08-2020 08:35:00 14.6 C 12.14 g/m*3 14.6 C 1.6 km/h
681 19-08-2020 08:40:00 14.4 C 11.99 g/m*3 14.4 C 1.6 km/h
682 19-08-2020 08:45:00 14.5 C 12.06 g/m*3 14.5 C 0 km/h
683 19-08-2020 08:50:00 14.5 C 12.06 g/m*3 14.5 C 0 km/h
684 19-08-2020 08:55:00 14.5 C 12.06 g/m*3 14.5 C 0 km/h
685 19-08-2020 09:00:00 14.6 C 12.14 g/m*3 14.6 C 1.6 km/h
686 19-08-2020 09:05:00 14.8 C 12.29 g/m*3 14.8 C 0 km/h
687 19-08-2020 09:10:00 14.9 C 12.36 g/m*3 14.9 C 0 km/h
688 19-08-2020 09:15:00 15.1 C 12.64 g/m*3 15.1 C 0 km/h
689 19-08-2020 09:20:00 15.1 C 12.64 g/m*3 15.1 C 0 km/h
690 19-08-2020 09:25:00 15.1 C 12.51 g/m*3 15.1 C 1.6 km/h
691 19-08-2020 09:30:00 15.1 C 12.51 g/m*3 15.1 C 1.6 km/h
692 19-08-2020 09:35:00 15.3 C 12.8 g/m*3 15.3 C 3.2 km/h
693 19-08-2020 09:40:00 15.3 C 12.8 g/m*3 15.3 C 1.6 km/h
694 19-08-2020 09:45:00 15.3 C 12.8 g/m*3 15.3 C 0 km/h
695 19-08-2020 09:50:00 15.3 C 12.67 g/m*3 15.3 C 0 km/h
696 19-08-2020 09:55:00 15.3 C 12.67 g/m*3 15.3 C 0 km/h
697 19-08-2020 10:00:00 15.4 C 12.74 g/m*3 15.4 C 0 km/h
698 19-08-2020 10:05:00 15.4 C 12.74 g/m*3 15.4 C 0 km/h
699 19-08-2020 10:10:00 15.6 C 12.9 g/m*3 15.6 C 0 km/h
700 19-08-2020 10:15:00 15.7 C 12.98 g/m*3 15.7 C 0 km/h
Sensor: Nr:Datum:Temp:Abs-Feuchte:Windchill:Wind:
Aussen-T/F 701 19-08-2020 10:20:00 15.7 C 13.11 g/m*3 15.7 C 0 km/h
702 19-08-2020 10:25:00 15.9 C 13.14 g/m*3 15.9 C 0 km/h
703 19-08-2020 10:30:00 16.1 C 13.43 g/m*3 16.1 C 0 km/h
704 19-08-2020 10:35:00 16.2 C 13.51 g/m*3 16.2 C 0 km/h
705 19-08-2020 10:40:00 16.3 C 13.6 g/m*3 16.3 C 0 km/h
706 19-08-2020 10:45:00 16.5 C 13.76 g/m*3 16.5 C 0 km/h
707 19-08-2020 10:50:00 16.6 C 13.84 g/m*3 16.6 C 0 km/h
708 19-08-2020 10:55:00 16.8 C 14.01 g/m*3 16.8 C 0 km/h
709 19-08-2020 11:00:00 17.1 C 14.27 g/m*3 17.1 C 0 km/h
710 19-08-2020 11:05:00 17.4 C 14.52 g/m*3 17.4 C 0 km/h
711 19-08-2020 11:10:00 17.6 C 14.7 g/m*3 17.6 C 0 km/h
712 19-08-2020 11:15:00 17.8 C 14.87 g/m*3 17.8 C 0 km/h
713 19-08-2020 11:20:00 17.9 C 14.96 g/m*3 17.9 C 0 km/h
714 19-08-2020 11:25:00 18.1 C 15.14 g/m*3 18.1 C 0 km/h
715 19-08-2020 11:30:00 18.3 C 15.32 g/m*3 18.3 C 0 km/h
716 19-08-2020 11:35:00 18.5 C 15.51 g/m*3 18.5 C 0 km/h
717 19-08-2020 11:40:00 18.6 C 15.6 g/m*3 18.6 C 0 km/h
718 19-08-2020 11:45:00 18.8 C 15.62 g/m*3 18.8 C 0 km/h
719 19-08-2020 11:50:00 18.9 C 15.71 g/m*3 18.9 C 0 km/h
720 19-08-2020 11:55:00 18.9 C 15.71 g/m*3 18.9 C 0 km/h
721 19-08-2020 12:00:00 19.1 C 15.74 g/m*3 19.1 C 4.8 km/h
722 19-08-2020 12:05:00 19.3 C 15.92 g/m*3 19.3 C 0 km/h
723 19-08-2020 12:10:00 19.6 C 16.04 g/m*3 19.6 C 3.2 km/h
724 19-08-2020 12:15:00 19.9 C 16.15 g/m*3 19.9 C 3.2 km/h
725 19-08-2020 12:20:00 20.2 C 16.44 g/m*3 20.2 C 0 km/h
Sensor: Nr:Datum:Temp:Abs-Feuchte:Windchill:Wind:
Aussen-T/F 726 19-08-2020 12:25:00 20.4 C 16.63 g/m*3 20.4 C 1.6 km/h
727 19-08-2020 12:30:00 20.5 C 16.55 g/m*3 20.5 C 1.6 km/h
728 19-08-2020 12:35:00 20.6 C 16.64 g/m*3 20.6 C 1.6 km/h
729 19-08-2020 12:40:00 20.6 C 16.47 g/m*3 20.6 C 1.6 km/h
730 19-08-2020 12:45:00 20.6 C 16.29 g/m*3 20.6 C 4.8 km/h
731 19-08-2020 12:50:00 20.6 C 16.29 g/m*3 20.6 C 4.8 km/h
732 19-08-2020 12:55:00 20.7 C 16.38 g/m*3 20.7 C 3.2 km/h
733 19-08-2020 13:00:00 20.7 C 15.66 g/m*3 20.7 C 0 km/h
734 19-08-2020 13:05:00 20.9 C 15.84 g/m*3 20.9 C 0 km/h
735 19-08-2020 13:10:00 21.1 C 15.66 g/m*3 21.1 C 0 km/h
736 19-08-2020 13:15:00 21.5 C 15.09 g/m*3 21.5 C 3.2 km/h
737 19-08-2020 13:20:00 22.2 C 14.53 g/m*3 22.2 C 4.8 km/h
738 19-08-2020 13:25:00 22.9 C 14.51 g/m*3 22.9 C 6.4 km/h
739 19-08-2020 13:30:00 23.3 C 15.05 g/m*3 23.3 C 0 km/h
740 19-08-2020 13:35:00 23.6 C 15.1 g/m*3 23.6 C 3.2 km/h
741 19-08-2020 13:40:00 23.8 C 14.63 g/m*3 23.8 C 0 km/h
742 19-08-2020 13:45:00 23.9 C 14.28 g/m*3 23.9 C 4.8 km/h
743 19-08-2020 13:50:00 24.3 C 14.16 g/m*3 24.3 C 6.4 km/h
744 19-08-2020 13:55:00 24.4 C 13.8 g/m*3 24.4 C 4.8 km/h
745 19-08-2020 14:00:00 24.7 C 13.58 g/m*3 24.7 C 6.4 km/h
746 19-08-2020 14:05:00 24.9 C 14.88 g/m*3 24.9 C 1.6 km/h
747 19-08-2020 14:10:00 25 C 13.58 g/m*3 25 C 8.1 km/h
748 19-08-2020 14:15:00 25.2 C 13.5 g/m*3 25.2 C 6.4 km/h
749 19-08-2020 14:20:00 25.3 C 13.81 g/m*3 25.3 C 3.2 km/h
750 19-08-2020 14:25:00 25.4 C 14.13 g/m*3 25.4 C 0 km/h
Sensor: Nr:Datum:Temp:Abs-Feuchte:Windchill:Wind:
Aussen-T/F 751 19-08-2020 14:30:00 25.6 C 15.95 g/m*3 25.6 C 1.6 km/h
752 19-08-2020 14:35:00 25.7 C 15.8 g/m*3 25.7 C 0 km/h
753 19-08-2020 14:40:00 25.6 C 12.86 g/m*3 25.6 C 0 km/h
754 19-08-2020 14:45:00 25.7 C 13.65 g/m*3 25.7 C 0 km/h
755 19-08-2020 14:50:00 25.9 C 14.04 g/m*3 25.9 C 0 km/h
756 19-08-2020 14:55:00 26.1 C 13.46 g/m*3 26.1 C 9.7 km/h
757 19-08-2020 15:00:00 26 C 13.15 g/m*3 26 C 9.7 km/h
758 19-08-2020 15:05:00 25.8 C 14.2 g/m*3 25.8 C 8.1 km/h
759 19-08-2020 15:10:00 25.7 C 14.6 g/m*3 25.7 C 4.8 km/h
760 19-08-2020 15:15:00 25.6 C 14.28 g/m*3 25.6 C 9.7 km/h
761 19-08-2020 15:20:00 25.6 C 15.47 g/m*3 25.6 C 0 km/h
762 19-08-2020 15:25:00 25.6 C 15 g/m*3 25.6 C 0 km/h
763 19-08-2020 15:30:00 25.6 C 14.05 g/m*3 25.6 C 6.4 km/h
764 19-08-2020 15:35:00 25.8 C 13.96 g/m*3 25.8 C 6.4 km/h
765 19-08-2020 15:40:00 26.1 C 14.44 g/m*3 26.1 C 6.4 km/h
766 19-08-2020 15:45:00 26.3 C 13.86 g/m*3 26.3 C 8.1 km/h
767 19-08-2020 15:50:00 26.5 C 13.77 g/m*3 26.5 C 9.7 km/h
768 19-08-2020 15:55:00 26.8 C 13.24 g/m*3 26.8 C 8.1 km/h
769 19-08-2020 16:00:00 27.1 C 13.97 g/m*3 27.1 C 8.1 km/h
770 19-08-2020 16:05:00 26.9 C 13.31 g/m*3 26.9 C 12.9 km/h
771 19-08-2020 16:10:00 26.8 C 13.49 g/m*3 26.8 C 6.4 km/h
772 19-08-2020 16:15:00 26.7 C 15.69 g/m*3 26.7 C 0 km/h
773 19-08-2020 16:20:00 26.6 C 15.86 g/m*3 26.6 C 4.8 km/h
774 19-08-2020 16:25:00 26.6 C 15.61 g/m*3 26.6 C 4.8 km/h
775 19-08-2020 16:30:00 26.6 C 13.59 g/m*3 26.6 C 6.4 km/h
Sensor: Nr:Datum:Temp:Abs-Feuchte:Windchill:Wind:
Aussen-T/F 776 19-08-2020 16:35:00 26.7 C 16.2 g/m*3 26.7 C 4.8 km/h
777 19-08-2020 16:40:00 26.7 C 14.17 g/m*3 26.7 C 0 km/h
778 19-08-2020 16:45:00 26.9 C 16.38 g/m*3 26.9 C 0 km/h
779 19-08-2020 16:50:00 27.2 C 14.05 g/m*3 27.2 C 0 km/h
780 19-08-2020 16:55:00 27.4 C 14.21 g/m*3 27.4 C 0 km/h
781 19-08-2020 17:00:00 27.8 C 15.87 g/m*3 27.8 C 4.8 km/h
782 19-08-2020 17:05:00 28.1 C 14.22 g/m*3 28.1 C 6.4 km/h
783 19-08-2020 17:10:00 28.3 C 13.82 g/m*3 28.3 C 8.1 km/h
784 19-08-2020 17:15:00 28.4 C 13.62 g/m*3 28.4 C 9.7 km/h
785 19-08-2020 17:20:00 28.3 C 13.55 g/m*3 28.3 C 8.1 km/h
786 19-08-2020 17:25:00 28.3 C 12.99 g/m*3 28.3 C 12.9 km/h
787 19-08-2020 17:30:00 28.3 C 13.27 g/m*3 28.3 C 12.9 km/h
788 19-08-2020 17:35:00 28.3 C 13.55 g/m*3 28.3 C 9.7 km/h
789 19-08-2020 17:40:00 28.6 C 13.21 g/m*3 28.6 C 8.1 km/h
790 19-08-2020 17:45:00 28.8 C 13.35 g/m*3 28.8 C 9.7 km/h
791 19-08-2020 17:50:00 28.9 C 13.14 g/m*3 28.9 C 8.1 km/h
792 19-08-2020 17:55:00 29.1 C 13 g/m*3 29.1 C 9.7 km/h
793 19-08-2020 18:00:00 29.1 C 13 g/m*3 29.1 C 11.3 km/h
794 19-08-2020 18:05:00 29.1 C 12.71 g/m*3 29.1 C 9.7 km/h
795 19-08-2020 18:10:00 28.9 C 12.57 g/m*3 28.9 C 11.3 km/h
796 19-08-2020 18:15:00 28.8 C 12.5 g/m*3 28.8 C 9.7 km/h
797 19-08-2020 18:20:00 28.9 C 12.86 g/m*3 28.9 C 9.7 km/h
798 19-08-2020 18:25:00 28.6 C 12.93 g/m*3 28.6 C 9.7 km/h
799 19-08-2020 18:30:00 28.3 C 13.27 g/m*3 28.3 C 9.7 km/h
800 19-08-2020 18:35:00 27.9 C 12.71 g/m*3 27.9 C 9.7 km/h
Sensor: Nr:Datum:Temp:Abs-Feuchte:Windchill:Wind:
Aussen-T/F 801 19-08-2020 18:40:00 27.7 C 13.37 g/m*3 27.7 C 8.1 km/h
802 19-08-2020 18:45:00 27.6 C 15.96 g/m*3 27.6 C 1.6 km/h
803 19-08-2020 18:50:00 27.2 C 15.35 g/m*3 27.2 C 0 km/h
804 19-08-2020 18:55:00 26.8 C 15.53 g/m*3 26.8 C 0 km/h
805 19-08-2020 19:00:00 26.4 C 15.43 g/m*3 26.4 C 0 km/h
806 19-08-2020 19:05:00 25.9 C 15.49 g/m*3 25.9 C 0 km/h
807 19-08-2020 19:10:00 25.5 C 14.91 g/m*3 25.5 C 0 km/h
808 19-08-2020 19:15:00 25.1 C 15.05 g/m*3 25.1 C 0 km/h
809 19-08-2020 19:20:00 24.8 C 15.02 g/m*3 24.8 C 0 km/h
810 19-08-2020 19:25:00 24.4 C 15.13 g/m*3 24.4 C 0 km/h
811 19-08-2020 19:30:00 24.1 C 14.88 g/m*3 24.1 C 0 km/h
812 19-08-2020 19:35:00 23.8 C 15.06 g/m*3 23.8 C 6.4 km/h
813 19-08-2020 19:40:00 23.5 C 14.8 g/m*3 23.5 C 4.8 km/h
814 19-08-2020 19:45:00 23.2 C 14.55 g/m*3 23.2 C 6.4 km/h
815 19-08-2020 19:50:00 22.9 C 14.71 g/m*3 22.9 C 6.4 km/h
816 19-08-2020 19:55:00 22.8 C 14.63 g/m*3 22.8 C 4.8 km/h
817 19-08-2020 20:00:00 22.6 C 14.66 g/m*3 22.6 C 6.4 km/h
818 19-08-2020 20:05:00 22.4 C 14.7 g/m*3 22.4 C 6.4 km/h
819 19-08-2020 20:10:00 22.3 C 14.61 g/m*3 22.3 C 6.4 km/h
820 19-08-2020 20:15:00 22.2 C 14.72 g/m*3 22.2 C 6.4 km/h
821 19-08-2020 20:20:00 22 C 14.56 g/m*3 22 C 6.4 km/h
822 19-08-2020 20:25:00 21.8 C 14.39 g/m*3 21.8 C 6.4 km/h
823 19-08-2020 20:30:00 21.7 C 14.31 g/m*3 21.7 C 6.4 km/h
824 19-08-2020 20:35:00 21.4 C 14.06 g/m*3 21.4 C 6.4 km/h
825 19-08-2020 20:40:00 21.3 C 14.17 g/m*3 21.3 C 9.7 km/h
Sensor: Nr:Datum:Temp:Abs-Feuchte:Windchill:Wind:
Aussen-T/F 826 19-08-2020 20:45:00 21.2 C 14.08 g/m*3 21.2 C 8.1 km/h
827 19-08-2020 20:50:00 21.1 C 14 g/m*3 21.1 C 6.4 km/h
828 19-08-2020 20:55:00 20.9 C 13.84 g/m*3 20.9 C 8.1 km/h
829 19-08-2020 21:00:00 20.9 C 13.84 g/m*3 20.9 C 6.4 km/h
830 19-08-2020 21:05:00 20.8 C 13.94 g/m*3 20.8 C 6.4 km/h
831 19-08-2020 21:10:00 20.7 C 13.86 g/m*3 20.7 C 6.4 km/h
832 19-08-2020 21:15:00 20.7 C 14.04 g/m*3 20.7 C 4.8 km/h
833 19-08-2020 21:20:00 20.6 C 13.78 g/m*3 20.6 C 4.8 km/h
834 19-08-2020 21:25:00 20.5 C 13.88 g/m*3 20.5 C 4.8 km/h
835 19-08-2020 21:30:00 20.4 C 13.8 g/m*3 20.4 C 4.8 km/h
836 19-08-2020 21:35:00 20.3 C 13.72 g/m*3 20.3 C 4.8 km/h
837 19-08-2020 21:40:00 20.2 C 13.81 g/m*3 20.2 C 4.8 km/h
838 19-08-2020 21:45:00 20.2 C 13.81 g/m*3 20.2 C 4.8 km/h
839 19-08-2020 21:50:00 20.1 C 13.73 g/m*3 20.1 C 6.4 km/h
840 19-08-2020 21:55:00 20.1 C 13.91 g/m*3 20.1 C 6.4 km/h
841 19-08-2020 22:00:00 20.1 C 14.08 g/m*3 20.1 C 4.8 km/h
842 19-08-2020 22:05:00 20.1 C 14.08 g/m*3 20.1 C 4.8 km/h
843 19-08-2020 22:10:00 20.1 C 14.08 g/m*3 20.1 C 4.8 km/h
844 19-08-2020 22:15:00 20.1 C 14.08 g/m*3 20.1 C 4.8 km/h
845 19-08-2020 22:20:00 20.1 C 14.25 g/m*3 20.1 C 3.2 km/h
846 19-08-2020 22:25:00 20.1 C 14.08 g/m*3 20.1 C 4.8 km/h
847 19-08-2020 22:30:00 20.2 C 14.34 g/m*3 20.2 C 6.4 km/h
848 19-08-2020 22:35:00 20.2 C 14.34 g/m*3 20.2 C 3.2 km/h
849 19-08-2020 22:40:00 20.2 C 14.34 g/m*3 20.2 C 4.8 km/h
850 19-08-2020 22:45:00 20.3 C 14.42 g/m*3 20.3 C 4.8 km/h
Sensor: Nr:Datum:Temp:Abs-Feuchte:Windchill:Wind:
Aussen-T/F 851 19-08-2020 22:50:00 20.3 C 14.42 g/m*3 20.3 C 3.2 km/h
852 19-08-2020 22:55:00 20.3 C 14.42 g/m*3 20.3 C 4.8 km/h
853 19-08-2020 23:00:00 20.3 C 14.42 g/m*3 20.3 C 4.8 km/h
854 19-08-2020 23:05:00 20.3 C 14.42 g/m*3 20.3 C 4.8 km/h
855 19-08-2020 23:10:00 20.2 C 14.34 g/m*3 20.2 C 3.2 km/h
856 19-08-2020 23:15:00 20.2 C 14.34 g/m*3 20.2 C 4.8 km/h
857 19-08-2020 23:20:00 20.2 C 14.51 g/m*3 20.2 C 4.8 km/h
858 19-08-2020 23:25:00 20.2 C 14.34 g/m*3 20.2 C 3.2 km/h
859 19-08-2020 23:30:00 20.2 C 14.51 g/m*3 20.2 C 4.8 km/h
860 19-08-2020 23:35:00 20.2 C 14.51 g/m*3 20.2 C 4.8 km/h
861 19-08-2020 23:40:00 20.3 C 14.6 g/m*3 20.3 C 4.8 km/h
862 19-08-2020 23:45:00 20.3 C 14.6 g/m*3 20.3 C 4.8 km/h
863 19-08-2020 23:50:00 20.3 C 14.6 g/m*3 20.3 C 4.8 km/h
864 19-08-2020 23:55:00 20.2 C 14.51 g/m*3 20.2 C 6.4 km/h
865 20-08-2020 00:00:00 20.1 C 14.43 g/m*3 20.1 C 6.4 km/h
866 20-08-2020 00:05:00 20.1 C 14.6 g/m*3 20.1 C 4.8 km/h
867 20-08-2020 00:10:00 20.1 C 14.78 g/m*3 20.1 C 1.6 km/h
868 20-08-2020 00:15:00 19.9 C 14.6 g/m*3 19.9 C 4.8 km/h
869 20-08-2020 00:20:00 19.9 C 14.78 g/m*3 19.9 C 1.6 km/h
870 20-08-2020 00:25:00 19.9 C 14.78 g/m*3 19.9 C 1.6 km/h
871 20-08-2020 00:30:00 19.9 C 14.6 g/m*3 19.9 C 3.2 km/h
872 20-08-2020 00:35:00 19.9 C 14.6 g/m*3 19.9 C 3.2 km/h
873 20-08-2020 00:40:00 19.9 C 14.6 g/m*3 19.9 C 1.6 km/h
874 20-08-2020 00:45:00 19.9 C 14.6 g/m*3 19.9 C 1.6 km/h
875 20-08-2020 00:50:00 20 C 14.69 g/m*3 20 C 0 km/h
Sensor: Nr:Datum:Temp:Abs-Feuchte:Windchill:Wind:
Aussen-T/F 876 20-08-2020 00:55:00 20 C 14.69 g/m*3 20 C 0 km/h
877 20-08-2020 01:00:00 20 C 14.52 g/m*3 20 C 0 km/h
878 20-08-2020 01:05:00 20.1 C 14.78 g/m*3 20.1 C 0 km/h
879 20-08-2020 01:10:00 20.1 C 14.6 g/m*3 20.1 C 3.2 km/h
880 20-08-2020 01:15:00 20.1 C 14.6 g/m*3 20.1 C 0 km/h
881 20-08-2020 01:20:00 20.2 C 14.69 g/m*3 20.2 C 1.6 km/h
882 20-08-2020 01:25:00 20.2 C 14.69 g/m*3 20.2 C 4.8 km/h
883 20-08-2020 01:30:00 20.2 C 14.51 g/m*3 20.2 C 4.8 km/h
884 20-08-2020 01:35:00 20.2 C 14.51 g/m*3 20.2 C 4.8 km/h
885 20-08-2020 01:40:00 20.3 C 14.6 g/m*3 20.3 C 3.2 km/h
886 20-08-2020 01:45:00 20.3 C 14.77 g/m*3 20.3 C 1.6 km/h
887 20-08-2020 01:50:00 20.3 C 14.6 g/m*3 20.3 C 4.8 km/h
888 20-08-2020 01:55:00 20.3 C 14.6 g/m*3 20.3 C 4.8 km/h
889 20-08-2020 02:00:00 20.2 C 14.51 g/m*3 20.2 C 3.2 km/h
890 20-08-2020 02:05:00 20.2 C 14.69 g/m*3 20.2 C 4.8 km/h
891 20-08-2020 02:10:00 20.3 C 14.95 g/m*3 20.3 C 4.8 km/h
892 20-08-2020 02:15:00 20.2 C 15.04 g/m*3 20.2 C 6.4 km/h
893 20-08-2020 02:20:00 20.1 C 14.95 g/m*3 20.1 C 8.1 km/h
894 20-08-2020 02:25:00 20 C 15.04 g/m*3 20 C 8.1 km/h
895 20-08-2020 02:30:00 19.8 C 14.86 g/m*3 19.8 C 8.1 km/h
896 20-08-2020 02:35:00 19.7 C 14.94 g/m*3 19.7 C 6.4 km/h
897 20-08-2020 02:40:00 19.6 C 15.02 g/m*3 19.6 C 4.8 km/h
898 20-08-2020 02:45:00 19.6 C 15.02 g/m*3 19.6 C 3.2 km/h
899 20-08-2020 02:50:00 19.4 C 14.85 g/m*3 19.4 C 1.6 km/h
900 20-08-2020 02:55:00 19.3 C 14.76 g/m*3 19.3 C 1.6 km/h
Sensor: Nr:Datum:Temp:Abs-Feuchte:Windchill:Wind:
Aussen-T/F 901 20-08-2020 03:00:00 19.3 C 14.76 g/m*3 19.3 C 0 km/h
902 20-08-2020 03:05:00 19.2 C 14.68 g/m*3 19.2 C 0 km/h
903 20-08-2020 03:10:00 19.2 C 14.68 g/m*3 19.2 C 0 km/h
904 20-08-2020 03:15:00 19.1 C 14.75 g/m*3 19.1 C 0 km/h
905 20-08-2020 03:20:00 19.1 C 14.75 g/m*3 19.1 C 1.6 km/h
906 20-08-2020 03:25:00 19.1 C 14.75 g/m*3 19.1 C 0 km/h
907 20-08-2020 03:30:00 19 C 14.67 g/m*3 19 C 0 km/h
908 20-08-2020 03:35:00 19 C 14.83 g/m*3 19 C 0 km/h
909 20-08-2020 03:40:00 19 C 14.83 g/m*3 19 C 0 km/h
910 20-08-2020 03:45:00 18.9 C 14.74 g/m*3 18.9 C 0 km/h
911 20-08-2020 03:50:00 18.9 C 14.58 g/m*3 18.9 C 1.6 km/h
912 20-08-2020 03:55:00 18.9 C 14.74 g/m*3 18.9 C 1.6 km/h
913 20-08-2020 04:00:00 18.9 C 14.74 g/m*3 18.9 C 0 km/h
914 20-08-2020 04:05:00 19 C 14.83 g/m*3 19 C 0 km/h
915 20-08-2020 04:10:00 19 C 14.83 g/m*3 19 C 0 km/h
916 20-08-2020 04:15:00 18.9 C 14.74 g/m*3 18.9 C 0 km/h
917 20-08-2020 04:20:00 18.9 C 14.74 g/m*3 18.9 C 0 km/h
918 20-08-2020 04:25:00 18.9 C 14.74 g/m*3 18.9 C 0 km/h
919 20-08-2020 04:30:00 18.9 C 14.74 g/m*3 18.9 C 0 km/h
920 20-08-2020 04:35:00 18.9 C 14.74 g/m*3 18.9 C 0 km/h
921 20-08-2020 04:40:00 19 C 14.83 g/m*3 19 C 0 km/h
922 20-08-2020 04:45:00 19 C 14.83 g/m*3 19 C 0 km/h
923 20-08-2020 04:50:00 19 C 14.99 g/m*3 19 C 1.6 km/h
924 20-08-2020 04:55:00 19 C 14.99 g/m*3 19 C 1.6 km/h
925 20-08-2020 05:00:00 18.9 C 14.9 g/m*3 18.9 C 1.6 km/h
Sensor: Nr:Datum:Temp:Abs-Feuchte:Windchill:Wind:
Aussen-T/F 926 20-08-2020 05:05:00 18.9 C 14.9 g/m*3 18.9 C 3.2 km/h
927 20-08-2020 05:10:00 18.9 C 14.9 g/m*3 18.9 C 1.6 km/h
928 20-08-2020 05:15:00 18.9 C 15.07 g/m*3 18.9 C 1.6 km/h
929 20-08-2020 05:20:00 18.9 C 15.07 g/m*3 18.9 C 1.6 km/h
930 20-08-2020 05:25:00 18.9 C 15.07 g/m*3 18.9 C 0 km/h
931 20-08-2020 05:30:00 18.9 C 15.07 g/m*3 18.9 C 0 km/h
932 20-08-2020 05:35:00 18.8 C 15.14 g/m*3 18.8 C 1.6 km/h
933 20-08-2020 05:40:00 18.8 C 14.98 g/m*3 18.8 C 0 km/h
934 20-08-2020 05:45:00 18.8 C 15.14 g/m*3 18.8 C 0 km/h
935 20-08-2020 05:50:00 18.8 C 15.14 g/m*3 18.8 C 1.6 km/h
936 20-08-2020 05:55:00 18.8 C 15.14 g/m*3 18.8 C 3.2 km/h
937 20-08-2020 06:00:00 18.8 C 15.14 g/m*3 18.8 C 0 km/h
938 20-08-2020 06:05:00 18.8 C 15.14 g/m*3 18.8 C 0 km/h
939 20-08-2020 06:10:00 18.7 C 15.05 g/m*3 18.7 C 0 km/h
940 20-08-2020 06:15:00 18.7 C 15.05 g/m*3 18.7 C 0 km/h
941 20-08-2020 06:20:00 18.8 C 15.3 g/m*3 18.8 C 0 km/h
942 20-08-2020 06:25:00 18.7 C 15.21 g/m*3 18.7 C 0 km/h
943 20-08-2020 06:30:00 18.7 C 15.21 g/m*3 18.7 C 0 km/h
944 20-08-2020 06:35:00 18.7 C 15.21 g/m*3 18.7 C 0 km/h
945 20-08-2020 06:40:00 18.6 C 15.12 g/m*3 18.6 C 0 km/h
946 20-08-2020 06:45:00 18.6 C 15.12 g/m*3 18.6 C 0 km/h
947 20-08-2020 06:50:00 18.5 C 14.87 g/m*3 18.5 C 0 km/h
948 20-08-2020 06:55:00 18.5 C 15.03 g/m*3 18.5 C 0 km/h
949 20-08-2020 07:00:00 18.4 C 14.94 g/m*3 18.4 C 0 km/h
950 20-08-2020 07:05:00 18.4 C 14.94 g/m*3 18.4 C 0 km/h
Sensor: Nr:Datum:Temp:Abs-Feuchte:Windchill:Wind:
Aussen-T/F 951 20-08-2020 07:10:00 18.5 C 15.03 g/m*3 18.5 C 0 km/h
952 20-08-2020 07:15:00 18.6 C 15.12 g/m*3 18.6 C 0 km/h
953 20-08-2020 07:20:00 18.6 C 15.12 g/m*3 18.6 C 0 km/h
954 20-08-2020 07:25:00 18.6 C 15.12 g/m*3 18.6 C 0 km/h
955 20-08-2020 07:30:00 18.6 C 15.12 g/m*3 18.6 C 0 km/h
956 20-08-2020 07:35:00 18.6 C 15.12 g/m*3 18.6 C 0 km/h
957 20-08-2020 07:40:00 18.7 C 15.21 g/m*3 18.7 C 0 km/h
958 20-08-2020 07:45:00 18.7 C 15.37 g/m*3 18.7 C 0 km/h
959 20-08-2020 07:50:00 18.8 C 15.46 g/m*3 18.8 C 0 km/h
960 20-08-2020 07:55:00 18.9 C 15.55 g/m*3 18.9 C 0 km/h
961 20-08-2020 08:00:00 19.1 C 15.74 g/m*3 19.1 C 0 km/h
962 20-08-2020 08:05:00 19.1 C 15.74 g/m*3 19.1 C 0 km/h
963 20-08-2020 08:10:00 19.2 C 15.83 g/m*3 19.2 C 0 km/h
964 20-08-2020 08:15:00 19.2 C 15.83 g/m*3 19.2 C 0 km/h
965 20-08-2020 08:20:00 19.2 C 15.83 g/m*3 19.2 C 0 km/h
966 20-08-2020 08:25:00 19.2 C 15.83 g/m*3 19.2 C 0 km/h
967 20-08-2020 08:30:00 19.2 C 15.83 g/m*3 19.2 C 0 km/h
968 20-08-2020 08:35:00 19.3 C 15.92 g/m*3 19.3 C 0 km/h
969 20-08-2020 08:40:00 19.4 C 16.02 g/m*3 19.4 C 0 km/h
970 20-08-2020 08:45:00 19.4 C 16.02 g/m*3 19.4 C 0 km/h
971 20-08-2020 08:50:00 19.5 C 16.11 g/m*3 19.5 C 1.6 km/h
972 20-08-2020 08:55:00 19.5 C 16.11 g/m*3 19.5 C 3.2 km/h
973 20-08-2020 09:00:00 19.7 C 16.3 g/m*3 19.7 C 0 km/h
974 20-08-2020 09:05:00 19.8 C 16.57 g/m*3 19.8 C 1.6 km/h
975 20-08-2020 09:10:00 20 C 16.59 g/m*3 20 C 8.1 km/h
Sensor: Nr:Datum:Temp:Abs-Feuchte:Windchill:Wind:
Aussen-T/F 976 20-08-2020 09:15:00 20.1 C 16.69 g/m*3 20.1 C 1.6 km/h
977 20-08-2020 09:20:00 20.1 C 16.69 g/m*3 20.1 C 3.2 km/h
978 20-08-2020 09:25:00 20.2 C 16.79 g/m*3 20.2 C 0 km/h
979 20-08-2020 09:30:00 20.4 C 16.98 g/m*3 20.4 C 0 km/h
980 20-08-2020 09:35:00 20.5 C 17.08 g/m*3 20.5 C 0 km/h
981 20-08-2020 09:40:00 20.6 C 17.18 g/m*3 20.6 C 1.6 km/h
982 20-08-2020 09:45:00 20.6 C 17.18 g/m*3 20.6 C 3.2 km/h
983 20-08-2020 09:50:00 20.7 C 17.28 g/m*3 20.7 C 0 km/h
984 20-08-2020 09:55:00 20.8 C 17.38 g/m*3 20.8 C 0 km/h
985 20-08-2020 10:00:00 20.9 C 17.48 g/m*3 20.9 C 0 km/h
986 20-08-2020 10:05:00 20.8 C 17.38 g/m*3 20.8 C 0 km/h
987 20-08-2020 10:10:00 20.7 C 17.1 g/m*3 20.7 C 0 km/h
988 20-08-2020 10:15:00 20.7 C 17.1 g/m*3 20.7 C 0 km/h
989 20-08-2020 10:20:00 20.7 C 17.28 g/m*3 20.7 C 1.6 km/h
990 20-08-2020 10:25:00 20.7 C 17.1 g/m*3 20.7 C 1.6 km/h
991 20-08-2020 10:30:00 20.8 C 17.2 g/m*3 20.8 C 1.6 km/h
992 20-08-2020 10:35:00 21 C 17.4 g/m*3 21 C 0 km/h
993 20-08-2020 10:40:00 21.2 C 17.42 g/m*3 21.2 C 0 km/h
994 20-08-2020 10:45:00 21.3 C 17.71 g/m*3 21.3 C 0 km/h
995 20-08-2020 10:50:00 21.4 C 17.62 g/m*3 21.4 C 0 km/h
996 20-08-2020 10:55:00 21.4 C 17.62 g/m*3 21.4 C 0 km/h
997 20-08-2020 11:00:00 21.6 C 17.83 g/m*3 21.6 C 0 km/h
998 20-08-2020 11:05:00 21.6 C 17.83 g/m*3 21.6 C 0 km/h
999 20-08-2020 11:10:00 21.8 C 18.03 g/m*3 21.8 C 1.6 km/h
1000 20-08-2020 11:15:00 21.9 C 18.14 g/m*3 21.9 C 0 km/h
Sensor: Nr:Datum:Temp:Abs-Feuchte:Windchill:Wind:
Aussen-T/F 1001 20-08-2020 11:20:00 22 C 18.05 g/m*3 22 C 0 km/h
1002 20-08-2020 11:25:00 22.1 C 18.15 g/m*3 22.1 C 0 km/h
1003 20-08-2020 11:30:00 22.3 C 18.56 g/m*3 22.3 C 0 km/h
1004 20-08-2020 11:35:00 22.6 C 18.48 g/m*3 22.6 C 0 km/h
1005 20-08-2020 11:40:00 22.6 C 18.28 g/m*3 22.6 C 3.2 km/h
1006 20-08-2020 11:45:00 22.8 C 18.08 g/m*3 22.8 C 1.6 km/h
1007 20-08-2020 11:50:00 23.1 C 18.4 g/m*3 23.1 C 1.6 km/h
1008 20-08-2020 11:55:00 23.3 C 17.98 g/m*3 23.3 C 4.8 km/h
1009 20-08-2020 12:00:00 23.6 C 18.29 g/m*3 23.6 C 3.2 km/h
1010 20-08-2020 12:05:00 23.8 C 18.07 g/m*3 23.8 C 1.6 km/h
1011 20-08-2020 12:10:00 24.1 C 17.72 g/m*3 24.1 C 3.2 km/h
1012 20-08-2020 12:15:00 24.3 C 17.48 g/m*3 24.3 C 3.2 km/h
1013 20-08-2020 12:20:00 24.7 C 17.65 g/m*3 24.7 C 4.8 km/h
1014 20-08-2020 12:25:00 24.9 C 17.17 g/m*3 24.9 C 3.2 km/h
1015 20-08-2020 12:30:00 25.2 C 18.62 g/m*3 25.2 C 0 km/h
1016 20-08-2020 12:35:00 25.2 C 18.16 g/m*3 25.2 C 1.6 km/h
1017 20-08-2020 12:40:00 25.2 C 18.16 g/m*3 25.2 C 0 km/h
1018 20-08-2020 12:45:00 25.2 C 17.69 g/m*3 25.2 C 3.2 km/h
1019 20-08-2020 12:50:00 25.3 C 17.56 g/m*3 25.3 C 1.6 km/h
1020 20-08-2020 12:55:00 25.3 C 17.56 g/m*3 25.3 C 1.6 km/h
1021 20-08-2020 13:00:00 25.6 C 17.38 g/m*3 25.6 C 6.4 km/h
1022 20-08-2020 13:05:00 25.7 C 17.24 g/m*3 25.7 C 1.6 km/h
1023 20-08-2020 13:10:00 25.8 C 17.33 g/m*3 25.8 C 1.6 km/h
1024 20-08-2020 13:15:00 25.9 C 16.95 g/m*3 25.9 C 4.8 km/h
1025 20-08-2020 13:20:00 26.1 C 17.38 g/m*3 26.1 C 3.2 km/h
Sensor: Nr:Datum:Temp:Abs-Feuchte:Windchill:Wind:
Aussen-T/F 1026 20-08-2020 13:25:00 26.3 C 17.08 g/m*3 26.3 C 6.4 km/h
1027 20-08-2020 13:30:00 26.5 C 17.27 g/m*3 26.5 C 8.1 km/h
1028 20-08-2020 13:35:00 26.8 C 17.31 g/m*3 26.8 C 8.1 km/h
1029 20-08-2020 13:40:00 27.1 C 17.34 g/m*3 27.1 C 9.7 km/h
1030 20-08-2020 13:45:00 27.3 C 17.27 g/m*3 27.3 C 8.1 km/h
1031 20-08-2020 13:50:00 27.4 C 17.37 g/m*3 27.4 C 4.8 km/h
1032 20-08-2020 13:55:00 27.4 C 17.1 g/m*3 27.4 C 9.7 km/h
1033 20-08-2020 14:00:00 27.6 C 17.56 g/m*3 27.6 C 4.8 km/h
1034 20-08-2020 14:05:00 27.7 C 17.39 g/m*3 27.7 C 1.6 km/h
1035 20-08-2020 14:10:00 27.8 C 17.48 g/m*3 27.8 C 1.6 km/h
1036 20-08-2020 14:15:00 28.1 C 16.95 g/m*3 28.1 C 11.3 km/h
1037 20-08-2020 14:20:00 28.3 C 17.14 g/m*3 28.3 C 12.9 km/h
1038 20-08-2020 14:25:00 28.5 C 17.33 g/m*3 28.5 C 6.4 km/h
1039 20-08-2020 14:30:00 28.7 C 17.52 g/m*3 28.7 C 4.8 km/h
1040 20-08-2020 14:35:00 29.1 C 17.04 g/m*3 29.1 C 6.4 km/h
1041 20-08-2020 14:40:00 29.3 C 17.23 g/m*3 29.3 C 4.8 km/h
1042 20-08-2020 14:45:00 29.4 C 17.61 g/m*3 29.4 C 6.4 km/h
1043 20-08-2020 14:50:00 29.5 C 17.71 g/m*3 29.5 C 8.1 km/h
1044 20-08-2020 14:55:00 29.7 C 18.2 g/m*3 29.7 C 4.8 km/h
1045 20-08-2020 15:00:00 29.8 C 17.1 g/m*3 29.8 C 8.1 km/h
1046 20-08-2020 15:05:00 29.8 C 17.4 g/m*3 29.8 C 6.4 km/h
1047 20-08-2020 15:10:00 29.9 C 16.89 g/m*3 29.9 C 9.7 km/h
1048 20-08-2020 15:15:00 29.9 C 16.89 g/m*3 29.9 C 9.7 km/h
1049 20-08-2020 15:20:00 29.9 C 16.89 g/m*3 29.9 C 4.8 km/h
1050 20-08-2020 15:25:00 29.9 C 17.49 g/m*3 29.9 C 4.8 km/h
Sensor: Nr:Datum:Temp:Abs-Feuchte:Windchill:Wind:
Aussen-T/F 1051 20-08-2020 15:30:00 30.2 C 16.86 g/m*3 30.2 C 9.7 km/h
1052 20-08-2020 15:35:00 30.6 C 17.54 g/m*3 30.6 C 6.4 km/h
1053 20-08-2020 15:40:00 30.8 C 18.05 g/m*3 30.8 C 6.4 km/h
1054 20-08-2020 15:45:00 31 C 17.28 g/m*3 31 C 8.1 km/h
1055 20-08-2020 15:50:00 31.1 C 17.05 g/m*3 31.1 C 11.3 km/h
1056 20-08-2020 15:55:00 31.2 C 17.14 g/m*3 31.2 C 12.9 km/h
1057 20-08-2020 16:00:00 31.2 C 17.79 g/m*3 31.2 C 11.3 km/h
1058 20-08-2020 16:05:00 31.3 C 17.24 g/m*3 31.3 C 11.3 km/h
1059 20-08-2020 16:10:00 31.4 C 17.66 g/m*3 31.4 C 14.5 km/h
1060 20-08-2020 16:15:00 31.6 C 17.51 g/m*3 31.6 C 11.3 km/h
1061 20-08-2020 16:20:00 31.6 C 17.18 g/m*3 31.6 C 11.3 km/h
1062 20-08-2020 16:25:00 31.7 C 17.28 g/m*3 31.7 C 9.7 km/h
1063 20-08-2020 16:30:00 31.7 C 16.61 g/m*3 31.7 C 11.3 km/h
1064 20-08-2020 16:35:00 31.4 C 17 g/m*3 31.4 C 9.7 km/h
1065 20-08-2020 16:40:00 31.7 C 18.27 g/m*3 31.7 C 0 km/h
1066 20-08-2020 16:45:00 32 C 16.88 g/m*3 32 C 12.9 km/h
1067 20-08-2020 16:50:00 32.1 C 16.63 g/m*3 32.1 C 11.3 km/h
1068 20-08-2020 16:55:00 32.3 C 17.15 g/m*3 32.3 C 6.4 km/h
1069 20-08-2020 17:00:00 32.7 C 17.17 g/m*3 32.7 C 8.1 km/h
1070 20-08-2020 17:05:00 33.1 C 18.25 g/m*3 33.1 C 6.4 km/h
1071 20-08-2020 17:10:00 33.3 C 16.64 g/m*3 33.3 C 9.7 km/h
1072 20-08-2020 17:15:00 33.2 C 17.27 g/m*3 33.2 C 6.4 km/h
1073 20-08-2020 17:20:00 32.8 C 16.55 g/m*3 32.8 C 6.4 km/h
1074 20-08-2020 17:25:00 32.3 C 16.46 g/m*3 32.3 C 6.4 km/h
1075 20-08-2020 17:30:00 32 C 16.88 g/m*3 32 C 8.1 km/h
Sensor: Nr:Datum:Temp:Abs-Feuchte:Windchill:Wind:
Aussen-T/F 1076 20-08-2020 17:35:00 31.9 C 17.13 g/m*3 31.9 C 6.4 km/h
1077 20-08-2020 17:40:00 32.1 C 15.95 g/m*3 32.1 C 9.7 km/h
1078 20-08-2020 17:45:00 32.2 C 16.38 g/m*3 32.2 C 9.7 km/h
1079 20-08-2020 17:50:00 32.4 C 16.9 g/m*3 32.4 C 9.7 km/h
1080 20-08-2020 17:55:00 32.8 C 16.2 g/m*3 32.8 C 11.3 km/h
1081 20-08-2020 18:00:00 33.1 C 16.46 g/m*3 33.1 C 11.3 km/h
1082 20-08-2020 18:05:00 33.1 C 16.1 g/m*3 33.1 C 12.9 km/h
1083 20-08-2020 18:10:00 32.9 C 15.58 g/m*3 32.9 C 11.3 km/h
1084 20-08-2020 18:15:00 33.1 C 16.1 g/m*3 33.1 C 11.3 km/h
1085 20-08-2020 18:20:00 33.3 C 16.64 g/m*3 33.3 C 8.1 km/h
1086 20-08-2020 18:25:00 33.4 C 16.36 g/m*3 33.4 C 11.3 km/h
1087 20-08-2020 18:30:00 33.3 C 16.27 g/m*3 33.3 C 6.4 km/h
1088 20-08-2020 18:35:00 33.4 C 15.63 g/m*3 33.4 C 6.4 km/h
1089 20-08-2020 18:40:00 33.4 C 16.36 g/m*3 33.4 C 6.4 km/h
1090 20-08-2020 18:45:00 33.6 C 15.8 g/m*3 33.6 C 6.4 km/h
1091 20-08-2020 18:50:00 33.7 C 16.62 g/m*3 33.7 C 4.8 km/h
1092 20-08-2020 18:55:00 33.7 C 16.25 g/m*3 33.7 C 8.1 km/h
1093 20-08-2020 19:00:00 33.5 C 17.91 g/m*3 33.5 C 8.1 km/h
1094 20-08-2020 19:05:00 33.3 C 16.64 g/m*3 33.3 C 6.4 km/h
1095 20-08-2020 19:10:00 33.2 C 16.91 g/m*3 33.2 C 4.8 km/h
1096 20-08-2020 19:15:00 33.1 C 18.61 g/m*3 33.1 C 3.2 km/h
1097 20-08-2020 19:20:00 32.5 C 18.03 g/m*3 32.5 C 8.1 km/h
1098 20-08-2020 19:25:00 32 C 18.23 g/m*3 32 C 3.2 km/h
1099 20-08-2020 19:30:00 31.5 C 18.74 g/m*3 31.5 C 1.6 km/h
1100 20-08-2020 19:35:00 30.9 C 18.78 g/m*3 30.9 C 4.8 km/h
Sensor: Nr:Datum:Temp:Abs-Feuchte:Windchill:Wind:
Aussen-T/F 1101 20-08-2020 19:40:00 30.4 C 17.97 g/m*3 30.4 C 4.8 km/h
1102 20-08-2020 19:45:00 29.8 C 15.6 g/m*3 29.8 C 4.8 km/h
1103 20-08-2020 19:50:00 29.3 C 17.81 g/m*3 29.3 C 4.8 km/h
1104 20-08-2020 19:55:00 28.9 C 18 g/m*3 28.9 C 0 km/h
1105 20-08-2020 20:00:00 28.3 C 17.69 g/m*3 28.3 C 0 km/h
1106 20-08-2020 20:05:00 27.8 C 17.48 g/m*3 27.8 C 0 km/h
1107 20-08-2020 20:10:00 27.3 C 17.53 g/m*3 27.3 C 0 km/h
1108 20-08-2020 20:15:00 26.8 C 17.05 g/m*3 26.8 C 0 km/h
1109 20-08-2020 20:20:00 26.4 C 17.43 g/m*3 26.4 C 0 km/h
1110 20-08-2020 20:25:00 26.1 C 17.14 g/m*3 26.1 C 0 km/h
1111 20-08-2020 20:30:00 25.8 C 16.85 g/m*3 25.8 C 3.2 km/h
1112 20-08-2020 20:35:00 25.4 C 16.72 g/m*3 25.4 C 6.4 km/h
1113 20-08-2020 20:40:00 25.2 C 16.99 g/m*3 25.2 C 0 km/h
1114 20-08-2020 20:45:00 25 C 16.8 g/m*3 25 C 6.4 km/h
1115 20-08-2020 20:50:00 24.8 C 16.84 g/m*3 24.8 C 8.1 km/h
1116 20-08-2020 20:55:00 24.6 C 16.43 g/m*3 24.6 C 6.4 km/h
1117 20-08-2020 21:00:00 24.5 C 16.56 g/m*3 24.5 C 6.4 km/h
1118 20-08-2020 21:05:00 24.3 C 16.38 g/m*3 24.3 C 4.8 km/h
1119 20-08-2020 21:10:00 24.3 C 16.82 g/m*3 24.3 C 6.4 km/h
1120 20-08-2020 21:15:00 24.1 C 16.63 g/m*3 24.1 C 6.4 km/h
1121 20-08-2020 21:20:00 24.1 C 16.63 g/m*3 24.1 C 4.8 km/h
1122 20-08-2020 21:25:00 23.9 C 16.44 g/m*3 23.9 C 6.4 km/h
1123 20-08-2020 21:30:00 23.8 C 16.56 g/m*3 23.8 C 8.1 km/h
1124 20-08-2020 21:35:00 23.8 C 16.56 g/m*3 23.8 C 3.2 km/h
1125 20-08-2020 21:40:00 23.7 C 16.47 g/m*3 23.7 C 3.2 km/h
Sensor: Nr:Datum:Temp:Abs-Feuchte:Windchill:Wind:
Aussen-T/F 1126 20-08-2020 21:45:00 23.7 C 16.47 g/m*3 23.7 C 3.2 km/h
1127 20-08-2020 21:50:00 23.6 C 16.38 g/m*3 23.6 C 6.4 km/h
1128 20-08-2020 21:55:00 23.6 C 16.59 g/m*3 23.6 C 8.1 km/h
1129 20-08-2020 22:00:00 23.6 C 16.59 g/m*3 23.6 C 6.4 km/h
1130 20-08-2020 22:05:00 23.5 C 16.5 g/m*3 23.5 C 3.2 km/h
1131 20-08-2020 22:10:00 23.4 C 16.19 g/m*3 23.4 C 4.8 km/h
1132 20-08-2020 22:15:00 23.4 C 16.19 g/m*3 23.4 C 3.2 km/h
1133 20-08-2020 22:20:00 23.3 C 16.1 g/m*3 23.3 C 4.8 km/h
1134 20-08-2020 22:25:00 23.3 C 16.31 g/m*3 23.3 C 4.8 km/h
1135 20-08-2020 22:30:00 23.3 C 16.31 g/m*3 23.3 C 4.8 km/h
1136 20-08-2020 22:35:00 23.2 C 16.01 g/m*3 23.2 C 6.4 km/h
1137 20-08-2020 22:40:00 23.2 C 16.22 g/m*3 23.2 C 3.2 km/h
1138 20-08-2020 22:45:00 23.1 C 16.12 g/m*3 23.1 C 1.6 km/h
1139 20-08-2020 22:50:00 23 C 15.83 g/m*3 23 C 3.2 km/h
1140 20-08-2020 22:55:00 22.9 C 15.94 g/m*3 22.9 C 4.8 km/h
1141 20-08-2020 23:00:00 22.9 C 15.94 g/m*3 22.9 C 4.8 km/h
1142 20-08-2020 23:05:00 22.9 C 15.74 g/m*3 22.9 C 3.2 km/h
1143 20-08-2020 23:10:00 22.9 C 15.74 g/m*3 22.9 C 6.4 km/h
1144 20-08-2020 23:15:00 22.9 C 15.94 g/m*3 22.9 C 4.8 km/h
1145 20-08-2020 23:20:00 23 C 16.03 g/m*3 23 C 4.8 km/h
1146 20-08-2020 23:25:00 22.9 C 15.94 g/m*3 22.9 C 4.8 km/h
1147 20-08-2020 23:30:00 22.9 C 15.94 g/m*3 22.9 C 1.6 km/h
1148 20-08-2020 23:35:00 23 C 15.83 g/m*3 23 C 3.2 km/h
1149 20-08-2020 23:40:00 23 C 16.24 g/m*3 23 C 6.4 km/h
1150 20-08-2020 23:45:00 23.1 C 16.12 g/m*3 23.1 C 4.8 km/h
Sensor: Nr:Datum:Temp:Abs-Feuchte:Windchill:Wind:
Aussen-T/F 1151 20-08-2020 23:50:00 23.1 C 16.12 g/m*3 23.1 C 4.8 km/h
1152 20-08-2020 23:55:00 23.1 C 15.71 g/m*3 23.1 C 6.4 km/h
1153 21-08-2020 00:00:00 23.2 C 15.38 g/m*3 23.2 C 6.4 km/h
1154 21-08-2020 00:05:00 23.4 C 15.98 g/m*3 23.4 C 6.4 km/h
1155 21-08-2020 00:10:00 23.5 C 16.28 g/m*3 23.5 C 6.4 km/h
1156 21-08-2020 00:15:00 23.4 C 15.77 g/m*3 23.4 C 3.2 km/h
1157 21-08-2020 00:20:00 23.5 C 16.07 g/m*3 23.5 C 8.1 km/h
1158 21-08-2020 00:25:00 23.4 C 15.56 g/m*3 23.4 C 0 km/h
1159 21-08-2020 00:30:00 23.6 C 15.31 g/m*3 23.6 C 6.4 km/h
1160 21-08-2020 00:35:00 23.9 C 16.01 g/m*3 23.9 C 3.2 km/h
1161 21-08-2020 00:40:00 24 C 16.1 g/m*3 24 C 0 km/h
1162 21-08-2020 00:45:00 23.9 C 16.01 g/m*3 23.9 C 3.2 km/h
1163 21-08-2020 00:50:00 23.8 C 16.13 g/m*3 23.8 C 0 km/h
1164 21-08-2020 00:55:00 23.6 C 16.16 g/m*3 23.6 C 4.8 km/h
1165 21-08-2020 01:00:00 23.5 C 16.07 g/m*3 23.5 C 4.8 km/h
1166 21-08-2020 01:05:00 23.3 C 15.89 g/m*3 23.3 C 3.2 km/h
1167 21-08-2020 01:10:00 23.3 C 15.68 g/m*3 23.3 C 4.8 km/h
1168 21-08-2020 01:15:00 23.3 C 16.1 g/m*3 23.3 C 3.2 km/h
1169 21-08-2020 01:20:00 23.4 C 15.98 g/m*3 23.4 C 8.1 km/h
1170 21-08-2020 01:25:00 23.7 C 15.4 g/m*3 23.7 C 8.1 km/h
1171 21-08-2020 01:30:00 24 C 16.32 g/m*3 24 C 1.6 km/h
1172 21-08-2020 01:35:00 24.1 C 16.41 g/m*3 24.1 C 3.2 km/h
1173 21-08-2020 01:40:00 23.9 C 16.01 g/m*3 23.9 C 4.8 km/h
1174 21-08-2020 01:45:00 23.7 C 15.83 g/m*3 23.7 C 3.2 km/h
1175 21-08-2020 01:50:00 23.7 C 16.04 g/m*3 23.7 C 1.6 km/h
Sensor: Nr:Datum:Temp:Abs-Feuchte:Windchill:Wind:
Aussen-T/F 1176 21-08-2020 01:55:00 23.6 C 16.16 g/m*3 23.6 C 6.4 km/h
1177 21-08-2020 02:00:00 23.4 C 15.77 g/m*3 23.4 C 4.8 km/h
1178 21-08-2020 02:05:00 23.4 C 15.98 g/m*3 23.4 C 0 km/h
1179 21-08-2020 02:10:00 23.4 C 15.77 g/m*3 23.4 C 4.8 km/h
1180 21-08-2020 02:15:00 23.5 C 15.86 g/m*3 23.5 C 3.2 km/h
1181 21-08-2020 02:20:00 23.6 C 16.16 g/m*3 23.6 C 3.2 km/h
1182 21-08-2020 02:25:00 23.6 C 16.38 g/m*3 23.6 C 3.2 km/h
1183 21-08-2020 02:30:00 23.6 C 15.53 g/m*3 23.6 C 0 km/h
1184 21-08-2020 02:35:00 23.8 C 15.7 g/m*3 23.8 C 8.1 km/h
1185 21-08-2020 02:40:00 24.2 C 15.4 g/m*3 24.2 C 8.1 km/h
1186 21-08-2020 02:45:00 24.6 C 15.98 g/m*3 24.6 C 0 km/h
1187 21-08-2020 02:50:00 24.7 C 16.07 g/m*3 24.7 C 4.8 km/h
1188 21-08-2020 02:55:00 24.8 C 15.93 g/m*3 24.8 C 1.6 km/h
1189 21-08-2020 03:00:00 24.8 C 15.48 g/m*3 24.8 C 8.1 km/h
1190 21-08-2020 03:05:00 24.9 C 16.02 g/m*3 24.9 C 1.6 km/h
1191 21-08-2020 03:10:00 24.8 C 15.25 g/m*3 24.8 C 3.2 km/h
1192 21-08-2020 03:15:00 24.9 C 15.34 g/m*3 24.9 C 3.2 km/h
1193 21-08-2020 03:20:00 25.2 C 15.36 g/m*3 25.2 C 6.4 km/h
1194 21-08-2020 03:25:00 25.3 C 15.92 g/m*3 25.3 C 3.2 km/h
1195 21-08-2020 03:30:00 25.3 C 15.45 g/m*3 25.3 C 3.2 km/h
1196 21-08-2020 03:35:00 25.3 C 15.69 g/m*3 25.3 C 0 km/h
1197 21-08-2020 03:40:00 25.3 C 15.92 g/m*3 25.3 C 4.8 km/h
1198 21-08-2020 03:45:00 25.2 C 15.36 g/m*3 25.2 C 8.1 km/h
1199 21-08-2020 03:50:00 25.2 C 15.83 g/m*3 25.2 C 6.4 km/h
1200 21-08-2020 03:55:00 25.1 C 15.74 g/m*3 25.1 C 3.2 km/h
Sensor: Nr:Datum:Temp:Abs-Feuchte:Windchill:Wind:
Aussen-T/F 1201 21-08-2020 04:00:00 24.9 C 15.34 g/m*3 24.9 C 8.1 km/h
1202 21-08-2020 04:05:00 24.8 C 15.71 g/m*3 24.8 C 3.2 km/h
1203 21-08-2020 04:10:00 24.7 C 15.84 g/m*3 24.7 C 3.2 km/h
1204 21-08-2020 04:15:00 24.6 C 15.98 g/m*3 24.6 C 4.8 km/h
1205 21-08-2020 04:20:00 24.5 C 15.67 g/m*3 24.5 C 9.7 km/h
1206 21-08-2020 04:25:00 24.4 C 15.8 g/m*3 24.4 C 6.4 km/h
1207 21-08-2020 04:30:00 24.4 C 16.02 g/m*3 24.4 C 0 km/h
1208 21-08-2020 04:35:00 24.3 C 15.93 g/m*3 24.3 C 1.6 km/h
1209 21-08-2020 04:40:00 24.2 C 15.84 g/m*3 24.2 C 1.6 km/h
1210 21-08-2020 04:45:00 24 C 15.88 g/m*3 24 C 1.6 km/h
1211 21-08-2020 04:50:00 23.9 C 15.79 g/m*3 23.9 C 3.2 km/h
1212 21-08-2020 04:55:00 23.8 C 16.13 g/m*3 23.8 C 4.8 km/h
1213 21-08-2020 05:00:00 23.7 C 16.04 g/m*3 23.7 C 1.6 km/h
1214 21-08-2020 05:05:00 23.6 C 16.38 g/m*3 23.6 C 3.2 km/h
1215 21-08-2020 05:10:00 23.4 C 15.98 g/m*3 23.4 C 4.8 km/h
1216 21-08-2020 05:15:00 23.3 C 16.1 g/m*3 23.3 C 4.8 km/h
1217 21-08-2020 05:20:00 23.2 C 16.01 g/m*3 23.2 C 1.6 km/h
1218 21-08-2020 05:25:00 23.1 C 16.12 g/m*3 23.1 C 4.8 km/h
1219 21-08-2020 05:30:00 22.9 C 15.74 g/m*3 22.9 C 3.2 km/h
1220 21-08-2020 05:35:00 22.9 C 15.94 g/m*3 22.9 C 4.8 km/h
1221 21-08-2020 05:40:00 22.8 C 15.85 g/m*3 22.8 C 1.6 km/h
1222 21-08-2020 05:45:00 22.7 C 15.96 g/m*3 22.7 C 4.8 km/h
1223 21-08-2020 05:50:00 22.6 C 15.87 g/m*3 22.6 C 4.8 km/h
1224 21-08-2020 05:55:00 22.4 C 15.69 g/m*3 22.4 C 4.8 km/h
1225 21-08-2020 06:00:00 22.3 C 15.8 g/m*3 22.3 C 3.2 km/h
Sensor: Nr:Datum:Temp:Abs-Feuchte:Windchill:Wind:
Aussen-T/F 1226 21-08-2020 06:05:00 22.3 C 15.8 g/m*3 22.3 C 4.8 km/h
1227 21-08-2020 06:10:00 22.2 C 15.71 g/m*3 22.2 C 4.8 km/h
1228 21-08-2020 06:15:00 22.2 C 15.71 g/m*3 22.2 C 0 km/h
1229 21-08-2020 06:20:00 22.2 C 15.9 g/m*3 22.2 C 1.6 km/h
1230 21-08-2020 06:25:00 22.1 C 15.81 g/m*3 22.1 C 3.2 km/h
1231 21-08-2020 06:30:00 22.1 C 16.01 g/m*3 22.1 C 1.6 km/h
1232 21-08-2020 06:35:00 22.1 C 15.81 g/m*3 22.1 C 0 km/h
1233 21-08-2020 06:40:00 22.1 C 15.81 g/m*3 22.1 C 1.6 km/h
1234 21-08-2020 06:45:00 22.1 C 15.81 g/m*3 22.1 C 3.2 km/h
1235 21-08-2020 06:50:00 22.1 C 15.81 g/m*3 22.1 C 0 km/h
1236 21-08-2020 06:55:00 22.1 C 15.81 g/m*3 22.1 C 4.8 km/h
1237 21-08-2020 07:00:00 22.1 C 15.81 g/m*3 22.1 C 4.8 km/h
1238 21-08-2020 07:05:00 22.1 C 15.81 g/m*3 22.1 C 3.2 km/h
1239 21-08-2020 07:10:00 22.2 C 15.9 g/m*3 22.2 C 3.2 km/h
1240 21-08-2020 07:15:00 22.2 C 15.71 g/m*3 22.2 C 0 km/h
1241 21-08-2020 07:20:00 22.2 C 15.9 g/m*3 22.2 C 1.6 km/h
1242 21-08-2020 07:25:00 22.3 C 15.99 g/m*3 22.3 C 0 km/h
1243 21-08-2020 07:30:00 22.3 C 15.99 g/m*3 22.3 C 4.8 km/h
1244 21-08-2020 07:35:00 22.3 C 15.8 g/m*3 22.3 C 3.2 km/h
1245 21-08-2020 07:40:00 22.3 C 15.8 g/m*3 22.3 C 3.2 km/h
1246 21-08-2020 07:45:00 22.4 C 15.69 g/m*3 22.4 C 4.8 km/h
1247 21-08-2020 07:50:00 22.5 C 15.98 g/m*3 22.5 C 6.4 km/h
1248 21-08-2020 07:55:00 22.6 C 16.27 g/m*3 22.6 C 0 km/h
1249 21-08-2020 08:00:00 22.7 C 16.37 g/m*3 22.7 C 4.8 km/h
1250 21-08-2020 08:05:00 22.9 C 16.55 g/m*3 22.9 C 3.2 km/h
Sensor: Nr:Datum:Temp:Abs-Feuchte:Windchill:Wind:
Aussen-T/F 1251 21-08-2020 08:10:00 23 C 16.44 g/m*3 23 C 4.8 km/h
1252 21-08-2020 08:15:00 23.2 C 16.84 g/m*3 23.2 C 1.6 km/h
1253 21-08-2020 08:20:00 23.3 C 16.94 g/m*3 23.3 C 0 km/h
1254 21-08-2020 08:25:00 23.4 C 17.03 g/m*3 23.4 C 0 km/h
1255 21-08-2020 08:30:00 23.6 C 17.23 g/m*3 23.6 C 3.2 km/h
1256 21-08-2020 08:35:00 23.8 C 17.42 g/m*3 23.8 C 1.6 km/h
1257 21-08-2020 08:40:00 23.9 C 17.09 g/m*3 23.9 C 3.2 km/h
1258 21-08-2020 08:45:00 24 C 17.19 g/m*3 24 C 1.6 km/h
1259 21-08-2020 08:50:00 24.1 C 17.07 g/m*3 24.1 C 1.6 km/h
1260 21-08-2020 08:55:00 24.2 C 16.94 g/m*3 24.2 C 0 km/h
1261 21-08-2020 09:00:00 24.3 C 17.26 g/m*3 24.3 C 0 km/h
1262 21-08-2020 09:05:00 24.5 C 17.68 g/m*3 24.5 C 0 km/h
1263 21-08-2020 09:10:00 24.6 C 17.11 g/m*3 24.6 C 0 km/h
1264 21-08-2020 09:15:00 24.7 C 17.43 g/m*3 24.7 C 0 km/h
1265 21-08-2020 09:20:00 24.9 C 17.85 g/m*3 24.9 C 0 km/h
1266 21-08-2020 09:25:00 25.1 C 17.83 g/m*3 25.1 C 3.2 km/h
1267 21-08-2020 09:30:00 25.2 C 17.93 g/m*3 25.2 C 0 km/h
1268 21-08-2020 09:35:00 25.3 C 18.03 g/m*3 25.3 C 1.6 km/h
1269 21-08-2020 09:40:00 25.3 C 17.56 g/m*3 25.3 C 0 km/h
1270 21-08-2020 09:45:00 25.2 C 17.69 g/m*3 25.2 C 0 km/h
1271 21-08-2020 09:50:00 25.1 C 17.36 g/m*3 25.1 C 0 km/h
1272 21-08-2020 09:55:00 25.1 C 17.59 g/m*3 25.1 C 0 km/h
1273 21-08-2020 10:00:00 25.1 C 17.83 g/m*3 25.1 C 0 km/h
1274 21-08-2020 10:05:00 25.2 C 18.16 g/m*3 25.2 C 0 km/h
1275 21-08-2020 10:10:00 25.3 C 16.39 g/m*3 25.3 C 6.4 km/h
Sensor: Nr:Datum:Temp:Abs-Feuchte:Windchill:Wind:
Aussen-T/F 1276 21-08-2020 10:15:00 25.6 C 16.43 g/m*3 25.6 C 8.1 km/h
1277 21-08-2020 10:20:00 25.8 C 17.33 g/m*3 25.8 C 4.8 km/h
1278 21-08-2020 10:25:00 25.8 C 16.13 g/m*3 25.8 C 8.1 km/h
1279 21-08-2020 10:30:00 25.8 C 16.13 g/m*3 25.8 C 8.1 km/h
1280 21-08-2020 10:35:00 25.9 C 16.95 g/m*3 25.9 C 3.2 km/h
1281 21-08-2020 10:40:00 25.9 C 16.46 g/m*3 25.9 C 3.2 km/h
1282 21-08-2020 10:45:00 26 C 16.8 g/m*3 26 C 1.6 km/h
1283 21-08-2020 10:50:00 26.1 C 17.14 g/m*3 26.1 C 1.6 km/h
1284 21-08-2020 10:55:00 26.2 C 16 g/m*3 26.2 C 4.8 km/h
1285 21-08-2020 11:00:00 26.3 C 16.59 g/m*3 26.3 C 6.4 km/h
1286 21-08-2020 11:05:00 26.4 C 16.43 g/m*3 26.4 C 6.4 km/h
1287 21-08-2020 11:10:00 26.4 C 16.43 g/m*3 26.4 C 6.4 km/h
1288 21-08-2020 11:15:00 26.7 C 16.96 g/m*3 26.7 C 3.2 km/h
1289 21-08-2020 11:20:00 26.8 C 16.29 g/m*3 26.8 C 6.4 km/h
1290 21-08-2020 11:25:00 26.9 C 15.87 g/m*3 26.9 C 8.1 km/h
1291 21-08-2020 11:30:00 26.8 C 15.78 g/m*3 26.8 C 9.7 km/h
1292 21-08-2020 11:35:00 26.7 C 16.2 g/m*3 26.7 C 12.9 km/h
1293 21-08-2020 11:40:00 26.6 C 16.11 g/m*3 26.6 C 4.8 km/h
1294 21-08-2020 11:45:00 26.4 C 16.68 g/m*3 26.4 C 6.4 km/h
1295 21-08-2020 11:50:00 26.3 C 16.09 g/m*3 26.3 C 4.8 km/h
1296 21-08-2020 11:55:00 26.2 C 16 g/m*3 26.2 C 4.8 km/h
1297 21-08-2020 12:00:00 26.1 C 15.91 g/m*3 26.1 C 8.1 km/h
1298 21-08-2020 12:05:00 26.2 C 16.49 g/m*3 26.2 C 1.6 km/h
1299 21-08-2020 12:10:00 26.2 C 16.49 g/m*3 26.2 C 6.4 km/h
1300 21-08-2020 12:15:00 26.3 C 16.09 g/m*3 26.3 C 4.8 km/h
Sensor: Nr:Datum:Temp:Abs-Feuchte:Windchill:Wind:
Aussen-T/F 1301 21-08-2020 12:20:00 26.4 C 16.18 g/m*3 26.4 C 4.8 km/h
1302 21-08-2020 12:25:00 26.6 C 17.37 g/m*3 26.6 C 3.2 km/h
1303 21-08-2020 12:30:00 26.6 C 15.86 g/m*3 26.6 C 8.1 km/h
1304 21-08-2020 12:35:00 26.7 C 16.2 g/m*3 26.7 C 6.4 km/h
1305 21-08-2020 12:40:00 26.8 C 16.54 g/m*3 26.8 C 1.6 km/h
1306 21-08-2020 12:45:00 26.8 C 16.54 g/m*3 26.8 C 6.4 km/h
1307 21-08-2020 12:50:00 26.9 C 16.38 g/m*3 26.9 C 0 km/h
1308 21-08-2020 12:55:00 27.1 C 16.04 g/m*3 27.1 C 3.2 km/h
1309 21-08-2020 13:00:00 27.3 C 16.22 g/m*3 27.3 C 9.7 km/h
1310 21-08-2020 13:05:00 27.4 C 16.31 g/m*3 27.4 C 6.4 km/h
1311 21-08-2020 13:10:00 27.4 C 16.31 g/m*3 27.4 C 6.4 km/h
1312 21-08-2020 13:15:00 27.6 C 16.49 g/m*3 27.6 C 9.7 km/h
1313 21-08-2020 13:20:00 27.7 C 16.05 g/m*3 27.7 C 6.4 km/h
1314 21-08-2020 13:25:00 27.7 C 16.32 g/m*3 27.7 C 9.7 km/h
1315 21-08-2020 13:30:00 27.7 C 16.32 g/m*3 27.7 C 9.7 km/h
1316 21-08-2020 13:35:00 27.7 C 16.58 g/m*3 27.7 C 3.2 km/h
1317 21-08-2020 13:40:00 27.8 C 16.14 g/m*3 27.8 C 8.1 km/h
1318 21-08-2020 13:45:00 27.9 C 16.5 g/m*3 27.9 C 14.5 km/h
1319 21-08-2020 13:50:00 27.9 C 15.96 g/m*3 27.9 C 9.7 km/h
1320 21-08-2020 13:55:00 27.9 C 16.5 g/m*3 27.9 C 6.4 km/h
1321 21-08-2020 14:00:00 27.9 C 17.04 g/m*3 27.9 C 0 km/h
1322 21-08-2020 14:05:00 27.8 C 17.21 g/m*3 27.8 C 6.4 km/h
1323 21-08-2020 14:10:00 27.5 C 16.14 g/m*3 27.5 C 9.7 km/h
1324 21-08-2020 14:15:00 27.3 C 16.48 g/m*3 27.3 C 11.3 km/h
1325 21-08-2020 14:20:00 27.4 C 17.63 g/m*3 27.4 C 0 km/h
Sensor: Nr:Datum:Temp:Abs-Feuchte:Windchill:Wind:
Aussen-T/F 1326 21-08-2020 14:25:00 27.4 C 18.42 g/m*3 27.4 C 0 km/h
1327 21-08-2020 14:30:00 27.5 C 18.78 g/m*3 27.5 C 0 km/h
1328 21-08-2020 14:35:00 27.6 C 18.36 g/m*3 27.6 C 0 km/h
1329 21-08-2020 14:40:00 27.6 C 17.82 g/m*3 27.6 C 0 km/h
1330 21-08-2020 14:45:00 27.7 C 17.92 g/m*3 27.7 C 0 km/h
1331 21-08-2020 14:50:00 27.8 C 16.95 g/m*3 27.8 C 4.8 km/h
1332 21-08-2020 14:55:00 28 C 17.13 g/m*3 28 C 6.4 km/h
1333 21-08-2020 15:00:00 28.2 C 17.05 g/m*3 28.2 C 4.8 km/h
1334 21-08-2020 15:05:00 28.4 C 16.96 g/m*3 28.4 C 4.8 km/h
1335 21-08-2020 15:10:00 28.6 C 16.58 g/m*3 28.6 C 6.4 km/h
1336 21-08-2020 15:15:00 28.8 C 16.48 g/m*3 28.8 C 6.4 km/h
1337 21-08-2020 15:20:00 29 C 16.37 g/m*3 29 C 9.7 km/h
1338 21-08-2020 15:25:00 29.1 C 16.46 g/m*3 29.1 C 6.4 km/h
1339 21-08-2020 15:30:00 29.1 C 16.75 g/m*3 29.1 C 0 km/h
1340 21-08-2020 15:35:00 29 C 16.08 g/m*3 29 C 8.1 km/h
1341 21-08-2020 15:40:00 28.9 C 16 g/m*3 28.9 C 1.6 km/h
1342 21-08-2020 15:45:00 28.9 C 17.14 g/m*3 28.9 C 4.8 km/h
1343 21-08-2020 15:50:00 28.9 C 16.28 g/m*3 28.9 C 1.6 km/h
1344 21-08-2020 15:55:00 28.9 C 16.57 g/m*3 28.9 C 0 km/h
1345 21-08-2020 16:00:00 28.9 C 16.57 g/m*3 28.9 C 3.2 km/h
1346 21-08-2020 16:05:00 28.9 C 17.43 g/m*3 28.9 C 0 km/h
1347 21-08-2020 16:10:00 28.9 C 17.43 g/m*3 28.9 C 0 km/h
1348 21-08-2020 16:15:00 28.9 C 17.71 g/m*3 28.9 C 0 km/h
1349 21-08-2020 16:20:00 28.9 C 19.14 g/m*3 28.9 C 0 km/h
1350 21-08-2020 16:25:00 28.9 C 18.85 g/m*3 28.9 C 0 km/h
Sensor: Nr:Datum:Temp:Abs-Feuchte:Windchill:Wind:
Aussen-T/F 1351 21-08-2020 16:30:00 28.8 C 18.75 g/m*3 28.8 C 0 km/h
1352 21-08-2020 16:35:00 28.7 C 18.93 g/m*3 28.7 C 0 km/h
1353 21-08-2020 16:40:00 28.6 C 18.55 g/m*3 28.6 C 0 km/h
1354 21-08-2020 16:45:00 28.4 C 18.35 g/m*3 28.4 C 0 km/h
1355 21-08-2020 16:50:00 28.3 C 19.08 g/m*3 28.3 C 0 km/h
1356 21-08-2020 16:55:00 28.1 C 18.87 g/m*3 28.1 C 0 km/h
1357 21-08-2020 17:00:00 27.8 C 18.83 g/m*3 27.8 C 0 km/h
1358 21-08-2020 17:05:00 27.7 C 18.72 g/m*3 27.7 C 0 km/h
1359 21-08-2020 17:10:00 27.5 C 19.05 g/m*3 27.5 C 0 km/h
1360 21-08-2020 17:15:00 27.4 C 18.94 g/m*3 27.4 C 0 km/h
1361 21-08-2020 17:20:00 27.2 C 18.74 g/m*3 27.2 C 0 km/h
1362 21-08-2020 17:25:00 27.1 C 19.15 g/m*3 27.1 C 0 km/h
1363 21-08-2020 17:30:00 27 C 19.3 g/m*3 27 C 0 km/h
1364 21-08-2020 17:35:00 26.9 C 18.94 g/m*3 26.9 C 0 km/h
1365 21-08-2020 17:40:00 26.8 C 19.09 g/m*3 26.8 C 0 km/h
1366 21-08-2020 17:45:00 26.8 C 19.34 g/m*3 26.8 C 0 km/h
1367 21-08-2020 17:50:00 26.9 C 19.45 g/m*3 26.9 C 0 km/h
1368 21-08-2020 17:55:00 27 C 19.04 g/m*3 27 C 3.2 km/h
1369 21-08-2020 18:00:00 27.2 C 19.52 g/m*3 27.2 C 3.2 km/h
1370 21-08-2020 18:05:00 27.2 C 17.96 g/m*3 27.2 C 3.2 km/h
1371 21-08-2020 18:10:00 27.3 C 18.05 g/m*3 27.3 C 3.2 km/h
1372 21-08-2020 18:15:00 27.3 C 17.79 g/m*3 27.3 C 9.7 km/h
1373 21-08-2020 18:20:00 27.4 C 18.15 g/m*3 27.4 C 0 km/h
1374 21-08-2020 18:25:00 27.4 C 17.63 g/m*3 27.4 C 0 km/h
1375 21-08-2020 18:30:00 27.6 C 17.82 g/m*3 27.6 C 8.1 km/h
Sensor: Nr:Datum:Temp:Abs-Feuchte:Windchill:Wind:
Aussen-T/F 1376 21-08-2020 18:35:00 28.1 C 17.5 g/m*3 28.1 C 8.1 km/h
1377 21-08-2020 18:40:00 28.4 C 17.23 g/m*3 28.4 C 11.3 km/h
1378 21-08-2020 18:45:00 28.6 C 17.42 g/m*3 28.6 C 6.4 km/h
1379 21-08-2020 18:50:00 28.5 C 17.05 g/m*3 28.5 C 8.1 km/h
1380 21-08-2020 18:55:00 28.7 C 16.39 g/m*3 28.7 C 12.9 km/h
1381 21-08-2020 19:00:00 28.9 C 16 g/m*3 28.9 C 9.7 km/h
1382 21-08-2020 19:05:00 28.8 C 15.91 g/m*3 28.8 C 9.7 km/h
1383 21-08-2020 19:10:00 28.6 C 16.3 g/m*3 28.6 C 9.7 km/h
1384 21-08-2020 19:15:00 28.4 C 16.96 g/m*3 28.4 C 0 km/h
1385 21-08-2020 19:20:00 28.2 C 16.77 g/m*3 28.2 C 3.2 km/h
1386 21-08-2020 19:25:00 28 C 17.4 g/m*3 28 C 0 km/h
1387 21-08-2020 19:30:00 27.7 C 16.85 g/m*3 27.7 C 0 km/h
1388 21-08-2020 19:35:00 27.4 C 16.84 g/m*3 27.4 C 0 km/h
1389 21-08-2020 19:40:00 27.2 C 16.91 g/m*3 27.2 C 4.8 km/h
1390 21-08-2020 19:45:00 26.9 C 16.89 g/m*3 26.9 C 4.8 km/h
1391 21-08-2020 19:50:00 26.8 C 17.31 g/m*3 26.8 C 4.8 km/h
1392 21-08-2020 19:55:00 26.6 C 17.12 g/m*3 26.6 C 0 km/h
1393 21-08-2020 20:00:00 26.6 C 16.87 g/m*3 26.6 C 0 km/h
1394 21-08-2020 20:05:00 26.6 C 17.62 g/m*3 26.6 C 0 km/h
1395 21-08-2020 20:10:00 26.6 C 17.37 g/m*3 26.6 C 0 km/h
1396 21-08-2020 20:15:00 26.4 C 17.18 g/m*3 26.4 C 0 km/h
1397 21-08-2020 20:20:00 26.3 C 17.08 g/m*3 26.3 C 4.8 km/h
1398 21-08-2020 20:25:00 26.1 C 17.14 g/m*3 26.1 C 0 km/h
1399 21-08-2020 20:30:00 25.9 C 17.19 g/m*3 25.9 C 0 km/h
1400 21-08-2020 20:35:00 25.6 C 16.9 g/m*3 25.6 C 0 km/h
Sensor: Nr:Datum:Temp:Abs-Feuchte:Windchill:Wind:
Aussen-T/F 1401 21-08-2020 20:40:00 25.4 C 16.72 g/m*3 25.4 C 0 km/h
1402 21-08-2020 20:45:00 25.1 C 16.67 g/m*3 25.1 C 0 km/h
1403 21-08-2020 20:50:00 24.9 C 16.48 g/m*3 24.9 C 0 km/h
1404 21-08-2020 20:55:00 24.7 C 16.3 g/m*3 24.7 C 0 km/h
1405 21-08-2020 21:00:00 24.6 C 16.21 g/m*3 24.6 C 0 km/h
1406 21-08-2020 21:05:00 24.5 C 16.34 g/m*3 24.5 C 0 km/h
1407 21-08-2020 21:10:00 24.4 C 16.02 g/m*3 24.4 C 0 km/h
1408 21-08-2020 21:15:00 24.4 C 16.25 g/m*3 24.4 C 0 km/h
1409 21-08-2020 21:20:00 24.3 C 16.15 g/m*3 24.3 C 0 km/h
1410 21-08-2020 21:25:00 24.3 C 16.38 g/m*3 24.3 C 0 km/h
1411 21-08-2020 21:30:00 24.2 C 16.06 g/m*3 24.2 C 0 km/h
1412 21-08-2020 21:35:00 24.2 C 16.06 g/m*3 24.2 C 4.8 km/h
1413 21-08-2020 21:40:00 24.1 C 15.97 g/m*3 24.1 C 1.6 km/h
1414 21-08-2020 21:45:00 24.1 C 16.19 g/m*3 24.1 C 0 km/h
1415 21-08-2020 21:50:00 24.1 C 16.19 g/m*3 24.1 C 1.6 km/h
1416 21-08-2020 21:55:00 24 C 16.32 g/m*3 24 C 0 km/h
1417 21-08-2020 22:00:00 23.9 C 16.23 g/m*3 23.9 C 0 km/h
1418 21-08-2020 22:05:00 23.8 C 16.13 g/m*3 23.8 C 6.4 km/h
1419 21-08-2020 22:10:00 23.7 C 16.26 g/m*3 23.7 C 4.8 km/h
1420 21-08-2020 22:15:00 23.6 C 16.16 g/m*3 23.6 C 1.6 km/h
1421 21-08-2020 22:20:00 23.5 C 16.07 g/m*3 23.5 C 0 km/h
1422 21-08-2020 22:25:00 23.4 C 16.19 g/m*3 23.4 C 0 km/h
1423 21-08-2020 22:30:00 23.3 C 16.31 g/m*3 23.3 C 0 km/h
1424 21-08-2020 22:35:00 23.2 C 16.22 g/m*3 23.2 C 0 km/h
1425 21-08-2020 22:40:00 23.1 C 16.33 g/m*3 23.1 C 0 km/h
Sensor: Nr:Datum:Temp:Abs-Feuchte:Windchill:Wind:
Aussen-T/F 1426 21-08-2020 22:45:00 23 C 16.24 g/m*3 23 C 0 km/h
1427 21-08-2020 22:50:00 22.9 C 16.14 g/m*3 22.9 C 0 km/h
1428 21-08-2020 22:55:00 22.8 C 16.26 g/m*3 22.8 C 0 km/h
1429 21-08-2020 23:00:00 22.7 C 16.16 g/m*3 22.7 C 0 km/h
1430 21-08-2020 23:05:00 22.6 C 16.27 g/m*3 22.6 C 0 km/h
1431 21-08-2020 23:10:00 22.5 C 16.18 g/m*3 22.5 C 0 km/h
1432 21-08-2020 23:15:00 22.4 C 16.28 g/m*3 22.4 C 0 km/h
1433 21-08-2020 23:20:00 22.3 C 16.19 g/m*3 22.3 C 0 km/h
1434 21-08-2020 23:25:00 22.3 C 16.19 g/m*3 22.3 C 0 km/h
1435 21-08-2020 23:30:00 22.2 C 16.1 g/m*3 22.2 C 0 km/h
1436 21-08-2020 23:35:00 22.2 C 16.1 g/m*3 22.2 C 0 km/h
1437 21-08-2020 23:40:00 22.1 C 16.01 g/m*3 22.1 C 0 km/h
1438 21-08-2020 23:45:00 22 C 15.91 g/m*3 22 C 0 km/h
1439 21-08-2020 23:50:00 21.9 C 15.82 g/m*3 21.9 C 0 km/h
1440 21-08-2020 23:55:00 21.8 C 15.92 g/m*3 21.8 C 0 km/h
1441 22-08-2020 00:00:00 21.8 C 15.92 g/m*3 21.8 C 0 km/h
1442 22-08-2020 00:05:00 21.8 C 15.92 g/m*3 21.8 C 0 km/h
1443 22-08-2020 00:10:00 21.8 C 15.92 g/m*3 21.8 C 0 km/h
1444 22-08-2020 00:15:00 21.8 C 16.12 g/m*3 21.8 C 0 km/h
1445 22-08-2020 00:20:00 21.8 C 16.12 g/m*3 21.8 C 0 km/h
1446 22-08-2020 00:25:00 21.8 C 15.92 g/m*3 21.8 C 0 km/h
1447 22-08-2020 00:30:00 21.8 C 15.92 g/m*3 21.8 C 0 km/h
1448 22-08-2020 00:35:00 21.8 C 16.12 g/m*3 21.8 C 0 km/h
1449 22-08-2020 00:40:00 21.8 C 15.92 g/m*3 21.8 C 0 km/h
1450 22-08-2020 00:45:00 21.8 C 15.92 g/m*3 21.8 C 0 km/h
Sensor: Nr:Datum:Temp:Abs-Feuchte:Windchill:Wind:
Aussen-T/F 1451 22-08-2020 00:50:00 21.8 C 16.12 g/m*3 21.8 C 0 km/h
1452 22-08-2020 00:55:00 21.8 C 16.12 g/m*3 21.8 C 0 km/h
1453 22-08-2020 01:00:00 21.7 C 16.02 g/m*3 21.7 C 0 km/h
1454 22-08-2020 01:05:00 21.7 C 16.02 g/m*3 21.7 C 0 km/h
1455 22-08-2020 01:10:00 21.7 C 16.02 g/m*3 21.7 C 3.2 km/h
1456 22-08-2020 01:15:00 21.6 C 15.93 g/m*3 21.6 C 1.6 km/h
1457 22-08-2020 01:20:00 21.6 C 15.93 g/m*3 21.6 C 0 km/h
1458 22-08-2020 01:25:00 21.6 C 15.93 g/m*3 21.6 C 0 km/h
1459 22-08-2020 01:30:00 21.6 C 15.74 g/m*3 21.6 C 0 km/h
1460 22-08-2020 01:35:00 21.7 C 15.83 g/m*3 21.7 C 1.6 km/h
1461 22-08-2020 01:40:00 21.7 C 15.83 g/m*3 21.7 C 0 km/h
1462 22-08-2020 01:45:00 21.7 C 15.83 g/m*3 21.7 C 0 km/h
1463 22-08-2020 01:50:00 21.6 C 15.74 g/m*3 21.6 C 3.2 km/h
1464 22-08-2020 01:55:00 21.6 C 15.74 g/m*3 21.6 C 0 km/h
1465 22-08-2020 02:00:00 21.6 C 15.74 g/m*3 21.6 C 3.2 km/h
1466 22-08-2020 02:05:00 21.6 C 15.74 g/m*3 21.6 C 1.6 km/h
1467 22-08-2020 02:10:00 21.6 C 15.93 g/m*3 21.6 C 0 km/h
1468 22-08-2020 02:15:00 21.5 C 15.84 g/m*3 21.5 C 0 km/h
1469 22-08-2020 02:20:00 21.5 C 15.84 g/m*3 21.5 C 0 km/h
1470 22-08-2020 02:25:00 21.4 C 15.75 g/m*3 21.4 C 0 km/h
1471 22-08-2020 02:30:00 21.4 C 15.75 g/m*3 21.4 C 0 km/h
1472 22-08-2020 02:35:00 21.4 C 15.75 g/m*3 21.4 C 1.6 km/h
1473 22-08-2020 02:40:00 21.3 C 15.66 g/m*3 21.3 C 1.6 km/h
1474 22-08-2020 02:45:00 21.3 C 15.66 g/m*3 21.3 C 1.6 km/h
1475 22-08-2020 02:50:00 21.3 C 15.66 g/m*3 21.3 C 1.6 km/h
Sensor: Nr:Datum:Temp:Abs-Feuchte:Windchill:Wind:
Aussen-T/F 1476 22-08-2020 02:55:00 21.3 C 15.66 g/m*3 21.3 C 0 km/h
1477 22-08-2020 03:00:00 21.3 C 15.47 g/m*3 21.3 C 0 km/h
1478 22-08-2020 03:05:00 21.4 C 15.56 g/m*3 21.4 C 0 km/h
1479 22-08-2020 03:10:00 21.4 C 15.56 g/m*3 21.4 C 1.6 km/h
1480 22-08-2020 03:15:00 21.4 C 15.56 g/m*3 21.4 C 0 km/h
1481 22-08-2020 03:20:00 21.4 C 15.56 g/m*3 21.4 C 0 km/h
1482 22-08-2020 03:25:00 21.3 C 15.47 g/m*3 21.3 C 1.6 km/h
1483 22-08-2020 03:30:00 21.3 C 15.47 g/m*3 21.3 C 1.6 km/h
1484 22-08-2020 03:35:00 21.3 C 15.47 g/m*3 21.3 C 3.2 km/h
1485 22-08-2020 03:40:00 21.2 C 15.38 g/m*3 21.2 C 1.6 km/h
1486 22-08-2020 03:45:00 21.2 C 15.38 g/m*3 21.2 C 1.6 km/h
1487 22-08-2020 03:50:00 21.1 C 15.29 g/m*3 21.1 C 1.6 km/h
1488 22-08-2020 03:55:00 21.1 C 15.29 g/m*3 21.1 C 0 km/h
1489 22-08-2020 04:00:00 20.9 C 15.12 g/m*3 20.9 C 0 km/h
1490 22-08-2020 04:05:00 20.9 C 15.12 g/m*3 20.9 C 1.6 km/h
1491 22-08-2020 04:10:00 20.8 C 15.03 g/m*3 20.8 C 1.6 km/h
1492 22-08-2020 04:15:00 20.8 C 15.03 g/m*3 20.8 C 1.6 km/h
1493 22-08-2020 04:20:00 20.7 C 15.12 g/m*3 20.7 C 1.6 km/h
1494 22-08-2020 04:25:00 20.7 C 15.12 g/m*3 20.7 C 1.6 km/h
1495 22-08-2020 04:30:00 20.6 C 15.03 g/m*3 20.6 C 1.6 km/h
1496 22-08-2020 04:35:00 20.6 C 15.03 g/m*3 20.6 C 0 km/h
1497 22-08-2020 04:40:00 20.6 C 15.03 g/m*3 20.6 C 1.6 km/h
1498 22-08-2020 04:45:00 20.5 C 15.12 g/m*3 20.5 C 0 km/h
1499 22-08-2020 04:50:00 20.5 C 15.12 g/m*3 20.5 C 1.6 km/h
1500 22-08-2020 04:55:00 20.5 C 15.12 g/m*3 20.5 C 1.6 km/h
Sensor: Nr:Datum:Temp:Abs-Feuchte:Windchill:Wind:
Aussen-T/F 1501 22-08-2020 05:00:00 20.5 C 15.12 g/m*3 20.5 C 1.6 km/h
1502 22-08-2020 05:05:00 20.4 C 15.04 g/m*3 20.4 C 0 km/h
1503 22-08-2020 05:10:00 20.4 C 15.04 g/m*3 20.4 C 0 km/h
1504 22-08-2020 05:15:00 20.5 C 15.12 g/m*3 20.5 C 0 km/h
1505 22-08-2020 05:20:00 20.5 C 15.3 g/m*3 20.5 C 0 km/h
1506 22-08-2020 05:25:00 20.5 C 15.3 g/m*3 20.5 C 0 km/h
1507 22-08-2020 05:30:00 20.5 C 15.3 g/m*3 20.5 C 0 km/h
1508 22-08-2020 05:35:00 20.5 C 15.3 g/m*3 20.5 C 1.6 km/h
1509 22-08-2020 05:40:00 20.5 C 15.12 g/m*3 20.5 C 3.2 km/h
1510 22-08-2020 05:45:00 20.6 C 15.21 g/m*3 20.6 C 4.8 km/h
1511 22-08-2020 05:50:00 20.7 C 15.3 g/m*3 20.7 C 4.8 km/h
1512 22-08-2020 05:55:00 20.7 C 15.3 g/m*3 20.7 C 6.4 km/h
1513 22-08-2020 06:00:00 20.8 C 15.39 g/m*3 20.8 C 6.4 km/h
1514 22-08-2020 06:05:00 20.8 C 15.39 g/m*3 20.8 C 6.4 km/h
1515 22-08-2020 06:10:00 20.8 C 15.39 g/m*3 20.8 C 6.4 km/h
1516 22-08-2020 06:15:00 20.9 C 15.48 g/m*3 20.9 C 1.6 km/h
1517 22-08-2020 06:20:00 20.9 C 15.48 g/m*3 20.9 C 3.2 km/h
1518 22-08-2020 06:25:00 20.9 C 15.48 g/m*3 20.9 C 4.8 km/h
1519 22-08-2020 06:30:00 20.9 C 15.48 g/m*3 20.9 C 6.4 km/h
1520 22-08-2020 06:35:00 20.9 C 15.48 g/m*3 20.9 C 3.2 km/h
1521 22-08-2020 06:40:00 21 C 15.39 g/m*3 21 C 6.4 km/h
1522 22-08-2020 06:45:00 21.1 C 15.48 g/m*3 21.1 C 8.1 km/h
1523 22-08-2020 06:50:00 21.1 C 15.48 g/m*3 21.1 C 11.3 km/h
1524 22-08-2020 06:55:00 21.2 C 15.57 g/m*3 21.2 C 11.3 km/h
1525 22-08-2020 07:00:00 21.3 C 15.47 g/m*3 21.3 C 11.3 km/h
Sensor: Nr:Datum:Temp:Abs-Feuchte:Windchill:Wind:
Aussen-T/F 1526 22-08-2020 07:05:00 21.4 C 15.56 g/m*3 21.4 C 12.9 km/h
1527 22-08-2020 07:10:00 21.4 C 15.56 g/m*3 21.4 C 12.9 km/h
1528 22-08-2020 07:15:00 21.5 C 15.46 g/m*3 21.5 C 6.4 km/h
1529 22-08-2020 07:20:00 21.5 C 15.46 g/m*3 21.5 C 8.1 km/h
1530 22-08-2020 07:25:00 21.6 C 15.55 g/m*3 21.6 C 9.7 km/h
1531 22-08-2020 07:30:00 21.6 C 15.55 g/m*3 21.6 C 11.3 km/h
1532 22-08-2020 07:35:00 21.6 C 15.55 g/m*3 21.6 C 6.4 km/h
1533 22-08-2020 07:40:00 21.6 C 15.55 g/m*3 21.6 C 6.4 km/h
1534 22-08-2020 07:45:00 21.5 C 15.46 g/m*3 21.5 C 4.8 km/h
1535 22-08-2020 07:50:00 21.5 C 15.46 g/m*3 21.5 C 6.4 km/h
1536 22-08-2020 07:55:00 21.5 C 15.46 g/m*3 21.5 C 8.1 km/h
1537 22-08-2020 08:00:00 21.5 C 15.46 g/m*3 21.5 C 9.7 km/h
1538 22-08-2020 08:05:00 21.5 C 15.65 g/m*3 21.5 C 4.8 km/h
1539 22-08-2020 08:10:00 21.6 C 15.55 g/m*3 21.6 C 8.1 km/h
1540 22-08-2020 08:15:00 21.5 C 15.46 g/m*3 21.5 C 9.7 km/h
1541 22-08-2020 08:20:00 21.5 C 15.46 g/m*3 21.5 C 9.7 km/h
1542 22-08-2020 08:25:00 21.5 C 15.46 g/m*3 21.5 C 4.8 km/h
1543 22-08-2020 08:30:00 21.5 C 15.65 g/m*3 21.5 C 6.4 km/h
1544 22-08-2020 08:35:00 21.5 C 15.27 g/m*3 21.5 C 8.1 km/h
1545 22-08-2020 08:40:00 21.6 C 15.36 g/m*3 21.6 C 9.7 km/h
1546 22-08-2020 08:45:00 21.5 C 14.9 g/m*3 21.5 C 9.7 km/h
1547 22-08-2020 08:50:00 21.5 C 14.9 g/m*3 21.5 C 14.5 km/h
1548 22-08-2020 08:55:00 21.6 C 14.79 g/m*3 21.6 C 12.9 km/h
1549 22-08-2020 09:00:00 21.6 C 14.6 g/m*3 21.6 C 16.1 km/h
1550 22-08-2020 09:05:00 21.6 C 14.41 g/m*3 21.6 C 11.3 km/h
Sensor: Nr:Datum:Temp:Abs-Feuchte:Windchill:Wind:
Aussen-T/F 1551 22-08-2020 09:10:00 21.6 C 14.41 g/m*3 21.6 C 4.8 km/h
1552 22-08-2020 09:15:00 21.7 C 14.31 g/m*3 21.7 C 9.7 km/h
1553 22-08-2020 09:20:00 21.7 C 13.93 g/m*3 21.7 C 12.9 km/h
1554 22-08-2020 09:25:00 21.7 C 13.93 g/m*3 21.7 C 12.9 km/h
1555 22-08-2020 09:30:00 21.7 C 13.54 g/m*3 21.7 C 6.4 km/h
1556 22-08-2020 09:35:00 21.7 C 13.54 g/m*3 21.7 C 14.5 km/h
1557 22-08-2020 09:40:00 21.8 C 13.81 g/m*3 21.8 C 6.4 km/h
1558 22-08-2020 09:45:00 21.8 C 13.62 g/m*3 21.8 C 9.7 km/h
1559 22-08-2020 09:50:00 21.8 C 13.43 g/m*3 21.8 C 6.4 km/h
1560 22-08-2020 09:55:00 21.8 C 13.24 g/m*3 21.8 C 11.3 km/h
1561 22-08-2020 10:00:00 21.7 C 13.16 g/m*3 21.7 C 9.7 km/h
1562 22-08-2020 10:05:00 21.7 C 13.35 g/m*3 21.7 C 11.3 km/h
1563 22-08-2020 10:10:00 21.8 C 13.43 g/m*3 21.8 C 11.3 km/h
1564 22-08-2020 10:15:00 21.9 C 13.31 g/m*3 21.9 C 12.9 km/h
1565 22-08-2020 10:20:00 21.9 C 13.12 g/m*3 21.9 C 8.1 km/h
1566 22-08-2020 10:25:00 21.9 C 12.93 g/m*3 21.9 C 14.5 km/h
1567 22-08-2020 10:30:00 21.8 C 12.85 g/m*3 21.8 C 9.7 km/h
1568 22-08-2020 10:35:00 21.8 C 12.85 g/m*3 21.8 C 12.9 km/h
1569 22-08-2020 10:40:00 21.8 C 12.66 g/m*3 21.8 C 24.1 km/h
1570 22-08-2020 10:45:00 21.7 C 12.78 g/m*3 21.7 C 11.3 km/h
1571 22-08-2020 10:50:00 21.7 C 12.78 g/m*3 21.7 C 14.5 km/h
1572 22-08-2020 10:55:00 21.8 C 12.66 g/m*3 21.8 C 12.9 km/h
1573 22-08-2020 11:00:00 21.9 C 12.35 g/m*3 21.9 C 16.1 km/h
1574 22-08-2020 11:05:00 22 C 12.42 g/m*3 22 C 19.3 km/h
1575 22-08-2020 11:10:00 22.1 C 12.3 g/m*3 22.1 C 16.1 km/h
Sensor: Nr:Datum:Temp:Abs-Feuchte:Windchill:Wind:
Aussen-T/F 1576 22-08-2020 11:15:00 22.2 C 12.37 g/m*3 22.2 C 11.3 km/h
1577 22-08-2020 11:20:00 22.3 C 12.24 g/m*3 22.3 C 12.9 km/h
1578 22-08-2020 11:25:00 22.4 C 12.11 g/m*3 22.4 C 14.5 km/h
1579 22-08-2020 11:30:00 22.4 C 12.11 g/m*3 22.4 C 16.1 km/h
1580 22-08-2020 11:35:00 22.4 C 12.31 g/m*3 22.4 C 19.3 km/h
1581 22-08-2020 11:40:00 22.4 C 12.31 g/m*3 22.4 C 14.5 km/h
1582 22-08-2020 11:45:00 22.6 C 12.66 g/m*3 22.6 C 19.3 km/h
1583 22-08-2020 11:50:00 22.7 C 12.32 g/m*3 22.7 C 20.9 km/h
1584 22-08-2020 11:55:00 22.8 C 12.19 g/m*3 22.8 C 20.9 km/h
1585 22-08-2020 12:00:00 22.8 C 11.99 g/m*3 22.8 C 16.1 km/h
1586 22-08-2020 12:05:00 22.8 C 11.99 g/m*3 22.8 C 20.9 km/h
1587 22-08-2020 12:10:00 22.8 C 11.79 g/m*3 22.8 C 19.3 km/h
1588 22-08-2020 12:15:00 22.9 C 11.85 g/m*3 22.9 C 19.3 km/h
1589 22-08-2020 12:20:00 23.1 C 11.99 g/m*3 23.1 C 17.7 km/h
1590 22-08-2020 12:25:00 23.2 C 12.06 g/m*3 23.2 C 20.9 km/h
1591 22-08-2020 12:30:00 23.2 C 12.06 g/m*3 23.2 C 12.9 km/h
1592 22-08-2020 12:35:00 23.2 C 12.06 g/m*3 23.2 C 19.3 km/h
1593 22-08-2020 12:40:00 23.3 C 11.92 g/m*3 23.3 C 22.5 km/h
1594 22-08-2020 12:45:00 23.4 C 11.99 g/m*3 23.4 C 19.3 km/h
1595 22-08-2020 12:50:00 23.7 C 11.98 g/m*3 23.7 C 16.1 km/h
1596 22-08-2020 12:55:00 23.7 C 11.98 g/m*3 23.7 C 19.3 km/h
1597 22-08-2020 13:00:00 23.8 C 12.05 g/m*3 23.8 C 16.1 km/h
1598 22-08-2020 13:05:00 24 C 11.75 g/m*3 24 C 19.3 km/h
1599 22-08-2020 13:10:00 23.8 C 11.83 g/m*3 23.8 C 19.3 km/h
1600 22-08-2020 13:15:00 23.9 C 11.9 g/m*3 23.9 C 19.3 km/h
Sensor: Nr:Datum:Temp:Abs-Feuchte:Windchill:Wind:
Aussen-T/F 1601 22-08-2020 13:20:00 23.9 C 11.68 g/m*3 23.9 C 19.3 km/h
1602 22-08-2020 13:25:00 24.1 C 11.82 g/m*3 24.1 C 20.9 km/h
1603 22-08-2020 13:30:00 24.2 C 11.66 g/m*3 24.2 C 19.3 km/h
1604 22-08-2020 13:35:00 24.4 C 11.79 g/m*3 24.4 C 14.5 km/h
1605 22-08-2020 13:40:00 24.6 C 11.48 g/m*3 24.6 C 22.5 km/h
1606 22-08-2020 13:45:00 24.6 C 11.48 g/m*3 24.6 C 17.7 km/h
1607 22-08-2020 13:50:00 24.7 C 12 g/m*3 24.7 C 11.3 km/h
1608 22-08-2020 13:55:00 24.9 C 11.9 g/m*3 24.9 C 16.1 km/h
1609 22-08-2020 14:00:00 25.1 C 11.81 g/m*3 25.1 C 16.1 km/h
1610 22-08-2020 14:05:00 25.2 C 11.41 g/m*3 25.2 C 19.3 km/h
1611 22-08-2020 14:10:00 25.1 C 11.57 g/m*3 25.1 C 16.1 km/h
1612 22-08-2020 14:15:00 25 C 11.74 g/m*3 25 C 6.4 km/h
1613 22-08-2020 14:20:00 25.1 C 11.57 g/m*3 25.1 C 19.3 km/h
1614 22-08-2020 14:25:00 25.1 C 11.57 g/m*3 25.1 C 17.7 km/h
1615 22-08-2020 14:30:00 25.1 C 12.04 g/m*3 25.1 C 16.1 km/h
1616 22-08-2020 14:35:00 25.2 C 12.11 g/m*3 25.2 C 12.9 km/h
1617 22-08-2020 14:40:00 25.3 C 11.24 g/m*3 25.3 C 20.9 km/h
1618 22-08-2020 14:45:00 25.3 C 11.47 g/m*3 25.3 C 25.7 km/h
1619 22-08-2020 14:50:00 25.2 C 11.41 g/m*3 25.2 C 12.9 km/h
1620 22-08-2020 14:55:00 25.3 C 11.47 g/m*3 25.3 C 20.9 km/h
1621 22-08-2020 15:00:00 25.4 C 11.3 g/m*3 25.4 C 20.9 km/h
1622 22-08-2020 15:05:00 25.3 C 11.71 g/m*3 25.3 C 16.1 km/h
1623 22-08-2020 15:10:00 25.2 C 11.41 g/m*3 25.2 C 17.7 km/h
1624 22-08-2020 15:15:00 25.3 C 11.47 g/m*3 25.3 C 16.1 km/h
1625 22-08-2020 15:20:00 25.4 C 11.06 g/m*3 25.4 C 17.7 km/h
Sensor: Nr:Datum:Temp:Abs-Feuchte:Windchill:Wind:
Aussen-T/F 1626 22-08-2020 15:25:00 25.2 C 11.17 g/m*3 25.2 C 12.9 km/h
1627 22-08-2020 15:30:00 24.9 C 10.99 g/m*3 24.9 C 8.1 km/h
1628 22-08-2020 15:35:00 24.9 C 10.99 g/m*3 24.9 C 19.3 km/h
1629 22-08-2020 15:40:00 25.1 C 10.65 g/m*3 25.1 C 12.9 km/h
1630 22-08-2020 15:45:00 25.6 C 11.19 g/m*3 25.6 C 14.5 km/h
1631 22-08-2020 15:50:00 26.1 C 11.02 g/m*3 26.1 C 14.5 km/h
1632 22-08-2020 15:55:00 26.2 C 10.83 g/m*3 26.2 C 16.1 km/h
1633 22-08-2020 16:00:00 25.9 C 10.41 g/m*3 25.9 C 19.3 km/h
1634 22-08-2020 16:05:00 26.2 C 10.59 g/m*3 26.2 C 24.1 km/h
1635 22-08-2020 16:10:00 26 C 10.96 g/m*3 26 C 14.5 km/h
1636 22-08-2020 16:15:00 26.2 C 10.83 g/m*3 26.2 C 20.9 km/h
1637 22-08-2020 16:20:00 26.2 C 11.32 g/m*3 26.2 C 14.5 km/h
1638 22-08-2020 16:25:00 26.3 C 11.14 g/m*3 26.3 C 19.3 km/h
1639 22-08-2020 16:30:00 26.7 C 10.88 g/m*3 26.7 C 14.5 km/h
1640 22-08-2020 16:35:00 27.1 C 11.13 g/m*3 27.1 C 16.1 km/h
1641 22-08-2020 16:40:00 27.2 C 10.93 g/m*3 27.2 C 17.7 km/h
1642 22-08-2020 16:45:00 27.2 C 10.93 g/m*3 27.2 C 22.5 km/h
1643 22-08-2020 16:50:00 27.2 C 10.93 g/m*3 27.2 C 17.7 km/h
1644 22-08-2020 16:55:00 27.4 C 11.05 g/m*3 27.4 C 25.7 km/h
1645 22-08-2020 17:00:00 27.4 C 11.05 g/m*3 27.4 C 16.1 km/h
1646 22-08-2020 17:05:00 27.4 C 10.79 g/m*3 27.4 C 17.7 km/h
1647 22-08-2020 17:10:00 27.3 C 11.51 g/m*3 27.3 C 12.9 km/h
1648 22-08-2020 17:15:00 27.2 C 10.93 g/m*3 27.2 C 20.9 km/h
1649 22-08-2020 17:20:00 27.1 C 10.61 g/m*3 27.1 C 16.1 km/h
1650 22-08-2020 17:25:00 26.6 C 10.57 g/m*3 26.6 C 17.7 km/h
Sensor: Nr:Datum:Temp:Abs-Feuchte:Windchill:Wind:
Aussen-T/F 1651 22-08-2020 17:30:00 26.4 C 10.46 g/m*3 26.4 C 17.7 km/h
1652 22-08-2020 17:35:00 26.1 C 10.77 g/m*3 26.1 C 9.7 km/h
1653 22-08-2020 17:40:00 25.8 C 10.59 g/m*3 25.8 C 12.9 km/h
1654 22-08-2020 17:45:00 25.6 C 10.95 g/m*3 25.6 C 22.5 km/h
1655 22-08-2020 17:50:00 25.4 C 10.59 g/m*3 25.4 C 19.3 km/h
1656 22-08-2020 17:55:00 25.6 C 10.71 g/m*3 25.6 C 14.5 km/h
1657 22-08-2020 18:00:00 25.7 C 10.77 g/m*3 25.7 C 16.1 km/h
1658 22-08-2020 18:05:00 25.6 C 10.71 g/m*3 25.6 C 19.3 km/h
1659 22-08-2020 18:10:00 25.3 C 10.53 g/m*3 25.3 C 22.5 km/h
1660 22-08-2020 18:15:00 25.2 C 10.71 g/m*3 25.2 C 17.7 km/h
1661 22-08-2020 18:20:00 25.2 C 10.71 g/m*3 25.2 C 20.9 km/h
1662 22-08-2020 18:25:00 25.1 C 10.65 g/m*3 25.1 C 24.1 km/h
1663 22-08-2020 18:30:00 25 C 10.59 g/m*3 25 C 14.5 km/h
1664 22-08-2020 18:35:00 24.8 C 10.47 g/m*3 24.8 C 17.7 km/h
1665 22-08-2020 18:40:00 24.7 C 10.64 g/m*3 24.7 C 14.5 km/h
1666 22-08-2020 18:45:00 24.8 C 11.15 g/m*3 24.8 C 12.9 km/h
1667 22-08-2020 18:50:00 25.2 C 10.71 g/m*3 25.2 C 14.5 km/h
1668 22-08-2020 18:55:00 25.3 C 10.77 g/m*3 25.3 C 8.1 km/h
1669 22-08-2020 19:00:00 25.3 C 11 g/m*3 25.3 C 8.1 km/h
1670 22-08-2020 19:05:00 25.1 C 10.65 g/m*3 25.1 C 12.9 km/h
1671 22-08-2020 19:10:00 24.8 C 10.93 g/m*3 24.8 C 9.7 km/h
1672 22-08-2020 19:15:00 24.6 C 10.8 g/m*3 24.6 C 14.5 km/h
1673 22-08-2020 19:20:00 24.3 C 10.62 g/m*3 24.3 C 11.3 km/h
1674 22-08-2020 19:25:00 24.1 C 10.94 g/m*3 24.1 C 8.1 km/h
1675 22-08-2020 19:30:00 23.8 C 10.97 g/m*3 23.8 C 9.7 km/h
Sensor: Nr:Datum:Temp:Abs-Feuchte:Windchill:Wind:
Aussen-T/F 1676 22-08-2020 19:35:00 23.6 C 11.06 g/m*3 23.6 C 9.7 km/h
1677 22-08-2020 19:40:00 23.4 C 10.93 g/m*3 23.4 C 11.3 km/h
1678 22-08-2020 19:45:00 23.4 C 10.93 g/m*3 23.4 C 12.9 km/h
1679 22-08-2020 19:50:00 23.4 C 11.35 g/m*3 23.4 C 0 km/h
1680 22-08-2020 19:55:00 23.3 C 11.5 g/m*3 23.3 C 0 km/h
1681 22-08-2020 20:00:00 23.3 C 11.71 g/m*3 23.3 C 1.6 km/h
1682 22-08-2020 20:05:00 23.2 C 11.43 g/m*3 23.2 C 0 km/h
1683 22-08-2020 20:10:00 23.1 C 11.37 g/m*3 23.1 C 0 km/h
1684 22-08-2020 20:15:00 23 C 11.72 g/m*3 23 C 0 km/h
1685 22-08-2020 20:20:00 22.8 C 11.18 g/m*3 22.8 C 8.1 km/h
1686 22-08-2020 20:25:00 22.6 C 11.25 g/m*3 22.6 C 4.8 km/h
1687 22-08-2020 20:30:00 22.4 C 11.72 g/m*3 22.4 C 6.4 km/h
1688 22-08-2020 20:35:00 22.2 C 11.39 g/m*3 22.2 C 4.8 km/h
1689 22-08-2020 20:40:00 22.1 C 11.91 g/m*3 22.1 C 4.8 km/h
1690 22-08-2020 20:45:00 21.9 C 11.58 g/m*3 21.9 C 6.4 km/h
1691 22-08-2020 20:50:00 21.8 C 11.51 g/m*3 21.8 C 0 km/h
1692 22-08-2020 20:55:00 21.6 C 11.57 g/m*3 21.6 C 0 km/h
1693 22-08-2020 21:00:00 21.4 C 11.44 g/m*3 21.4 C 4.8 km/h
1694 22-08-2020 21:05:00 21.2 C 11.49 g/m*3 21.2 C 1.6 km/h
1695 22-08-2020 21:10:00 21 C 11.54 g/m*3 21 C 0 km/h
1696 22-08-2020 21:15:00 20.8 C 11.59 g/m*3 20.8 C 0 km/h
1697 22-08-2020 21:20:00 20.6 C 11.45 g/m*3 20.6 C 0 km/h
1698 22-08-2020 21:25:00 20.4 C 11.68 g/m*3 20.4 C 0 km/h
1699 22-08-2020 21:30:00 20.3 C 11.61 g/m*3 20.3 C 0 km/h
1700 22-08-2020 21:35:00 20.2 C 11.71 g/m*3 20.2 C 0 km/h
Sensor: Nr:Datum:Temp:Abs-Feuchte:Windchill:Wind:
Aussen-T/F 1701 22-08-2020 21:40:00 20.2 C 11.71 g/m*3 20.2 C 0 km/h
1702 22-08-2020 21:45:00 20.1 C 11.65 g/m*3 20.1 C 0 km/h
1703 22-08-2020 21:50:00 20.1 C 11.82 g/m*3 20.1 C 0 km/h
1704 22-08-2020 21:55:00 20.1 C 11.99 g/m*3 20.1 C 0 km/h
1705 22-08-2020 22:00:00 20 C 12.1 g/m*3 20 C 0 km/h
1706 22-08-2020 22:05:00 20 C 12.1 g/m*3 20 C 0 km/h
1707 22-08-2020 22:10:00 19.9 C 12.03 g/m*3 19.9 C 0 km/h
1708 22-08-2020 22:15:00 19.9 C 12.2 g/m*3 19.9 C 0 km/h
1709 22-08-2020 22:20:00 19.9 C 12.03 g/m*3 19.9 C 0 km/h
1710 22-08-2020 22:25:00 19.9 C 11.85 g/m*3 19.9 C 0 km/h
1711 22-08-2020 22:30:00 19.8 C 11.96 g/m*3 19.8 C 0 km/h
1712 22-08-2020 22:35:00 19.8 C 11.79 g/m*3 19.8 C 0 km/h
1713 22-08-2020 22:40:00 19.7 C 11.72 g/m*3 19.7 C 0 km/h
1714 22-08-2020 22:45:00 19.6 C 11.65 g/m*3 19.6 C 0 km/h
1715 22-08-2020 22:50:00 19.4 C 11.68 g/m*3 19.4 C 0 km/h
1716 22-08-2020 22:55:00 19.2 C 11.54 g/m*3 19.2 C 0 km/h
1717 22-08-2020 23:00:00 19 C 11.41 g/m*3 19 C 0 km/h
1718 22-08-2020 23:05:00 18.9 C 11.5 g/m*3 18.9 C 0 km/h
1719 22-08-2020 23:10:00 18.7 C 11.53 g/m*3 18.7 C 0 km/h
1720 22-08-2020 23:15:00 18.6 C 11.46 g/m*3 18.6 C 0 km/h
1721 22-08-2020 23:20:00 18.6 C 11.62 g/m*3 18.6 C 0 km/h
1722 22-08-2020 23:25:00 18.5 C 11.71 g/m*3 18.5 C 0 km/h
1723 22-08-2020 23:30:00 18.5 C 11.55 g/m*3 18.5 C 0 km/h
1724 22-08-2020 23:35:00 18.6 C 11.94 g/m*3 18.6 C 0 km/h
1725 22-08-2020 23:40:00 18.6 C 11.94 g/m*3 18.6 C 0 km/h
Sensor: Nr:Datum:Temp:Abs-Feuchte:Windchill:Wind:
Aussen-T/F 1726 22-08-2020 23:45:00 18.6 C 11.94 g/m*3 18.6 C 0 km/h
1727 22-08-2020 23:50:00 18.5 C 11.71 g/m*3 18.5 C 0 km/h
1728 22-08-2020 23:55:00 18.5 C 11.55 g/m*3 18.5 C 0 km/h
1729 23-08-2020 00:00:00 18.5 C 11.71 g/m*3 18.5 C 0 km/h
1730 23-08-2020 00:05:00 18.6 C 11.78 g/m*3 18.6 C 0 km/h
1731 23-08-2020 00:10:00 18.6 C 11.62 g/m*3 18.6 C 0 km/h
1732 23-08-2020 00:15:00 18.6 C 11.62 g/m*3 18.6 C 0 km/h
1733 23-08-2020 00:20:00 18.7 C 11.69 g/m*3 18.7 C 0 km/h
1734 23-08-2020 00:25:00 18.8 C 11.76 g/m*3 18.8 C 0 km/h
1735 23-08-2020 00:30:00 18.8 C 11.6 g/m*3 18.8 C 0 km/h
1736 23-08-2020 00:35:00 18.9 C 11.66 g/m*3 18.9 C 0 km/h
1737 23-08-2020 00:40:00 19 C 11.9 g/m*3 19 C 0 km/h
1738 23-08-2020 00:45:00 19.1 C 11.8 g/m*3 19.1 C 0 km/h
1739 23-08-2020 00:50:00 19.1 C 11.8 g/m*3 19.1 C 0 km/h
1740 23-08-2020 00:55:00 19.1 C 11.97 g/m*3 19.1 C 0 km/h
1741 23-08-2020 01:00:00 19.2 C 12.37 g/m*3 19.2 C 0 km/h
1742 23-08-2020 01:05:00 19.1 C 12.13 g/m*3 19.1 C 0 km/h
1743 23-08-2020 01:10:00 19.1 C 12.13 g/m*3 19.1 C 0 km/h
1744 23-08-2020 01:15:00 19.1 C 12.29 g/m*3 19.1 C 0 km/h
1745 23-08-2020 01:20:00 18.9 C 11.99 g/m*3 18.9 C 0 km/h
1746 23-08-2020 01:25:00 18.9 C 12.15 g/m*3 18.9 C 0 km/h
1747 23-08-2020 01:30:00 18.9 C 11.99 g/m*3 18.9 C 0 km/h
1748 23-08-2020 01:35:00 18.9 C 12.15 g/m*3 18.9 C 0 km/h
1749 23-08-2020 01:40:00 18.8 C 12.08 g/m*3 18.8 C 0 km/h
1750 23-08-2020 01:45:00 18.7 C 12.17 g/m*3 18.7 C 0 km/h
Sensor: Nr:Datum:Temp:Abs-Feuchte:Windchill:Wind:
Aussen-T/F 1751 23-08-2020 01:50:00 18.7 C 12.33 g/m*3 18.7 C 0 km/h
1752 23-08-2020 01:55:00 18.6 C 12.26 g/m*3 18.6 C 0 km/h
1753 23-08-2020 02:00:00 18.6 C 12.41 g/m*3 18.6 C 0 km/h
1754 23-08-2020 02:05:00 18.5 C 12.18 g/m*3 18.5 C 0 km/h
1755 23-08-2020 02:10:00 18.5 C 12.18 g/m*3 18.5 C 0 km/h
1756 23-08-2020 02:15:00 18.4 C 12.27 g/m*3 18.4 C 0 km/h
1757 23-08-2020 02:20:00 18.4 C 12.27 g/m*3 18.4 C 0 km/h
1758 23-08-2020 02:25:00 18.4 C 12.27 g/m*3 18.4 C 0 km/h
1759 23-08-2020 02:30:00 18.3 C 12.35 g/m*3 18.3 C 0 km/h
1760 23-08-2020 02:35:00 18.3 C 12.35 g/m*3 18.3 C 0 km/h
1761 23-08-2020 02:40:00 18.3 C 12.35 g/m*3 18.3 C 0 km/h
1762 23-08-2020 02:45:00 18.3 C 12.51 g/m*3 18.3 C 0 km/h
1763 23-08-2020 02:50:00 18.3 C 12.2 g/m*3 18.3 C 0 km/h
1764 23-08-2020 02:55:00 18.2 C 12.28 g/m*3 18.2 C 0 km/h
1765 23-08-2020 03:00:00 18.2 C 12.12 g/m*3 18.2 C 0 km/h
1766 23-08-2020 03:05:00 18.1 C 12.05 g/m*3 18.1 C 0 km/h
1767 23-08-2020 03:10:00 18 C 12.13 g/m*3 18 C 0 km/h
1768 23-08-2020 03:15:00 17.9 C 12.06 g/m*3 17.9 C 0 km/h
1769 23-08-2020 03:20:00 17.8 C 11.99 g/m*3 17.8 C 0 km/h
1770 23-08-2020 03:25:00 17.7 C 12.07 g/m*3 17.7 C 0 km/h
1771 23-08-2020 03:30:00 17.6 C 12 g/m*3 17.6 C 0 km/h
1772 23-08-2020 03:35:00 17.6 C 12.15 g/m*3 17.6 C 0 km/h
1773 23-08-2020 03:40:00 17.5 C 12.08 g/m*3 17.5 C 0 km/h
1774 23-08-2020 03:45:00 17.4 C 12.15 g/m*3 17.4 C 0 km/h
1775 23-08-2020 03:50:00 17.4 C 12.15 g/m*3 17.4 C 0 km/h
Sensor: Nr:Datum:Temp:Abs-Feuchte:Windchill:Wind:
Aussen-T/F 1776 23-08-2020 03:55:00 17.4 C 12.15 g/m*3 17.4 C 0 km/h
1777 23-08-2020 04:00:00 17.3 C 12.08 g/m*3 17.3 C 0 km/h
1778 23-08-2020 04:05:00 17.3 C 12.08 g/m*3 17.3 C 0 km/h
1779 23-08-2020 04:10:00 17.3 C 12.08 g/m*3 17.3 C 0 km/h
1780 23-08-2020 04:15:00 17.4 C 12.15 g/m*3 17.4 C 0 km/h
1781 23-08-2020 04:20:00 17.3 C 12.08 g/m*3 17.3 C 0 km/h
1782 23-08-2020 04:25:00 17.3 C 12.08 g/m*3 17.3 C 0 km/h
1783 23-08-2020 04:30:00 17.3 C 12.23 g/m*3 17.3 C 0 km/h
1784 23-08-2020 04:35:00 17.3 C 12.08 g/m*3 17.3 C 0 km/h
1785 23-08-2020 04:40:00 17.2 C 12.01 g/m*3 17.2 C 0 km/h
1786 23-08-2020 04:45:00 17.2 C 12.01 g/m*3 17.2 C 0 km/h
1787 23-08-2020 04:50:00 17.2 C 12.15 g/m*3 17.2 C 0 km/h
1788 23-08-2020 04:55:00 17.1 C 11.94 g/m*3 17.1 C 0 km/h
1789 23-08-2020 05:00:00 17.1 C 11.94 g/m*3 17.1 C 0 km/h
1790 23-08-2020 05:05:00 17.1 C 11.94 g/m*3 17.1 C 0 km/h
1791 23-08-2020 05:10:00 17.1 C 11.94 g/m*3 17.1 C 0 km/h
1792 23-08-2020 05:15:00 17.1 C 11.94 g/m*3 17.1 C 0 km/h
1793 23-08-2020 05:20:00 17.2 C 12.01 g/m*3 17.2 C 0 km/h
1794 23-08-2020 05:25:00 17.2 C 12.01 g/m*3 17.2 C 1.6 km/h
1795 23-08-2020 05:30:00 17.2 C 12.01 g/m*3 17.2 C 1.6 km/h
1796 23-08-2020 05:35:00 17.2 C 11.86 g/m*3 17.2 C 0 km/h
1797 23-08-2020 05:40:00 17.2 C 12.01 g/m*3 17.2 C 0 km/h
1798 23-08-2020 05:45:00 17.2 C 12.01 g/m*3 17.2 C 0 km/h
1799 23-08-2020 05:50:00 17.2 C 12.01 g/m*3 17.2 C 0 km/h
1800 23-08-2020 05:55:00 17.2 C 12.01 g/m*3 17.2 C 1.6 km/h
Sensor: Nr:Datum:Temp:Abs-Feuchte:Windchill:Wind:
Aussen-T/F 1801 23-08-2020 06:00:00 17.2 C 12.01 g/m*3 17.2 C 0 km/h
1802 23-08-2020 06:05:00 17.1 C 11.94 g/m*3 17.1 C 1.6 km/h
1803 23-08-2020 06:10:00 17.1 C 11.94 g/m*3 17.1 C 3.2 km/h
1804 23-08-2020 06:15:00 17.1 C 11.94 g/m*3 17.1 C 1.6 km/h
1805 23-08-2020 06:20:00 17.1 C 11.94 g/m*3 17.1 C 3.2 km/h
1806 23-08-2020 06:25:00 17 C 11.87 g/m*3 17 C 3.2 km/h
1807 23-08-2020 06:30:00 16.9 C 11.79 g/m*3 16.9 C 3.2 km/h
1808 23-08-2020 06:35:00 16.9 C 11.79 g/m*3 16.9 C 3.2 km/h
1809 23-08-2020 06:40:00 16.8 C 11.72 g/m*3 16.8 C 0 km/h
1810 23-08-2020 06:45:00 16.7 C 11.65 g/m*3 16.7 C 4.8 km/h
1811 23-08-2020 06:50:00 16.7 C 11.65 g/m*3 16.7 C 0 km/h
1812 23-08-2020 06:55:00 16.6 C 11.58 g/m*3 16.6 C 1.6 km/h
1813 23-08-2020 07:00:00 16.4 C 11.45 g/m*3 16.4 C 3.2 km/h
1814 23-08-2020 07:05:00 16.4 C 11.58 g/m*3 16.4 C 1.6 km/h
1815 23-08-2020 07:10:00 16.3 C 11.65 g/m*3 16.3 C 0 km/h
1816 23-08-2020 07:15:00 16.3 C 11.65 g/m*3 16.3 C 0 km/h
1817 23-08-2020 07:20:00 16.3 C 11.65 g/m*3 16.3 C 1.6 km/h
1818 23-08-2020 07:25:00 16.3 C 11.65 g/m*3 16.3 C 1.6 km/h
1819 23-08-2020 07:30:00 16.3 C 11.65 g/m*3 16.3 C 0 km/h
1820 23-08-2020 07:35:00 16.4 C 11.86 g/m*3 16.4 C 0 km/h
1821 23-08-2020 07:40:00 16.6 C 12.15 g/m*3 16.6 C 0 km/h
1822 23-08-2020 07:45:00 16.7 C 12.22 g/m*3 16.7 C 0 km/h
1823 23-08-2020 07:50:00 16.8 C 12.3 g/m*3 16.8 C 1.6 km/h
1824 23-08-2020 07:55:00 17.1 C 12.52 g/m*3 17.1 C 1.6 km/h
1825 23-08-2020 08:00:00 17.2 C 12.45 g/m*3 17.2 C 1.6 km/h
Sensor: Nr:Datum:Temp:Abs-Feuchte:Windchill:Wind:
Aussen-T/F 1826 23-08-2020 08:05:00 17.3 C 12.67 g/m*3 17.3 C 3.2 km/h
1827 23-08-2020 08:10:00 17.5 C 12.67 g/m*3 17.5 C 3.2 km/h
1828 23-08-2020 08:15:00 17.6 C 12.6 g/m*3 17.6 C 0 km/h
1829 23-08-2020 08:20:00 17.7 C 12.37 g/m*3 17.7 C 1.6 km/h
1830 23-08-2020 08:25:00 17.9 C 12.21 g/m*3 17.9 C 3.2 km/h
1831 23-08-2020 08:30:00 18.2 C 12.28 g/m*3 18.2 C 3.2 km/h
1832 23-08-2020 08:35:00 18.3 C 12.35 g/m*3 18.3 C 1.6 km/h
1833 23-08-2020 08:40:00 18.5 C 12.5 g/m*3 18.5 C 3.2 km/h
1834 23-08-2020 08:45:00 18.6 C 12.41 g/m*3 18.6 C 3.2 km/h
1835 23-08-2020 08:50:00 18.7 C 12.49 g/m*3 18.7 C 3.2 km/h
1836 23-08-2020 08:55:00 18.8 C 12.4 g/m*3 18.8 C 3.2 km/h
1837 23-08-2020 09:00:00 18.8 C 12.56 g/m*3 18.8 C 4.8 km/h
1838 23-08-2020 09:05:00 18.8 C 12.4 g/m*3 18.8 C 3.2 km/h
1839 23-08-2020 09:10:00 18.8 C 12.4 g/m*3 18.8 C 3.2 km/h
1840 23-08-2020 09:15:00 18.8 C 12.56 g/m*3 18.8 C 3.2 km/h
1841 23-08-2020 09:20:00 18.8 C 12.4 g/m*3 18.8 C 4.8 km/h
1842 23-08-2020 09:25:00 18.8 C 12.56 g/m*3 18.8 C 1.6 km/h
1843 23-08-2020 09:30:00 18.8 C 12.4 g/m*3 18.8 C 1.6 km/h
1844 23-08-2020 09:35:00 18.9 C 12.64 g/m*3 18.9 C 3.2 km/h
1845 23-08-2020 09:40:00 19.1 C 12.46 g/m*3 19.1 C 3.2 km/h
1846 23-08-2020 09:45:00 19.2 C 12.53 g/m*3 19.2 C 3.2 km/h
1847 23-08-2020 09:50:00 19.4 C 12.51 g/m*3 19.4 C 6.4 km/h
1848 23-08-2020 09:55:00 19.5 C 12.59 g/m*3 19.5 C 8.1 km/h
1849 23-08-2020 10:00:00 19.7 C 12.57 g/m*3 19.7 C 4.8 km/h
1850 23-08-2020 10:05:00 19.8 C 12.47 g/m*3 19.8 C 9.7 km/h
Sensor: Nr:Datum:Temp:Abs-Feuchte:Windchill:Wind:
Aussen-T/F 1851 23-08-2020 10:10:00 19.9 C 12.2 g/m*3 19.9 C 12.9 km/h
1852 23-08-2020 10:15:00 19.9 C 12.2 g/m*3 19.9 C 12.9 km/h
1853 23-08-2020 10:20:00 20.1 C 11.99 g/m*3 20.1 C 12.9 km/h
1854 23-08-2020 10:25:00 20.2 C 12.06 g/m*3 20.2 C 12.9 km/h
1855 23-08-2020 10:30:00 20.4 C 11.85 g/m*3 20.4 C 9.7 km/h
1856 23-08-2020 10:35:00 20.5 C 11.74 g/m*3 20.5 C 11.3 km/h
1857 23-08-2020 10:40:00 20.4 C 11.32 g/m*3 20.4 C 11.3 km/h
1858 23-08-2020 10:45:00 20.3 C 11.61 g/m*3 20.3 C 14.5 km/h
1859 23-08-2020 10:50:00 20.2 C 11.19 g/m*3 20.2 C 9.7 km/h
1860 23-08-2020 10:55:00 20 C 11.06 g/m*3 20 C 12.9 km/h
1861 23-08-2020 11:00:00 20.1 C 10.95 g/m*3 20.1 C 11.3 km/h
1862 23-08-2020 11:05:00 20.3 C 11.08 g/m*3 20.3 C 14.5 km/h
1863 23-08-2020 11:10:00 20.4 C 10.97 g/m*3 20.4 C 17.7 km/h
1864 23-08-2020 11:15:00 20.5 C 11.21 g/m*3 20.5 C 17.7 km/h
1865 23-08-2020 11:20:00 20.5 C 11.03 g/m*3 20.5 C 16.1 km/h
1866 23-08-2020 11:25:00 20.4 C 10.97 g/m*3 20.4 C 14.5 km/h
1867 23-08-2020 11:30:00 20.3 C 11.08 g/m*3 20.3 C 11.3 km/h
1868 23-08-2020 11:35:00 20.3 C 10.73 g/m*3 20.3 C 19.3 km/h
1869 23-08-2020 11:40:00 20.4 C 10.79 g/m*3 20.4 C 19.3 km/h
1870 23-08-2020 11:45:00 20.4 C 10.97 g/m*3 20.4 C 14.5 km/h
1871 23-08-2020 11:50:00 20.4 C 10.97 g/m*3 20.4 C 11.3 km/h
1872 23-08-2020 11:55:00 20.6 C 10.74 g/m*3 20.6 C 14.5 km/h
1873 23-08-2020 12:00:00 20.6 C 10.92 g/m*3 20.6 C 12.9 km/h
1874 23-08-2020 12:05:00 20.7 C 10.98 g/m*3 20.7 C 16.1 km/h
1875 23-08-2020 12:10:00 20.8 C 11.05 g/m*3 20.8 C 16.1 km/h
Sensor: Nr:Datum:Temp:Abs-Feuchte:Windchill:Wind:
Aussen-T/F 1876 23-08-2020 12:15:00 20.8 C 10.68 g/m*3 20.8 C 14.5 km/h
1877 23-08-2020 12:20:00 20.7 C 10.8 g/m*3 20.7 C 14.5 km/h
1878 23-08-2020 12:25:00 20.6 C 10.74 g/m*3 20.6 C 16.1 km/h
1879 23-08-2020 12:30:00 20.6 C 10.56 g/m*3 20.6 C 17.7 km/h
1880 23-08-2020 12:35:00 20.7 C 10.44 g/m*3 20.7 C 16.1 km/h
1881 23-08-2020 12:40:00 20.8 C 10.86 g/m*3 20.8 C 11.3 km/h
1882 23-08-2020 12:45:00 21.1 C 10.87 g/m*3 21.1 C 14.5 km/h
1883 23-08-2020 12:50:00 21.2 C 10.56 g/m*3 21.2 C 19.3 km/h
1884 23-08-2020 12:55:00 21.3 C 10.81 g/m*3 21.3 C 16.1 km/h
1885 23-08-2020 13:00:00 21.2 C 10.19 g/m*3 21.2 C 20.9 km/h
1886 23-08-2020 13:05:00 20.9 C 10.02 g/m*3 20.9 C 17.7 km/h
1887 23-08-2020 13:10:00 20.7 C 10.08 g/m*3 20.7 C 12.9 km/h
1888 23-08-2020 13:15:00 20.8 C 10.14 g/m*3 20.8 C 11.3 km/h
1889 23-08-2020 13:20:00 21.1 C 10.32 g/m*3 21.1 C 12.9 km/h
1890 23-08-2020 13:25:00 21.3 C 10.07 g/m*3 21.3 C 12.9 km/h
1891 23-08-2020 13:30:00 21.4 C 9.94 g/m*3 21.4 C 14.5 km/h
1892 23-08-2020 13:35:00 21.3 C 9.88 g/m*3 21.3 C 17.7 km/h
1893 23-08-2020 13:40:00 21.1 C 9.58 g/m*3 21.1 C 11.3 km/h
1894 23-08-2020 13:45:00 21.1 C 9.58 g/m*3 21.1 C 9.7 km/h
1895 23-08-2020 13:50:00 21.4 C 9.75 g/m*3 21.4 C 17.7 km/h
1896 23-08-2020 13:55:00 21.8 C 9.98 g/m*3 21.8 C 20.9 km/h
1897 23-08-2020 14:00:00 21.8 C 9.59 g/m*3 21.8 C 17.7 km/h
1898 23-08-2020 14:05:00 22.1 C 9.56 g/m*3 22.1 C 22.5 km/h
1899 23-08-2020 14:10:00 22.2 C 9.82 g/m*3 22.2 C 22.5 km/h
1900 23-08-2020 14:15:00 22.2 C 9.62 g/m*3 22.2 C 12.9 km/h
Sensor: Nr:Datum:Temp:Abs-Feuchte:Windchill:Wind:
Aussen-T/F 1901 23-08-2020 14:20:00 22.1 C 9.37 g/m*3 22.1 C 17.7 km/h
1902 23-08-2020 14:25:00 22.2 C 9.62 g/m*3 22.2 C 9.7 km/h
1903 23-08-2020 14:30:00 22.2 C 9.62 g/m*3 22.2 C 12.9 km/h
1904 23-08-2020 14:35:00 22.1 C 9.56 g/m*3 22.1 C 14.5 km/h
1905 23-08-2020 14:40:00 22 C 9.51 g/m*3 22 C 11.3 km/h
1906 23-08-2020 14:45:00 22 C 9.7 g/m*3 22 C 16.1 km/h
1907 23-08-2020 14:50:00 22.1 C 9.76 g/m*3 22.1 C 12.9 km/h
1908 23-08-2020 14:55:00 22.2 C 9.42 g/m*3 22.2 C 16.1 km/h
1909 23-08-2020 15:00:00 22.2 C 9.62 g/m*3 22.2 C 12.9 km/h
1910 23-08-2020 15:05:00 22.3 C 9.87 g/m*3 22.3 C 12.9 km/h
1911 23-08-2020 15:10:00 22.2 C 10.01 g/m*3 22.2 C 12.9 km/h
1912 23-08-2020 15:15:00 22.1 C 9.76 g/m*3 22.1 C 17.7 km/h
1913 23-08-2020 15:20:00 22.1 C 9.56 g/m*3 22.1 C 17.7 km/h
1914 23-08-2020 15:25:00 22.1 C 9.76 g/m*3 22.1 C 14.5 km/h
1915 23-08-2020 15:30:00 22.2 C 9.62 g/m*3 22.2 C 16.1 km/h
1916 23-08-2020 15:35:00 22.2 C 10.01 g/m*3 22.2 C 16.1 km/h
1917 23-08-2020 15:40:00 22.2 C 10.21 g/m*3 22.2 C 14.5 km/h
1918 23-08-2020 15:45:00 22.3 C 9.68 g/m*3 22.3 C 19.3 km/h
1919 23-08-2020 15:50:00 22.2 C 9.82 g/m*3 22.2 C 19.3 km/h
1920 23-08-2020 15:55:00 22.3 C 9.68 g/m*3 22.3 C 16.1 km/h
1921 23-08-2020 16:00:00 22.3 C 10.07 g/m*3 22.3 C 8.1 km/h
1922 23-08-2020 16:05:00 22.7 C 9.9 g/m*3 22.7 C 16.1 km/h
1923 23-08-2020 16:10:00 22.9 C 10.01 g/m*3 22.9 C 9.7 km/h
1924 23-08-2020 16:15:00 23.1 C 10.13 g/m*3 23.1 C 19.3 km/h
1925 23-08-2020 16:20:00 22.9 C 9.61 g/m*3 22.9 C 14.5 km/h
Sensor: Nr:Datum:Temp:Abs-Feuchte:Windchill:Wind:
Aussen-T/F 1926 23-08-2020 16:25:00 22.7 C 9.7 g/m*3 22.7 C 14.5 km/h
1927 23-08-2020 16:30:00 22.3 C 9.68 g/m*3 22.3 C 12.9 km/h
1928 23-08-2020 16:35:00 22.1 C 9.56 g/m*3 22.1 C 12.9 km/h
1929 23-08-2020 16:40:00 21.9 C 9.65 g/m*3 21.9 C 9.7 km/h
1930 23-08-2020 16:45:00 21.8 C 9.59 g/m*3 21.8 C 12.9 km/h
1931 23-08-2020 16:50:00 21.7 C 9.73 g/m*3 21.7 C 14.5 km/h
1932 23-08-2020 16:55:00 21.7 C 9.73 g/m*3 21.7 C 17.7 km/h
1933 23-08-2020 17:00:00 21.7 C 9.73 g/m*3 21.7 C 17.7 km/h
1934 23-08-2020 17:05:00 21.6 C 9.67 g/m*3 21.6 C 20.9 km/h
1935 23-08-2020 17:10:00 21.7 C 9.92 g/m*3 21.7 C 12.9 km/h
1936 23-08-2020 17:15:00 21.8 C 9.98 g/m*3 21.8 C 14.5 km/h
1937 23-08-2020 17:20:00 21.9 C 10.03 g/m*3 21.9 C 16.1 km/h
1938 23-08-2020 17:25:00 22 C 10.09 g/m*3 22 C 11.3 km/h
1939 23-08-2020 17:30:00 21.9 C 10.03 g/m*3 21.9 C 9.7 km/h
1940 23-08-2020 17:35:00 21.9 C 10.03 g/m*3 21.9 C 11.3 km/h
1941 23-08-2020 17:40:00 21.9 C 10.03 g/m*3 21.9 C 4.8 km/h
1942 23-08-2020 17:45:00 22 C 10.29 g/m*3 22 C 11.3 km/h
1943 23-08-2020 17:50:00 21.9 C 10.23 g/m*3 21.9 C 11.3 km/h
1944 23-08-2020 17:55:00 21.7 C 10.3 g/m*3 21.7 C 16.1 km/h
1945 23-08-2020 18:00:00 21.5 C 10.37 g/m*3 21.5 C 16.1 km/h
1946 23-08-2020 18:05:00 21.3 C 10.25 g/m*3 21.3 C 14.5 km/h
1947 23-08-2020 18:10:00 21.2 C 10.56 g/m*3 21.2 C 19.3 km/h
1948 23-08-2020 18:15:00 21 C 10.62 g/m*3 21 C 16.1 km/h
1949 23-08-2020 18:20:00 20.9 C 10.56 g/m*3 20.9 C 17.7 km/h
1950 23-08-2020 18:25:00 20.8 C 10.68 g/m*3 20.8 C 9.7 km/h
Sensor: Nr:Datum:Temp:Abs-Feuchte:Windchill:Wind:
Aussen-T/F 1951 23-08-2020 18:30:00 20.6 C 10.74 g/m*3 20.6 C 12.9 km/h
1952 23-08-2020 18:35:00 20.4 C 10.79 g/m*3 20.4 C 17.7 km/h
1953 23-08-2020 18:40:00 20.2 C 11.02 g/m*3 20.2 C 14.5 km/h
1954 23-08-2020 18:45:00 19.9 C 11 g/m*3 19.9 C 22.5 km/h
1955 23-08-2020 18:50:00 19.8 C 11.1 g/m*3 19.8 C 16.1 km/h
1956 23-08-2020 18:55:00 19.7 C 11.21 g/m*3 19.7 C 11.3 km/h
1957 23-08-2020 19:00:00 19.6 C 11.14 g/m*3 19.6 C 16.1 km/h
1958 23-08-2020 19:05:00 19.4 C 11.18 g/m*3 19.4 C 9.7 km/h
1959 23-08-2020 19:10:00 19.2 C 11.21 g/m*3 19.2 C 16.1 km/h
1960 23-08-2020 19:15:00 19 C 11.41 g/m*3 19 C 11.3 km/h
1961 23-08-2020 19:20:00 18.9 C 11.5 g/m*3 18.9 C 11.3 km/h
1962 23-08-2020 19:25:00 18.8 C 11.6 g/m*3 18.8 C 11.3 km/h
1963 23-08-2020 19:30:00 18.8 C 11.6 g/m*3 18.8 C 19.3 km/h
1964 23-08-2020 19:35:00 18.8 C 11.76 g/m*3 18.8 C 11.3 km/h
1965 23-08-2020 19:40:00 18.7 C 11.69 g/m*3 18.7 C 16.1 km/h
1966 23-08-2020 19:45:00 18.7 C 11.69 g/m*3 18.7 C 8.1 km/h
1967 23-08-2020 19:50:00 18.6 C 11.78 g/m*3 18.6 C 9.7 km/h
1968 23-08-2020 19:55:00 18.6 C 11.78 g/m*3 18.6 C 8.1 km/h
1969 23-08-2020 20:00:00 18.5 C 11.71 g/m*3 18.5 C 11.3 km/h
1970 23-08-2020 20:05:00 18.4 C 11.64 g/m*3 18.4 C 11.3 km/h
1971 23-08-2020 20:10:00 18.4 C 11.64 g/m*3 18.4 C 9.7 km/h
1972 23-08-2020 20:15:00 18.3 C 11.57 g/m*3 18.3 C 4.8 km/h
1973 23-08-2020 20:20:00 18.3 C 11.57 g/m*3 18.3 C 8.1 km/h
1974 23-08-2020 20:25:00 18.2 C 11.5 g/m*3 18.2 C 9.7 km/h
1975 23-08-2020 20:30:00 18.2 C 11.66 g/m*3 18.2 C 8.1 km/h
Sensor: Nr:Datum:Temp:Abs-Feuchte:Windchill:Wind:
Aussen-T/F 1976 23-08-2020 20:35:00 18.2 C 11.5 g/m*3 18.2 C 16.1 km/h
1977 23-08-2020 20:40:00 18.2 C 11.5 g/m*3 18.2 C 14.5 km/h
1978 23-08-2020 20:45:00 18.2 C 11.66 g/m*3 18.2 C 11.3 km/h
1979 23-08-2020 20:50:00 18.2 C 11.66 g/m*3 18.2 C 9.7 km/h
1980 23-08-2020 20:55:00 18.1 C 11.59 g/m*3 18.1 C 9.7 km/h
1981 23-08-2020 21:00:00 18.1 C 11.59 g/m*3 18.1 C 11.3 km/h
1982 23-08-2020 21:05:00 18.1 C 11.59 g/m*3 18.1 C 19.3 km/h
1983 23-08-2020 21:10:00 18.1 C 11.59 g/m*3 18.1 C 11.3 km/h
1984 23-08-2020 21:15:00 18 C 11.52 g/m*3 18 C 9.7 km/h
1985 23-08-2020 21:20:00 17.9 C 11.45 g/m*3 17.9 C 16.1 km/h
1986 23-08-2020 21:25:00 17.9 C 11.45 g/m*3 17.9 C 11.3 km/h
1987 23-08-2020 21:30:00 17.9 C 11.45 g/m*3 17.9 C 11.3 km/h
1988 23-08-2020 21:35:00 17.9 C 11.45 g/m*3 17.9 C 9.7 km/h
1989 23-08-2020 21:40:00 17.8 C 11.54 g/m*3 17.8 C 8.1 km/h
1990 23-08-2020 21:45:00 17.8 C 11.54 g/m*3 17.8 C 8.1 km/h
1991 23-08-2020 21:50:00 17.7 C 11.47 g/m*3 17.7 C 8.1 km/h
1992 23-08-2020 21:55:00 17.7 C 11.47 g/m*3 17.7 C 12.9 km/h
1993 23-08-2020 22:00:00 17.6 C 11.4 g/m*3 17.6 C 14.5 km/h
1994 23-08-2020 22:05:00 17.6 C 11.4 g/m*3 17.6 C 14.5 km/h
1995 23-08-2020 22:10:00 17.6 C 11.4 g/m*3 17.6 C 16.1 km/h
1996 23-08-2020 22:15:00 17.6 C 11.4 g/m*3 17.6 C 11.3 km/h
1997 23-08-2020 22:20:00 17.6 C 11.55 g/m*3 17.6 C 6.4 km/h
1998 23-08-2020 22:25:00 17.6 C 11.55 g/m*3 17.6 C 12.9 km/h
1999 23-08-2020 22:30:00 17.6 C 11.55 g/m*3 17.6 C 8.1 km/h
2000 23-08-2020 22:35:00 17.5 C 11.48 g/m*3 17.5 C 8.1 km/h
Sensor: Nr:Datum:Temp:Abs-Feuchte:Windchill:Wind:
Aussen-T/F 2001 23-08-2020 22:40:00 17.4 C 11.41 g/m*3 17.4 C 8.1 km/h
2002 23-08-2020 22:45:00 17.4 C 11.56 g/m*3 17.4 C 4.8 km/h
2003 23-08-2020 22:50:00 17.3 C 11.49 g/m*3 17.3 C 11.3 km/h
2004 23-08-2020 22:55:00 17.3 C 11.49 g/m*3 17.3 C 6.4 km/h
2005 23-08-2020 23:00:00 17.2 C 11.42 g/m*3 17.2 C 6.4 km/h
2006 23-08-2020 23:05:00 17.2 C 11.42 g/m*3 17.2 C 4.8 km/h
2007 23-08-2020 23:10:00 17.1 C 11.5 g/m*3 17.1 C 12.9 km/h
2008 23-08-2020 23:15:00 17.1 C 11.5 g/m*3 17.1 C 6.4 km/h
2009 23-08-2020 23:20:00 17 C 11.43 g/m*3 17 C 4.8 km/h
2010 23-08-2020 23:25:00 16.9 C 11.36 g/m*3 16.9 C 8.1 km/h
2011 23-08-2020 23:30:00 16.8 C 11.29 g/m*3 16.8 C 4.8 km/h
2012 23-08-2020 23:35:00 16.8 C 11.29 g/m*3 16.8 C 4.8 km/h
2013 23-08-2020 23:40:00 16.7 C 11.37 g/m*3 16.7 C 4.8 km/h
2014 23-08-2020 23:45:00 16.7 C 11.37 g/m*3 16.7 C 8.1 km/h
2015 23-08-2020 23:50:00 16.7 C 11.37 g/m*3 16.7 C 11.3 km/h
2016 23-08-2020 23:55:00 16.8 C 11.44 g/m*3 16.8 C 8.1 km/h
2017 24-08-2020 00:00:00 16.8 C 11.29 g/m*3 16.8 C 9.7 km/h
2018 24-08-2020 00:05:00 16.9 C 11.36 g/m*3 16.9 C 4.8 km/h
2019 24-08-2020 00:10:00 16.9 C 11.36 g/m*3 16.9 C 1.6 km/h
2020 24-08-2020 00:15:00 16.9 C 11.36 g/m*3 16.9 C 4.8 km/h
2021 24-08-2020 00:20:00 16.9 C 11.36 g/m*3 16.9 C 6.4 km/h
2022 24-08-2020 00:25:00 16.9 C 11.36 g/m*3 16.9 C 8.1 km/h
2023 24-08-2020 00:30:00 16.9 C 11.36 g/m*3 16.9 C 4.8 km/h
2024 24-08-2020 00:35:00 16.9 C 11.36 g/m*3 16.9 C 4.8 km/h
2025 24-08-2020 00:40:00 16.9 C 11.36 g/m*3 16.9 C 0 km/h
Sensor: Nr:Datum:Temp:Abs-Feuchte:Windchill:Wind:
Aussen-T/F 2026 24-08-2020 00:45:00 16.8 C 11.29 g/m*3 16.8 C 0 km/h
2027 24-08-2020 00:50:00 16.8 C 11.29 g/m*3 16.8 C 4.8 km/h
2028 24-08-2020 00:55:00 16.7 C 11.23 g/m*3 16.7 C 4.8 km/h
2029 24-08-2020 01:00:00 16.7 C 11.37 g/m*3 16.7 C 0 km/h
2030 24-08-2020 01:05:00 16.6 C 11.3 g/m*3 16.6 C 1.6 km/h
2031 24-08-2020 01:10:00 16.5 C 11.37 g/m*3 16.5 C 0 km/h
2032 24-08-2020 01:15:00 16.5 C 11.37 g/m*3 16.5 C 0 km/h
2033 24-08-2020 01:20:00 16.4 C 11.31 g/m*3 16.4 C 3.2 km/h
2034 24-08-2020 01:25:00 16.4 C 11.31 g/m*3 16.4 C 0 km/h
2035 24-08-2020 01:30:00 16.4 C 11.45 g/m*3 16.4 C 1.6 km/h
2036 24-08-2020 01:35:00 16.4 C 11.31 g/m*3 16.4 C 6.4 km/h
2037 24-08-2020 01:40:00 16.3 C 11.38 g/m*3 16.3 C 4.8 km/h
2038 24-08-2020 01:45:00 16.3 C 11.38 g/m*3 16.3 C 4.8 km/h
2039 24-08-2020 01:50:00 16.3 C 11.38 g/m*3 16.3 C 3.2 km/h
2040 24-08-2020 01:55:00 16.3 C 11.38 g/m*3 16.3 C 4.8 km/h
2041 24-08-2020 02:00:00 16.4 C 11.45 g/m*3 16.4 C 3.2 km/h
2042 24-08-2020 02:05:00 16.4 C 11.45 g/m*3 16.4 C 8.1 km/h
2043 24-08-2020 02:10:00 16.4 C 11.45 g/m*3 16.4 C 6.4 km/h
2044 24-08-2020 02:15:00 16.4 C 11.45 g/m*3 16.4 C 1.6 km/h
2045 24-08-2020 02:20:00 16.5 C 11.51 g/m*3 16.5 C 4.8 km/h
2046 24-08-2020 02:25:00 16.5 C 11.51 g/m*3 16.5 C 3.2 km/h
2047 24-08-2020 02:30:00 16.5 C 11.51 g/m*3 16.5 C 4.8 km/h
2048 24-08-2020 02:35:00 16.5 C 11.37 g/m*3 16.5 C 4.8 km/h
2049 24-08-2020 02:40:00 16.6 C 11.44 g/m*3 16.6 C 6.4 km/h
2050 24-08-2020 02:45:00 16.6 C 11.44 g/m*3 16.6 C 3.2 km/h
Sensor: Nr:Datum:Temp:Abs-Feuchte:Windchill:Wind:
Aussen-T/F 2051 24-08-2020 02:50:00 16.6 C 11.44 g/m*3 16.6 C 3.2 km/h
2052 24-08-2020 02:55:00 16.6 C 11.44 g/m*3 16.6 C 3.2 km/h
2053 24-08-2020 03:00:00 16.6 C 11.44 g/m*3 16.6 C 1.6 km/h
2054 24-08-2020 03:05:00 16.6 C 11.44 g/m*3 16.6 C 0 km/h
2055 24-08-2020 03:10:00 16.6 C 11.44 g/m*3 16.6 C 0 km/h
2056 24-08-2020 03:15:00 16.5 C 11.51 g/m*3 16.5 C 1.6 km/h
2057 24-08-2020 03:20:00 16.4 C 11.45 g/m*3 16.4 C 0 km/h
2058 24-08-2020 03:25:00 16.4 C 11.45 g/m*3 16.4 C 1.6 km/h
2059 24-08-2020 03:30:00 16.4 C 11.45 g/m*3 16.4 C 1.6 km/h
2060 24-08-2020 03:35:00 16.4 C 11.45 g/m*3 16.4 C 0 km/h
2061 24-08-2020 03:40:00 16.3 C 11.38 g/m*3 16.3 C 0 km/h
2062 24-08-2020 03:45:00 16.3 C 11.38 g/m*3 16.3 C 4.8 km/h
2063 24-08-2020 03:50:00 16.3 C 11.52 g/m*3 16.3 C 0 km/h
2064 24-08-2020 03:55:00 16.2 C 11.45 g/m*3 16.2 C 0 km/h
2065 24-08-2020 04:00:00 16.2 C 11.45 g/m*3 16.2 C 0 km/h
2066 24-08-2020 04:05:00 16.2 C 11.45 g/m*3 16.2 C 3.2 km/h
2067 24-08-2020 04:10:00 16.2 C 11.45 g/m*3 16.2 C 4.8 km/h
2068 24-08-2020 04:15:00 16.3 C 11.38 g/m*3 16.3 C 9.7 km/h
2069 24-08-2020 04:20:00 16.3 C 11.38 g/m*3 16.3 C 0 km/h
2070 24-08-2020 04:25:00 16.3 C 11.38 g/m*3 16.3 C 1.6 km/h
2071 24-08-2020 04:30:00 16.3 C 11.38 g/m*3 16.3 C 6.4 km/h
2072 24-08-2020 04:35:00 16.3 C 11.38 g/m*3 16.3 C 3.2 km/h
2073 24-08-2020 04:40:00 16.3 C 11.38 g/m*3 16.3 C 3.2 km/h
2074 24-08-2020 04:45:00 16.3 C 11.38 g/m*3 16.3 C 3.2 km/h
2075 24-08-2020 04:50:00 16.3 C 11.38 g/m*3 16.3 C 4.8 km/h
Sensor: Nr:Datum:Temp:Abs-Feuchte:Windchill:Wind:
Aussen-T/F 2076 24-08-2020 04:55:00 16.3 C 11.38 g/m*3 16.3 C 4.8 km/h
2077 24-08-2020 05:00:00 16.3 C 11.38 g/m*3 16.3 C 1.6 km/h
2078 24-08-2020 05:05:00 16.3 C 11.38 g/m*3 16.3 C 4.8 km/h
2079 24-08-2020 05:10:00 16.2 C 11.31 g/m*3 16.2 C 1.6 km/h
2080 24-08-2020 05:15:00 16.2 C 11.31 g/m*3 16.2 C 0 km/h
2081 24-08-2020 05:20:00 16.1 C 11.24 g/m*3 16.1 C 1.6 km/h
2082 24-08-2020 05:25:00 16.1 C 11.24 g/m*3 16.1 C 3.2 km/h
2083 24-08-2020 05:30:00 16 C 11.17 g/m*3 16 C 3.2 km/h
2084 24-08-2020 05:35:00 15.9 C 11.24 g/m*3 15.9 C 3.2 km/h
2085 24-08-2020 05:40:00 15.9 C 11.24 g/m*3 15.9 C 3.2 km/h
2086 24-08-2020 05:45:00 15.8 C 11.17 g/m*3 15.8 C 6.4 km/h
2087 24-08-2020 05:50:00 15.8 C 11.17 g/m*3 15.8 C 3.2 km/h
2088 24-08-2020 05:55:00 15.8 C 11.17 g/m*3 15.8 C 3.2 km/h
2089 24-08-2020 06:00:00 15.8 C 11.17 g/m*3 15.8 C 3.2 km/h
2090 24-08-2020 06:05:00 15.7 C 11.11 g/m*3 15.7 C 6.4 km/h
2091 24-08-2020 06:10:00 15.7 C 11.24 g/m*3 15.7 C 1.6 km/h
2092 24-08-2020 06:15:00 15.7 C 11.24 g/m*3 15.7 C 4.8 km/h
2093 24-08-2020 06:20:00 15.7 C 11.24 g/m*3 15.7 C 0 km/h
2094 24-08-2020 06:25:00 15.7 C 11.24 g/m*3 15.7 C 4.8 km/h
2095 24-08-2020 06:30:00 15.7 C 11.24 g/m*3 15.7 C 4.8 km/h
2096 24-08-2020 06:35:00 15.7 C 11.24 g/m*3 15.7 C 3.2 km/h
2097 24-08-2020 06:40:00 15.7 C 11.24 g/m*3 15.7 C 3.2 km/h
2098 24-08-2020 06:45:00 15.6 C 11.17 g/m*3 15.6 C 3.2 km/h
2099 24-08-2020 06:50:00 15.5 C 11.1 g/m*3 15.5 C 3.2 km/h
2100 24-08-2020 06:55:00 15.4 C 11.04 g/m*3 15.4 C 1.6 km/h
Sensor: Nr:Datum:Temp:Abs-Feuchte:Windchill:Wind:
Aussen-T/F 2101 24-08-2020 07:00:00 15.3 C 10.97 g/m*3 15.3 C 4.8 km/h
2102 24-08-2020 07:05:00 15.2 C 11.03 g/m*3 15.2 C 9.7 km/h
2103 24-08-2020 07:10:00 15.1 C 10.97 g/m*3 15.1 C 4.8 km/h
2104 24-08-2020 07:15:00 15 C 10.9 g/m*3 15 C 1.6 km/h
2105 24-08-2020 07:20:00 14.9 C 10.83 g/m*3 14.9 C 1.6 km/h
2106 24-08-2020 07:25:00 14.9 C 10.96 g/m*3 14.9 C 3.2 km/h
2107 24-08-2020 07:30:00 14.8 C 10.89 g/m*3 14.8 C 4.8 km/h
2108 24-08-2020 07:35:00 14.7 C 10.83 g/m*3 14.7 C 3.2 km/h
2109 24-08-2020 07:40:00 14.7 C 10.83 g/m*3 14.7 C 4.8 km/h
2110 24-08-2020 07:45:00 14.7 C 10.83 g/m*3 14.7 C 1.6 km/h
2111 24-08-2020 07:50:00 14.6 C 10.76 g/m*3 14.6 C 0 km/h
2112 24-08-2020 07:55:00 14.6 C 10.76 g/m*3 14.6 C 1.6 km/h
2113 24-08-2020 08:00:00 14.5 C 10.7 g/m*3 14.5 C 4.8 km/h
2114 24-08-2020 08:05:00 14.5 C 10.7 g/m*3 14.5 C 0 km/h
2115 24-08-2020 08:10:00 14.5 C 10.7 g/m*3 14.5 C 3.2 km/h
2116 24-08-2020 08:15:00 14.5 C 10.7 g/m*3 14.5 C 3.2 km/h
2117 24-08-2020 08:20:00 14.6 C 10.89 g/m*3 14.6 C 4.8 km/h
2118 24-08-2020 08:25:00 14.6 C 10.76 g/m*3 14.6 C 6.4 km/h
2119 24-08-2020 08:30:00 14.7 C 10.7 g/m*3 14.7 C 4.8 km/h
2120 24-08-2020 08:35:00 14.8 C 10.64 g/m*3 14.8 C 6.4 km/h
2121 24-08-2020 08:40:00 14.9 C 10.58 g/m*3 14.9 C 1.6 km/h
2122 24-08-2020 08:45:00 15 C 10.64 g/m*3 15 C 4.8 km/h
2123 24-08-2020 08:50:00 15.2 C 10.64 g/m*3 15.2 C 12.9 km/h
2124 24-08-2020 08:55:00 15.4 C 10.77 g/m*3 15.4 C 8.1 km/h
2125 24-08-2020 09:00:00 15.6 C 10.77 g/m*3 15.6 C 9.7 km/h
Sensor: Nr:Datum:Temp:Abs-Feuchte:Windchill:Wind:
Aussen-T/F 2126 24-08-2020 09:05:00 15.8 C 10.77 g/m*3 15.8 C 8.1 km/h
2127 24-08-2020 09:10:00 15.9 C 10.83 g/m*3 15.9 C 14.5 km/h
2128 24-08-2020 09:15:00 16.1 C 10.83 g/m*3 16.1 C 14.5 km/h
2129 24-08-2020 09:20:00 16.2 C 10.76 g/m*3 16.2 C 16.1 km/h
2130 24-08-2020 09:25:00 16.3 C 10.96 g/m*3 16.3 C 11.3 km/h
2131 24-08-2020 09:30:00 16.4 C 10.89 g/m*3 16.4 C 12.9 km/h
2132 24-08-2020 09:35:00 16.6 C 11.02 g/m*3 16.6 C 8.1 km/h
2133 24-08-2020 09:40:00 16.6 C 11.02 g/m*3 16.6 C 20.9 km/h
2134 24-08-2020 09:45:00 16.7 C 10.94 g/m*3 16.7 C 20.9 km/h
2135 24-08-2020 09:50:00 16.8 C 11.01 g/m*3 16.8 C 14.5 km/h
2136 24-08-2020 09:55:00 16.9 C 10.93 g/m*3 16.9 C 16.1 km/h
2137 24-08-2020 10:00:00 17.1 C 10.92 g/m*3 17.1 C 17.7 km/h
2138 24-08-2020 10:05:00 17.2 C 10.98 g/m*3 17.2 C 9.7 km/h
2139 24-08-2020 10:10:00 17.5 C 11.03 g/m*3 17.5 C 14.5 km/h
2140 24-08-2020 10:15:00 17.7 C 11.32 g/m*3 17.7 C 12.9 km/h
2141 24-08-2020 10:20:00 17.8 C 11.23 g/m*3 17.8 C 9.7 km/h
2142 24-08-2020 10:25:00 17.9 C 10.99 g/m*3 17.9 C 9.7 km/h
2143 24-08-2020 10:30:00 18 C 11.06 g/m*3 18 C 12.9 km/h
2144 24-08-2020 10:35:00 18.1 C 11.12 g/m*3 18.1 C 9.7 km/h
2145 24-08-2020 10:40:00 18.2 C 10.72 g/m*3 18.2 C 12.9 km/h
2146 24-08-2020 10:45:00 18.3 C 10.79 g/m*3 18.3 C 12.9 km/h
2147 24-08-2020 10:50:00 18.4 C 10.85 g/m*3 18.4 C 17.7 km/h
2148 24-08-2020 10:55:00 18.4 C 10.85 g/m*3 18.4 C 12.9 km/h
2149 24-08-2020 11:00:00 18.5 C 10.92 g/m*3 18.5 C 14.5 km/h
2150 24-08-2020 11:05:00 18.6 C 11.14 g/m*3 18.6 C 11.3 km/h
Sensor: Nr:Datum:Temp:Abs-Feuchte:Windchill:Wind:
Aussen-T/F 2151 24-08-2020 11:10:00 18.8 C 10.95 g/m*3 18.8 C 11.3 km/h
2152 24-08-2020 11:15:00 18.9 C 10.85 g/m*3 18.9 C 16.1 km/h
2153 24-08-2020 11:20:00 18.9 C 10.85 g/m*3 18.9 C 12.9 km/h
2154 24-08-2020 11:25:00 18.8 C 10.79 g/m*3 18.8 C 11.3 km/h
2155 24-08-2020 11:30:00 18.9 C 10.85 g/m*3 18.9 C 11.3 km/h
2156 24-08-2020 11:35:00 18.9 C 10.85 g/m*3 18.9 C 14.5 km/h
2157 24-08-2020 11:40:00 19.1 C 10.98 g/m*3 19.1 C 14.5 km/h
2158 24-08-2020 11:45:00 19.1 C 10.98 g/m*3 19.1 C 14.5 km/h
2159 24-08-2020 11:50:00 19.2 C 10.88 g/m*3 19.2 C 14.5 km/h
2160 24-08-2020 11:55:00 19.1 C 10.82 g/m*3 19.1 C 17.7 km/h
2161 24-08-2020 12:00:00 19.1 C 10.98 g/m*3 19.1 C 6.4 km/h
2162 24-08-2020 12:05:00 19.3 C 11.28 g/m*3 19.3 C 6.4 km/h
2163 24-08-2020 12:10:00 19.4 C 11.18 g/m*3 19.4 C 14.5 km/h
2164 24-08-2020 12:15:00 19.5 C 11.24 g/m*3 19.5 C 9.7 km/h
2165 24-08-2020 12:20:00 19.4 C 10.84 g/m*3 19.4 C 14.5 km/h
2166 24-08-2020 12:25:00 19.3 C 11.11 g/m*3 19.3 C 9.7 km/h
2167 24-08-2020 12:30:00 19.4 C 11.35 g/m*3 19.4 C 8.1 km/h
2168 24-08-2020 12:35:00 19.4 C 11.18 g/m*3 19.4 C 17.7 km/h
2169 24-08-2020 12:40:00 19.4 C 11.01 g/m*3 19.4 C 9.7 km/h
2170 24-08-2020 12:45:00 19.5 C 10.91 g/m*3 19.5 C 9.7 km/h
2171 24-08-2020 12:50:00 19.6 C 10.97 g/m*3 19.6 C 8.1 km/h
2172 24-08-2020 12:55:00 19.7 C 11.04 g/m*3 19.7 C 11.3 km/h
2173 24-08-2020 13:00:00 19.8 C 11.1 g/m*3 19.8 C 8.1 km/h
2174 24-08-2020 13:05:00 20.1 C 10.95 g/m*3 20.1 C 9.7 km/h
2175 24-08-2020 13:10:00 20.2 C 11.19 g/m*3 20.2 C 9.7 km/h
Sensor: Nr:Datum:Temp:Abs-Feuchte:Windchill:Wind:
Aussen-T/F 2176 24-08-2020 13:15:00 20.1 C 10.95 g/m*3 20.1 C 14.5 km/h
2177 24-08-2020 13:20:00 20 C 10.89 g/m*3 20 C 11.3 km/h
2178 24-08-2020 13:25:00 20.1 C 10.95 g/m*3 20.1 C 12.9 km/h
2179 24-08-2020 13:30:00 19.9 C 11 g/m*3 19.9 C 9.7 km/h
2180 24-08-2020 13:35:00 19.8 C 10.76 g/m*3 19.8 C 11.3 km/h
2181 24-08-2020 13:40:00 19.5 C 11.08 g/m*3 19.5 C 16.1 km/h
2182 24-08-2020 13:45:00 19.2 C 11.05 g/m*3 19.2 C 16.1 km/h
2183 24-08-2020 13:50:00 18.9 C 11.02 g/m*3 18.9 C 14.5 km/h
2184 24-08-2020 13:55:00 19 C 11.24 g/m*3 19 C 11.3 km/h
2185 24-08-2020 14:00:00 19.3 C 11.44 g/m*3 19.3 C 8.1 km/h
2186 24-08-2020 14:05:00 19.8 C 11.44 g/m*3 19.8 C 14.5 km/h
2187 24-08-2020 14:10:00 20.1 C 10.95 g/m*3 20.1 C 16.1 km/h
2188 24-08-2020 14:15:00 20.1 C 11.13 g/m*3 20.1 C 12.9 km/h
2189 24-08-2020 14:20:00 20.1 C 11.3 g/m*3 20.1 C 12.9 km/h
2190 24-08-2020 14:25:00 19.9 C 11 g/m*3 19.9 C 17.7 km/h
2191 24-08-2020 14:30:00 19.9 C 11.17 g/m*3 19.9 C 12.9 km/h
2192 24-08-2020 14:35:00 20 C 11.06 g/m*3 20 C 11.3 km/h
2193 24-08-2020 14:40:00 20.1 C 10.95 g/m*3 20.1 C 14.5 km/h
2194 24-08-2020 14:45:00 20.1 C 10.78 g/m*3 20.1 C 12.9 km/h
2195 24-08-2020 14:50:00 20.2 C 10.84 g/m*3 20.2 C 17.7 km/h
2196 24-08-2020 14:55:00 20.2 C 10.84 g/m*3 20.2 C 9.7 km/h
2197 24-08-2020 15:00:00 20.3 C 10.9 g/m*3 20.3 C 11.3 km/h
2198 24-08-2020 15:05:00 20.4 C 10.61 g/m*3 20.4 C 19.3 km/h
2199 24-08-2020 15:10:00 20.5 C 10.5 g/m*3 20.5 C 11.3 km/h
2200 24-08-2020 15:15:00 20.8 C 10.5 g/m*3 20.8 C 16.1 km/h
Sensor: Nr:Datum:Temp:Abs-Feuchte:Windchill:Wind:
Aussen-T/F 2201 24-08-2020 15:20:00 20.9 C 10.56 g/m*3 20.9 C 14.5 km/h
2202 24-08-2020 15:25:00 20.9 C 10.38 g/m*3 20.9 C 12.9 km/h
2203 24-08-2020 15:30:00 21.1 C 10.5 g/m*3 21.1 C 16.1 km/h
2204 24-08-2020 15:35:00 21.2 C 10.56 g/m*3 21.2 C 14.5 km/h
2205 24-08-2020 15:40:00 21.5 C 10.94 g/m*3 21.5 C 16.1 km/h
2206 24-08-2020 15:45:00 21.6 C 10.62 g/m*3 21.6 C 12.9 km/h
2207 24-08-2020 15:50:00 21.7 C 10.68 g/m*3 21.7 C 16.1 km/h
2208 24-08-2020 15:55:00 21.8 C 10.55 g/m*3 21.8 C 11.3 km/h
2209 24-08-2020 16:00:00 21.9 C 10.61 g/m*3 21.9 C 11.3 km/h
2210 24-08-2020 16:05:00 22.2 C 10.6 g/m*3 22.2 C 11.3 km/h
2211 24-08-2020 16:10:00 22 C 10.09 g/m*3 22 C 16.1 km/h
2212 24-08-2020 16:15:00 21.7 C 10.3 g/m*3 21.7 C 14.5 km/h
2213 24-08-2020 16:20:00 21.4 C 10.12 g/m*3 21.4 C 14.5 km/h
2214 24-08-2020 16:25:00 21.8 C 10.55 g/m*3 21.8 C 12.9 km/h
2215 24-08-2020 16:30:00 22.4 C 10.33 g/m*3 22.4 C 11.3 km/h
2216 24-08-2020 16:35:00 22.2 C 10.01 g/m*3 22.2 C 9.7 km/h
2217 24-08-2020 16:40:00 22 C 10.48 g/m*3 22 C 9.7 km/h
2218 24-08-2020 16:45:00 22 C 10.29 g/m*3 22 C 11.3 km/h
2219 24-08-2020 16:50:00 21.9 C 9.84 g/m*3 21.9 C 11.3 km/h
2220 24-08-2020 16:55:00 21.9 C 10.23 g/m*3 21.9 C 9.7 km/h
2221 24-08-2020 17:00:00 21.9 C 10.42 g/m*3 21.9 C 11.3 km/h
2222 24-08-2020 17:05:00 21.9 C 10.23 g/m*3 21.9 C 19.3 km/h
2223 24-08-2020 17:10:00 21.8 C 10.36 g/m*3 21.8 C 11.3 km/h
2224 24-08-2020 17:15:00 21.9 C 10.42 g/m*3 21.9 C 12.9 km/h
2225 24-08-2020 17:20:00 22.2 C 10.41 g/m*3 22.2 C 17.7 km/h
Sensor: Nr:Datum:Temp:Abs-Feuchte:Windchill:Wind:
Aussen-T/F 2226 24-08-2020 17:25:00 22.8 C 10.16 g/m*3 22.8 C 14.5 km/h
2227 24-08-2020 17:30:00 23.2 C 10.19 g/m*3 23.2 C 12.9 km/h
2228 24-08-2020 17:35:00 23.3 C 10.45 g/m*3 23.3 C 12.9 km/h
2229 24-08-2020 17:40:00 23.1 C 10.13 g/m*3 23.1 C 14.5 km/h
2230 24-08-2020 17:45:00 23.2 C 9.98 g/m*3 23.2 C 17.7 km/h
2231 24-08-2020 17:50:00 23.4 C 10.72 g/m*3 23.4 C 12.9 km/h
2232 24-08-2020 17:55:00 23.8 C 10.54 g/m*3 23.8 C 16.1 km/h
2233 24-08-2020 18:00:00 23.7 C 10.48 g/m*3 23.7 C 16.1 km/h
2234 24-08-2020 18:05:00 23.7 C 10.05 g/m*3 23.7 C 17.7 km/h
2235 24-08-2020 18:10:00 23.7 C 10.05 g/m*3 23.7 C 11.3 km/h
2236 24-08-2020 18:15:00 23.4 C 9.88 g/m*3 23.4 C 9.7 km/h
2237 24-08-2020 18:20:00 23.4 C 10.09 g/m*3 23.4 C 14.5 km/h
2238 24-08-2020 18:25:00 23.2 C 9.98 g/m*3 23.2 C 12.9 km/h
2239 24-08-2020 18:30:00 22.7 C 10.1 g/m*3 22.7 C 11.3 km/h
2240 24-08-2020 18:35:00 22.3 C 10.07 g/m*3 22.3 C 9.7 km/h
2241 24-08-2020 18:40:00 22.1 C 10.15 g/m*3 22.1 C 14.5 km/h
2242 24-08-2020 18:45:00 21.9 C 10.03 g/m*3 21.9 C 8.1 km/h
2243 24-08-2020 18:50:00 22 C 10.09 g/m*3 22 C 11.3 km/h
2244 24-08-2020 18:55:00 22.3 C 10.07 g/m*3 22.3 C 9.7 km/h
2245 24-08-2020 19:00:00 22.3 C 10.07 g/m*3 22.3 C 14.5 km/h
2246 24-08-2020 19:05:00 22 C 10.09 g/m*3 22 C 6.4 km/h
2247 24-08-2020 19:10:00 21.6 C 10.05 g/m*3 21.6 C 8.1 km/h
2248 24-08-2020 19:15:00 21.3 C 10.25 g/m*3 21.3 C 3.2 km/h
2249 24-08-2020 19:20:00 21.1 C 10.32 g/m*3 21.1 C 0 km/h
2250 24-08-2020 19:25:00 20.9 C 10.56 g/m*3 20.9 C 0 km/h
Sensor: Nr:Datum:Temp:Abs-Feuchte:Windchill:Wind:
Aussen-T/F 2251 24-08-2020 19:30:00 20.7 C 10.08 g/m*3 20.7 C 8.1 km/h
2252 24-08-2020 19:35:00 20.6 C 10.02 g/m*3 20.6 C 8.1 km/h
2253 24-08-2020 19:40:00 20.6 C 10.2 g/m*3 20.6 C 6.4 km/h
2254 24-08-2020 19:45:00 20.6 C 10.02 g/m*3 20.6 C 6.4 km/h
2255 24-08-2020 19:50:00 20.6 C 10.2 g/m*3 20.6 C 8.1 km/h
2256 24-08-2020 19:55:00 20.5 C 9.96 g/m*3 20.5 C 8.1 km/h
2257 24-08-2020 20:00:00 20.4 C 9.91 g/m*3 20.4 C 6.4 km/h
2258 24-08-2020 20:05:00 20.4 C 10.08 g/m*3 20.4 C 9.7 km/h
2259 24-08-2020 20:10:00 20.4 C 9.91 g/m*3 20.4 C 6.4 km/h
2260 24-08-2020 20:15:00 20.4 C 10.08 g/m*3 20.4 C 4.8 km/h
2261 24-08-2020 20:20:00 20.4 C 10.26 g/m*3 20.4 C 8.1 km/h
2262 24-08-2020 20:25:00 20.3 C 10.02 g/m*3 20.3 C 8.1 km/h
2263 24-08-2020 20:30:00 20.2 C 10.49 g/m*3 20.2 C 12.9 km/h
2264 24-08-2020 20:35:00 19.9 C 10.65 g/m*3 19.9 C 14.5 km/h
2265 24-08-2020 20:40:00 19.6 C 10.8 g/m*3 19.6 C 11.3 km/h
2266 24-08-2020 20:45:00 19.3 C 10.95 g/m*3 19.3 C 6.4 km/h
2267 24-08-2020 20:50:00 19.1 C 11.15 g/m*3 19.1 C 4.8 km/h
2268 24-08-2020 20:55:00 18.8 C 10.95 g/m*3 18.8 C 8.1 km/h
2269 24-08-2020 21:00:00 18.7 C 11.05 g/m*3 18.7 C 4.8 km/h
2270 24-08-2020 21:05:00 18.6 C 11.14 g/m*3 18.6 C 1.6 km/h
2271 24-08-2020 21:10:00 18.4 C 11.01 g/m*3 18.4 C 3.2 km/h
2272 24-08-2020 21:15:00 18.4 C 11.17 g/m*3 18.4 C 0 km/h
2273 24-08-2020 21:20:00 18.3 C 11.26 g/m*3 18.3 C 0 km/h
2274 24-08-2020 21:25:00 18.3 C 11.26 g/m*3 18.3 C 0 km/h
2275 24-08-2020 21:30:00 18.2 C 11.35 g/m*3 18.2 C 0 km/h
Sensor: Nr:Datum:Temp:Abs-Feuchte:Windchill:Wind:
Aussen-T/F 2276 24-08-2020 21:35:00 18.1 C 11.43 g/m*3 18.1 C 0 km/h
2277 24-08-2020 21:40:00 18.1 C 11.43 g/m*3 18.1 C 0 km/h
2278 24-08-2020 21:45:00 18 C 11.37 g/m*3 18 C 0 km/h
2279 24-08-2020 21:50:00 17.9 C 11.45 g/m*3 17.9 C 0 km/h
2280 24-08-2020 21:55:00 17.8 C 11.38 g/m*3 17.8 C 0 km/h
2281 24-08-2020 22:00:00 17.6 C 11.25 g/m*3 17.6 C 0 km/h
2282 24-08-2020 22:05:00 17.4 C 11.26 g/m*3 17.4 C 0 km/h
2283 24-08-2020 22:10:00 17.3 C 11.2 g/m*3 17.3 C 0 km/h
2284 24-08-2020 22:15:00 17.1 C 11.21 g/m*3 17.1 C 0 km/h
2285 24-08-2020 22:20:00 17.1 C 11.35 g/m*3 17.1 C 0 km/h
2286 24-08-2020 22:25:00 16.9 C 11.08 g/m*3 16.9 C 0 km/h
2287 24-08-2020 22:30:00 16.8 C 11.15 g/m*3 16.8 C 0 km/h
2288 24-08-2020 22:35:00 16.8 C 11.15 g/m*3 16.8 C 0 km/h
2289 24-08-2020 22:40:00 16.7 C 11.23 g/m*3 16.7 C 0 km/h
2290 24-08-2020 22:45:00 16.7 C 11.23 g/m*3 16.7 C 0 km/h
2291 24-08-2020 22:50:00 16.6 C 11.16 g/m*3 16.6 C 0 km/h
2292 24-08-2020 22:55:00 16.6 C 11.3 g/m*3 16.6 C 0 km/h
2293 24-08-2020 23:00:00 16.6 C 11.3 g/m*3 16.6 C 0 km/h
2294 24-08-2020 23:05:00 16.6 C 11.3 g/m*3 16.6 C 3.2 km/h
2295 24-08-2020 23:10:00 16.7 C 11.37 g/m*3 16.7 C 1.6 km/h
2296 24-08-2020 23:15:00 16.7 C 11.37 g/m*3 16.7 C 3.2 km/h
2297 24-08-2020 23:20:00 16.8 C 11.29 g/m*3 16.8 C 4.8 km/h
2298 24-08-2020 23:25:00 16.8 C 11.15 g/m*3 16.8 C 1.6 km/h
2299 24-08-2020 23:30:00 16.9 C 11.22 g/m*3 16.9 C 0 km/h
2300 24-08-2020 23:35:00 16.9 C 11.22 g/m*3 16.9 C 0 km/h
Sensor: Nr:Datum:Temp:Abs-Feuchte:Windchill:Wind:
Aussen-T/F 2301 24-08-2020 23:40:00 16.9 C 11.36 g/m*3 16.9 C 0 km/h
2302 24-08-2020 23:45:00 17 C 11.43 g/m*3 17 C 0 km/h
2303 24-08-2020 23:50:00 16.9 C 11.36 g/m*3 16.9 C 0 km/h
2304 24-08-2020 23:55:00 16.9 C 11.22 g/m*3 16.9 C 0 km/h
2305 25-08-2020 00:00:00 16.9 C 11.22 g/m*3 16.9 C 0 km/h
2306 25-08-2020 00:05:00 16.9 C 11.36 g/m*3 16.9 C 0 km/h
2307 25-08-2020 00:10:00 16.9 C 11.22 g/m*3 16.9 C 0 km/h
2308 25-08-2020 00:15:00 16.8 C 11.29 g/m*3 16.8 C 0 km/h
2309 25-08-2020 00:20:00 16.8 C 11.29 g/m*3 16.8 C 0 km/h
2310 25-08-2020 00:25:00 16.8 C 11.29 g/m*3 16.8 C 0 km/h
2311 25-08-2020 00:30:00 16.8 C 11.44 g/m*3 16.8 C 3.2 km/h
2312 25-08-2020 00:35:00 16.8 C 11.29 g/m*3 16.8 C 0 km/h
2313 25-08-2020 00:40:00 16.8 C 11.29 g/m*3 16.8 C 0 km/h
2314 25-08-2020 00:45:00 16.8 C 11.44 g/m*3 16.8 C 0 km/h
2315 25-08-2020 00:50:00 16.8 C 11.29 g/m*3 16.8 C 0 km/h
2316 25-08-2020 00:55:00 16.9 C 11.22 g/m*3 16.9 C 0 km/h
2317 25-08-2020 01:00:00 16.9 C 11.22 g/m*3 16.9 C 0 km/h
2318 25-08-2020 01:05:00 16.9 C 11.22 g/m*3 16.9 C 0 km/h
2319 25-08-2020 01:10:00 17.1 C 11.35 g/m*3 17.1 C 0 km/h
2320 25-08-2020 01:15:00 17.1 C 11.5 g/m*3 17.1 C 0 km/h
2321 25-08-2020 01:20:00 17.1 C 11.35 g/m*3 17.1 C 0 km/h
2322 25-08-2020 01:25:00 17.1 C 11.5 g/m*3 17.1 C 0 km/h
2323 25-08-2020 01:30:00 17.1 C 11.5 g/m*3 17.1 C 0 km/h
2324 25-08-2020 01:35:00 17.1 C 11.5 g/m*3 17.1 C 0 km/h
2325 25-08-2020 01:40:00 17.1 C 11.5 g/m*3 17.1 C 0 km/h
Sensor: Nr:Datum:Temp:Abs-Feuchte:Windchill:Wind:
Aussen-T/F 2326 25-08-2020 01:45:00 17 C 11.43 g/m*3 17 C 0 km/h
2327 25-08-2020 01:50:00 16.9 C 11.36 g/m*3 16.9 C 0 km/h
2328 25-08-2020 01:55:00 16.9 C 11.36 g/m*3 16.9 C 0 km/h
2329 25-08-2020 02:00:00 16.9 C 11.51 g/m*3 16.9 C 0 km/h
2330 25-08-2020 02:05:00 16.9 C 11.36 g/m*3 16.9 C 0 km/h
2331 25-08-2020 02:10:00 16.8 C 11.44 g/m*3 16.8 C 0 km/h
2332 25-08-2020 02:15:00 16.8 C 11.44 g/m*3 16.8 C 0 km/h
2333 25-08-2020 02:20:00 16.8 C 11.58 g/m*3 16.8 C 0 km/h
2334 25-08-2020 02:25:00 16.8 C 11.72 g/m*3 16.8 C 4.8 km/h
2335 25-08-2020 02:30:00 16.8 C 11.87 g/m*3 16.8 C 3.2 km/h
2336 25-08-2020 02:35:00 16.7 C 11.8 g/m*3 16.7 C 1.6 km/h
2337 25-08-2020 02:40:00 16.7 C 11.94 g/m*3 16.7 C 1.6 km/h
2338 25-08-2020 02:45:00 16.6 C 11.72 g/m*3 16.6 C 0 km/h
2339 25-08-2020 02:50:00 16.6 C 11.87 g/m*3 16.6 C 0 km/h
2340 25-08-2020 02:55:00 16.5 C 11.8 g/m*3 16.5 C 0 km/h
2341 25-08-2020 03:00:00 16.4 C 11.72 g/m*3 16.4 C 0 km/h
2342 25-08-2020 03:05:00 16.3 C 11.65 g/m*3 16.3 C 0 km/h
2343 25-08-2020 03:10:00 16.2 C 11.58 g/m*3 16.2 C 0 km/h
2344 25-08-2020 03:15:00 16.2 C 11.58 g/m*3 16.2 C 0 km/h
2345 25-08-2020 03:20:00 16.1 C 11.65 g/m*3 16.1 C 0 km/h
2346 25-08-2020 03:25:00 16.1 C 11.65 g/m*3 16.1 C 0 km/h
2347 25-08-2020 03:30:00 16.1 C 11.65 g/m*3 16.1 C 0 km/h
2348 25-08-2020 03:35:00 15.9 C 11.51 g/m*3 15.9 C 0 km/h
2349 25-08-2020 03:40:00 15.9 C 11.51 g/m*3 15.9 C 0 km/h
2350 25-08-2020 03:45:00 15.8 C 11.44 g/m*3 15.8 C 0 km/h
Sensor: Nr:Datum:Temp:Abs-Feuchte:Windchill:Wind:
Aussen-T/F 2351 25-08-2020 03:50:00 15.7 C 11.37 g/m*3 15.7 C 0 km/h
2352 25-08-2020 03:55:00 15.6 C 11.3 g/m*3 15.6 C 3.2 km/h
2353 25-08-2020 04:00:00 15.4 C 11.04 g/m*3 15.4 C 3.2 km/h
2354 25-08-2020 04:05:00 15.3 C 10.97 g/m*3 15.3 C 4.8 km/h
2355 25-08-2020 04:10:00 15.2 C 11.03 g/m*3 15.2 C 4.8 km/h
2356 25-08-2020 04:15:00 15.1 C 10.97 g/m*3 15.1 C 4.8 km/h
2357 25-08-2020 04:20:00 14.9 C 10.83 g/m*3 14.9 C 6.4 km/h
2358 25-08-2020 04:25:00 14.8 C 10.77 g/m*3 14.8 C 3.2 km/h
2359 25-08-2020 04:30:00 14.7 C 10.83 g/m*3 14.7 C 3.2 km/h
2360 25-08-2020 04:35:00 14.6 C 10.76 g/m*3 14.6 C 3.2 km/h
2361 25-08-2020 04:40:00 14.4 C 10.63 g/m*3 14.4 C 4.8 km/h
2362 25-08-2020 04:45:00 14.3 C 10.69 g/m*3 14.3 C 0 km/h
2363 25-08-2020 04:50:00 14.3 C 10.69 g/m*3 14.3 C 0 km/h
2364 25-08-2020 04:55:00 14.2 C 10.62 g/m*3 14.2 C 0 km/h
2365 25-08-2020 05:00:00 14.1 C 10.68 g/m*3 14.1 C 0 km/h
2366 25-08-2020 05:05:00 13.9 C 10.55 g/m*3 13.9 C 0 km/h
2367 25-08-2020 05:10:00 13.8 C 10.48 g/m*3 13.8 C 0 km/h
2368 25-08-2020 05:15:00 13.8 C 10.48 g/m*3 13.8 C 0 km/h
2369 25-08-2020 05:20:00 13.7 C 10.54 g/m*3 13.7 C 0 km/h
2370 25-08-2020 05:25:00 13.7 C 10.54 g/m*3 13.7 C 0 km/h
2371 25-08-2020 05:30:00 13.6 C 10.47 g/m*3 13.6 C 0 km/h
2372 25-08-2020 05:35:00 13.5 C 10.41 g/m*3 13.5 C 0 km/h
2373 25-08-2020 05:40:00 13.4 C 10.35 g/m*3 13.4 C 0 km/h
2374 25-08-2020 05:45:00 13.3 C 10.28 g/m*3 13.3 C 0 km/h
2375 25-08-2020 05:50:00 13.3 C 10.4 g/m*3 13.3 C 0 km/h
Sensor: Nr:Datum:Temp:Abs-Feuchte:Windchill:Wind:
Aussen-T/F 2376 25-08-2020 05:55:00 13.2 C 10.33 g/m*3 13.2 C 0 km/h
2377 25-08-2020 06:00:00 13.2 C 10.33 g/m*3 13.2 C 0 km/h
2378 25-08-2020 06:05:00 13.1 C 10.27 g/m*3 13.1 C 0 km/h
2379 25-08-2020 06:10:00 13.1 C 10.38 g/m*3 13.1 C 0 km/h
2380 25-08-2020 06:15:00 13.1 C 10.38 g/m*3 13.1 C 0 km/h
2381 25-08-2020 06:20:00 13 C 10.32 g/m*3 13 C 0 km/h
2382 25-08-2020 06:25:00 12.9 C 10.26 g/m*3 12.9 C 0 km/h
2383 25-08-2020 06:30:00 12.8 C 10.19 g/m*3 12.8 C 0 km/h
2384 25-08-2020 06:35:00 12.8 C 10.19 g/m*3 12.8 C 0 km/h
2385 25-08-2020 06:40:00 12.8 C 10.19 g/m*3 12.8 C 0 km/h
2386 25-08-2020 06:45:00 12.8 C 10.3 g/m*3 12.8 C 0 km/h
2387 25-08-2020 06:50:00 12.8 C 10.3 g/m*3 12.8 C 0 km/h
2388 25-08-2020 06:55:00 12.9 C 10.48 g/m*3 12.9 C 0 km/h
2389 25-08-2020 07:00:00 13 C 10.43 g/m*3 13 C 0 km/h
2390 25-08-2020 07:05:00 13.1 C 10.5 g/m*3 13.1 C 0 km/h
2391 25-08-2020 07:10:00 13.1 C 10.5 g/m*3 13.1 C 0 km/h
2392 25-08-2020 07:15:00 13.1 C 10.5 g/m*3 13.1 C 0 km/h
2393 25-08-2020 07:20:00 13.2 C 10.56 g/m*3 13.2 C 0 km/h
2394 25-08-2020 07:25:00 13.2 C 10.68 g/m*3 13.2 C 0 km/h
2395 25-08-2020 07:30:00 13.3 C 10.74 g/m*3 13.3 C 0 km/h
2396 25-08-2020 07:35:00 13.4 C 10.81 g/m*3 13.4 C 0 km/h
2397 25-08-2020 07:40:00 13.5 C 10.88 g/m*3 13.5 C 0 km/h
2398 25-08-2020 07:45:00 13.6 C 10.95 g/m*3 13.6 C 0 km/h
2399 25-08-2020 07:50:00 13.7 C 11.01 g/m*3 13.7 C 0 km/h
2400 25-08-2020 07:55:00 13.8 C 11.08 g/m*3 13.8 C 0 km/h
Sensor: Nr:Datum:Temp:Abs-Feuchte:Windchill:Wind:
Aussen-T/F 2401 25-08-2020 08:00:00 13.9 C 11.15 g/m*3 13.9 C 0 km/h
2402 25-08-2020 08:05:00 14.1 C 11.29 g/m*3 14.1 C 0 km/h
2403 25-08-2020 08:10:00 14.2 C 11.23 g/m*3 14.2 C 1.6 km/h
2404 25-08-2020 08:15:00 14.3 C 11.3 g/m*3 14.3 C 0 km/h
2405 25-08-2020 08:20:00 14.5 C 11.32 g/m*3 14.5 C 0 km/h
2406 25-08-2020 08:25:00 14.7 C 11.33 g/m*3 14.7 C 0 km/h
2407 25-08-2020 08:30:00 14.8 C 11.4 g/m*3 14.8 C 3.2 km/h
2408 25-08-2020 08:35:00 15 C 11.41 g/m*3 15 C 3.2 km/h
2409 25-08-2020 08:40:00 15.1 C 11.35 g/m*3 15.1 C 0 km/h
2410 25-08-2020 08:45:00 15.2 C 11.42 g/m*3 15.2 C 0 km/h
2411 25-08-2020 08:50:00 15.3 C 11.49 g/m*3 15.3 C 0 km/h
2412 25-08-2020 08:55:00 15.4 C 11.43 g/m*3 15.4 C 0 km/h
2413 25-08-2020 09:00:00 15.4 C 11.43 g/m*3 15.4 C 0 km/h
2414 25-08-2020 09:05:00 15.6 C 11.57 g/m*3 15.6 C 0 km/h
2415 25-08-2020 09:10:00 15.6 C 11.44 g/m*3 15.6 C 0 km/h
2416 25-08-2020 09:15:00 15.7 C 11.51 g/m*3 15.7 C 0 km/h
2417 25-08-2020 09:20:00 15.8 C 11.58 g/m*3 15.8 C 0 km/h
2418 25-08-2020 09:25:00 15.9 C 11.65 g/m*3 15.9 C 0 km/h
2419 25-08-2020 09:30:00 15.9 C 11.51 g/m*3 15.9 C 1.6 km/h
2420 25-08-2020 09:35:00 16.1 C 11.65 g/m*3 16.1 C 0 km/h
2421 25-08-2020 09:40:00 16.1 C 11.51 g/m*3 16.1 C 0 km/h
2422 25-08-2020 09:45:00 16.3 C 11.79 g/m*3 16.3 C 0 km/h
2423 25-08-2020 09:50:00 16.3 C 11.65 g/m*3 16.3 C 0 km/h
2424 25-08-2020 09:55:00 16.4 C 11.58 g/m*3 16.4 C 0 km/h
2425 25-08-2020 10:00:00 16.6 C 11.72 g/m*3 16.6 C 0 km/h
Sensor: Nr:Datum:Temp:Abs-Feuchte:Windchill:Wind:
Aussen-T/F 2426 25-08-2020 10:05:00 16.7 C 11.65 g/m*3 16.7 C 0 km/h
2427 25-08-2020 10:10:00 16.8 C 11.72 g/m*3 16.8 C 0 km/h
2428 25-08-2020 10:15:00 16.9 C 11.79 g/m*3 16.9 C 0 km/h
2429 25-08-2020 10:20:00 17 C 11.87 g/m*3 17 C 1.6 km/h
2430 25-08-2020 10:25:00 17.1 C 11.94 g/m*3 17.1 C 0 km/h
2431 25-08-2020 10:30:00 17.1 C 11.94 g/m*3 17.1 C 0 km/h
2432 25-08-2020 10:35:00 17.2 C 12.01 g/m*3 17.2 C 0 km/h
2433 25-08-2020 10:40:00 17.3 C 11.93 g/m*3 17.3 C 0 km/h
2434 25-08-2020 10:45:00 17.4 C 12 g/m*3 17.4 C 1.6 km/h
2435 25-08-2020 10:50:00 17.6 C 12.15 g/m*3 17.6 C 0 km/h
2436 25-08-2020 10:55:00 17.8 C 12.29 g/m*3 17.8 C 1.6 km/h
2437 25-08-2020 11:00:00 18.1 C 12.36 g/m*3 18.1 C 0 km/h
2438 25-08-2020 11:05:00 18.3 C 12.35 g/m*3 18.3 C 4.8 km/h
2439 25-08-2020 11:10:00 18.5 C 12.34 g/m*3 18.5 C 1.6 km/h
2440 25-08-2020 11:15:00 18.8 C 12.56 g/m*3 18.8 C 3.2 km/h
2441 25-08-2020 11:20:00 19.1 C 12.46 g/m*3 19.1 C 3.2 km/h
2442 25-08-2020 11:25:00 19.4 C 12.18 g/m*3 19.4 C 4.8 km/h
2443 25-08-2020 11:30:00 19.7 C 12.4 g/m*3 19.7 C 4.8 km/h
2444 25-08-2020 11:35:00 20 C 12.27 g/m*3 20 C 1.6 km/h
2445 25-08-2020 11:40:00 20.3 C 11.96 g/m*3 20.3 C 4.8 km/h
2446 25-08-2020 11:45:00 20.7 C 11.34 g/m*3 20.7 C 8.1 km/h
2447 25-08-2020 11:50:00 21.1 C 11.24 g/m*3 21.1 C 9.7 km/h
2448 25-08-2020 11:55:00 21.4 C 11.44 g/m*3 21.4 C 6.4 km/h
2449 25-08-2020 12:00:00 21.6 C 11.38 g/m*3 21.6 C 6.4 km/h
2450 25-08-2020 12:05:00 21.7 C 11.25 g/m*3 21.7 C 8.1 km/h
Sensor: Nr:Datum:Temp:Abs-Feuchte:Windchill:Wind:
Aussen-T/F 2451 25-08-2020 12:10:00 21.8 C 11.13 g/m*3 21.8 C 8.1 km/h
2452 25-08-2020 12:15:00 21.9 C 11.39 g/m*3 21.9 C 6.4 km/h
2453 25-08-2020 12:20:00 21.9 C 11.39 g/m*3 21.9 C 11.3 km/h
2454 25-08-2020 12:25:00 21.8 C 11.32 g/m*3 21.8 C 9.7 km/h
2455 25-08-2020 12:30:00 21.8 C 11.51 g/m*3 21.8 C 6.4 km/h
2456 25-08-2020 12:35:00 21.8 C 11.51 g/m*3 21.8 C 4.8 km/h
2457 25-08-2020 12:40:00 21.9 C 11.39 g/m*3 21.9 C 6.4 km/h
2458 25-08-2020 12:45:00 22.1 C 11.52 g/m*3 22.1 C 8.1 km/h
2459 25-08-2020 12:50:00 22.2 C 11.58 g/m*3 22.2 C 9.7 km/h
2460 25-08-2020 12:55:00 22.3 C 11.45 g/m*3 22.3 C 4.8 km/h
2461 25-08-2020 13:00:00 22.4 C 11.32 g/m*3 22.4 C 6.4 km/h
2462 25-08-2020 13:05:00 22.4 C 11.52 g/m*3 22.4 C 9.7 km/h
2463 25-08-2020 13:10:00 22.4 C 11.32 g/m*3 22.4 C 8.1 km/h
2464 25-08-2020 13:15:00 22.4 C 11.32 g/m*3 22.4 C 9.7 km/h
2465 25-08-2020 13:20:00 22.5 C 11.39 g/m*3 22.5 C 12.9 km/h
2466 25-08-2020 13:25:00 22.6 C 11.65 g/m*3 22.6 C 6.4 km/h
2467 25-08-2020 13:30:00 22.7 C 11.31 g/m*3 22.7 C 9.7 km/h
2468 25-08-2020 13:35:00 22.8 C 11.38 g/m*3 22.8 C 0 km/h
2469 25-08-2020 13:40:00 23 C 12.13 g/m*3 23 C 4.8 km/h
2470 25-08-2020 13:45:00 23 C 11.1 g/m*3 23 C 6.4 km/h
2471 25-08-2020 13:50:00 22.9 C 11.24 g/m*3 22.9 C 3.2 km/h
2472 25-08-2020 13:55:00 22.8 C 11.18 g/m*3 22.8 C 12.9 km/h
2473 25-08-2020 14:00:00 22.8 C 11.18 g/m*3 22.8 C 8.1 km/h
2474 25-08-2020 14:05:00 22.7 C 11.52 g/m*3 22.7 C 11.3 km/h
2475 25-08-2020 14:10:00 22.7 C 11.52 g/m*3 22.7 C 8.1 km/h
Sensor: Nr:Datum:Temp:Abs-Feuchte:Windchill:Wind:
Aussen-T/F 2476 25-08-2020 14:15:00 22.6 C 11.25 g/m*3 22.6 C 6.4 km/h
2477 25-08-2020 14:20:00 22.4 C 11.32 g/m*3 22.4 C 8.1 km/h
2478 25-08-2020 14:25:00 22.3 C 11.06 g/m*3 22.3 C 9.7 km/h
2479 25-08-2020 14:30:00 22.2 C 11.19 g/m*3 22.2 C 9.7 km/h
2480 25-08-2020 14:35:00 22.2 C 10.99 g/m*3 22.2 C 9.7 km/h
2481 25-08-2020 14:40:00 22.3 C 11.26 g/m*3 22.3 C 9.7 km/h
2482 25-08-2020 14:45:00 22.3 C 11.06 g/m*3 22.3 C 6.4 km/h
2483 25-08-2020 14:50:00 22.3 C 11.06 g/m*3 22.3 C 4.8 km/h
2484 25-08-2020 14:55:00 22.3 C 11.45 g/m*3 22.3 C 3.2 km/h
2485 25-08-2020 15:00:00 22.3 C 11.45 g/m*3 22.3 C 4.8 km/h
2486 25-08-2020 15:05:00 22.3 C 11.65 g/m*3 22.3 C 0 km/h
2487 25-08-2020 15:10:00 22.4 C 11.32 g/m*3 22.4 C 4.8 km/h
2488 25-08-2020 15:15:00 22.4 C 11.72 g/m*3 22.4 C 0 km/h
2489 25-08-2020 15:20:00 22.4 C 11.52 g/m*3 22.4 C 0 km/h
2490 25-08-2020 15:25:00 22.4 C 11.72 g/m*3 22.4 C 0 km/h
2491 25-08-2020 15:30:00 22.4 C 11.52 g/m*3 22.4 C 0 km/h
2492 25-08-2020 15:35:00 22.4 C 12.11 g/m*3 22.4 C 0 km/h
2493 25-08-2020 15:40:00 22.4 C 12.31 g/m*3 22.4 C 0 km/h
2494 25-08-2020 15:45:00 22.3 C 12.44 g/m*3 22.3 C 0 km/h
2495 25-08-2020 15:50:00 22.3 C 12.05 g/m*3 22.3 C 1.6 km/h
2496 25-08-2020 15:55:00 22.3 C 13.82 g/m*3 22.3 C 0 km/h
2497 25-08-2020 16:00:00 22.1 C 13.86 g/m*3 22.1 C 6.4 km/h
2498 25-08-2020 16:05:00 21.8 C 14.2 g/m*3 21.8 C 4.8 km/h
2499 25-08-2020 16:10:00 21.4 C 14.44 g/m*3 21.4 C 0 km/h
2500 25-08-2020 16:15:00 21.1 C 14.56 g/m*3 21.1 C 0 km/h
Sensor: Nr:Datum:Temp:Abs-Feuchte:Windchill:Wind:
Aussen-T/F 2501 25-08-2020 16:20:00 20.9 C 14.75 g/m*3 20.9 C 0 km/h
2502 25-08-2020 16:25:00 20.8 C 14.49 g/m*3 20.8 C 0 km/h
2503 25-08-2020 16:30:00 20.6 C 13.96 g/m*3 20.6 C 1.6 km/h
2504 25-08-2020 16:35:00 20.6 C 13.96 g/m*3 20.6 C 0 km/h
2505 25-08-2020 16:40:00 20.7 C 14.04 g/m*3 20.7 C 0 km/h
2506 25-08-2020 16:45:00 20.8 C 14.67 g/m*3 20.8 C 0 km/h
2507 25-08-2020 16:50:00 20.9 C 14.75 g/m*3 20.9 C 0 km/h
2508 25-08-2020 16:55:00 21 C 14.84 g/m*3 21 C 0 km/h
2509 25-08-2020 17:00:00 21 C 14.65 g/m*3 21 C 0 km/h
2510 25-08-2020 17:05:00 21.1 C 14.92 g/m*3 21.1 C 3.2 km/h
2511 25-08-2020 17:10:00 21.1 C 14.92 g/m*3 21.1 C 0 km/h
2512 25-08-2020 17:15:00 21.2 C 14.83 g/m*3 21.2 C 1.6 km/h
2513 25-08-2020 17:20:00 21.2 C 14.64 g/m*3 21.2 C 0 km/h
2514 25-08-2020 17:25:00 21.3 C 14.35 g/m*3 21.3 C 0 km/h
2515 25-08-2020 17:30:00 21.3 C 13.61 g/m*3 21.3 C 0 km/h
2516 25-08-2020 17:35:00 21.4 C 14.44 g/m*3 21.4 C 1.6 km/h
2517 25-08-2020 17:40:00 21.6 C 13.85 g/m*3 21.6 C 1.6 km/h
2518 25-08-2020 17:45:00 21.8 C 12.85 g/m*3 21.8 C 3.2 km/h
2519 25-08-2020 17:50:00 22.5 C 12.58 g/m*3 22.5 C 3.2 km/h
2520 25-08-2020 17:55:00 23.4 C 13.25 g/m*3 23.4 C 0 km/h
2521 25-08-2020 18:00:00 24.4 C 12.46 g/m*3 24.4 C 0 km/h
2522 25-08-2020 18:05:00 25.1 C 12.5 g/m*3 25.1 C 3.2 km/h
2523 25-08-2020 18:10:00 25.6 C 12.14 g/m*3 25.6 C 6.4 km/h
2524 25-08-2020 18:15:00 25.9 C 11.62 g/m*3 25.9 C 6.4 km/h
2525 25-08-2020 18:20:00 26.2 C 12.8 g/m*3 26.2 C 1.6 km/h
Sensor: Nr:Datum:Temp:Abs-Feuchte:Windchill:Wind:
Aussen-T/F 2526 25-08-2020 18:25:00 26.4 C 12.45 g/m*3 26.4 C 6.4 km/h
2527 25-08-2020 18:30:00 26.7 C 11.64 g/m*3 26.7 C 9.7 km/h
2528 25-08-2020 18:35:00 26.6 C 12.08 g/m*3 26.6 C 14.5 km/h
2529 25-08-2020 18:40:00 26.8 C 11.96 g/m*3 26.8 C 6.4 km/h
2530 25-08-2020 18:45:00 27 C 11.58 g/m*3 27 C 8.1 km/h
2531 25-08-2020 18:50:00 26.8 C 11.71 g/m*3 26.8 C 9.7 km/h
2532 25-08-2020 18:55:00 26.6 C 11.33 g/m*3 26.6 C 6.4 km/h
2533 25-08-2020 19:00:00 26.7 C 11.9 g/m*3 26.7 C 3.2 km/h
2534 25-08-2020 19:05:00 26.6 C 11.58 g/m*3 26.6 C 6.4 km/h
2535 25-08-2020 19:10:00 26.5 C 12.77 g/m*3 26.5 C 4.8 km/h
2536 25-08-2020 19:15:00 26.3 C 11.39 g/m*3 26.3 C 6.4 km/h
2537 25-08-2020 19:20:00 26.2 C 11.82 g/m*3 26.2 C 3.2 km/h
2538 25-08-2020 19:25:00 25.9 C 12.35 g/m*3 25.9 C 3.2 km/h
2539 25-08-2020 19:30:00 25.5 C 11.13 g/m*3 25.5 C 9.7 km/h
2540 25-08-2020 19:35:00 24.9 C 12.36 g/m*3 24.9 C 6.4 km/h
2541 25-08-2020 19:40:00 24.6 C 12.38 g/m*3 24.6 C 1.6 km/h
2542 25-08-2020 19:45:00 24.2 C 12.1 g/m*3 24.2 C 0 km/h
2543 25-08-2020 19:50:00 23.7 C 12.41 g/m*3 23.7 C 0 km/h
2544 25-08-2020 19:55:00 23.4 C 12.2 g/m*3 23.4 C 0 km/h
2545 25-08-2020 20:00:00 23.1 C 12.2 g/m*3 23.1 C 0 km/h
2546 25-08-2020 20:05:00 22.9 C 11.65 g/m*3 22.9 C 0 km/h
2547 25-08-2020 20:10:00 22.8 C 11.99 g/m*3 22.8 C 3.2 km/h
2548 25-08-2020 20:15:00 22.7 C 11.92 g/m*3 22.7 C 0 km/h
2549 25-08-2020 20:20:00 22.5 C 10.79 g/m*3 22.5 C 4.8 km/h
2550 25-08-2020 20:25:00 22.4 C 10.33 g/m*3 22.4 C 3.2 km/h
Sensor: Nr:Datum:Temp:Abs-Feuchte:Windchill:Wind:
Aussen-T/F 2551 25-08-2020 20:30:00 22.6 C 11.85 g/m*3 22.6 C 0 km/h
2552 25-08-2020 20:35:00 22.5 C 11.58 g/m*3 22.5 C 0 km/h
2553 25-08-2020 20:40:00 22.4 C 10.33 g/m*3 22.4 C 6.4 km/h
2554 25-08-2020 20:45:00 22.6 C 11.45 g/m*3 22.6 C 3.2 km/h
2555 25-08-2020 20:50:00 22.6 C 11.05 g/m*3 22.6 C 4.8 km/h
2556 25-08-2020 20:55:00 22.4 C 11.32 g/m*3 22.4 C 3.2 km/h
2557 25-08-2020 21:00:00 22.3 C 10.66 g/m*3 22.3 C 1.6 km/h
2558 25-08-2020 21:05:00 22.2 C 10.99 g/m*3 22.2 C 1.6 km/h
2559 25-08-2020 21:10:00 22 C 10.67 g/m*3 22 C 1.6 km/h
2560 25-08-2020 21:15:00 21.8 C 11.32 g/m*3 21.8 C 4.8 km/h
2561 25-08-2020 21:20:00 21.6 C 10.81 g/m*3 21.6 C 0 km/h
2562 25-08-2020 21:25:00 21.3 C 10.62 g/m*3 21.3 C 4.8 km/h
2563 25-08-2020 21:30:00 21.1 C 11.06 g/m*3 21.1 C 4.8 km/h
2564 25-08-2020 21:35:00 20.8 C 10.86 g/m*3 20.8 C 0 km/h
2565 25-08-2020 21:40:00 20.7 C 10.8 g/m*3 20.7 C 8.1 km/h
2566 25-08-2020 21:45:00 20.7 C 10.8 g/m*3 20.7 C 0 km/h
2567 25-08-2020 21:50:00 20.6 C 10.56 g/m*3 20.6 C 0 km/h
2568 25-08-2020 21:55:00 20.5 C 10.5 g/m*3 20.5 C 0 km/h
2569 25-08-2020 22:00:00 20.5 C 10.5 g/m*3 20.5 C 6.4 km/h
2570 25-08-2020 22:05:00 20.6 C 10.38 g/m*3 20.6 C 3.2 km/h
2571 25-08-2020 22:10:00 20.7 C 10.44 g/m*3 20.7 C 0 km/h
2572 25-08-2020 22:15:00 20.7 C 10.44 g/m*3 20.7 C 4.8 km/h
2573 25-08-2020 22:20:00 20.7 C 10.44 g/m*3 20.7 C 6.4 km/h
2574 25-08-2020 22:25:00 20.8 C 10.5 g/m*3 20.8 C 3.2 km/h
2575 25-08-2020 22:30:00 20.8 C 10.5 g/m*3 20.8 C 8.1 km/h
Sensor: Nr:Datum:Temp:Abs-Feuchte:Windchill:Wind:
Aussen-T/F 2576 25-08-2020 22:35:00 20.8 C 10.14 g/m*3 20.8 C 1.6 km/h
2577 25-08-2020 22:40:00 20.9 C 10.2 g/m*3 20.9 C 3.2 km/h
2578 25-08-2020 22:45:00 21.1 C 10.13 g/m*3 21.1 C 4.8 km/h
2579 25-08-2020 22:50:00 21.2 C 10.38 g/m*3 21.2 C 1.6 km/h
2580 25-08-2020 22:55:00 21.2 C 10.38 g/m*3 21.2 C 0 km/h
2581 25-08-2020 23:00:00 21.1 C 10.32 g/m*3 21.1 C 0 km/h
2582 25-08-2020 23:05:00 21.1 C 10.32 g/m*3 21.1 C 1.6 km/h
2583 25-08-2020 23:10:00 21.1 C 10.32 g/m*3 21.1 C 1.6 km/h
2584 25-08-2020 23:15:00 21.1 C 10.5 g/m*3 21.1 C 8.1 km/h
2585 25-08-2020 23:20:00 21.2 C 10.38 g/m*3 21.2 C 8.1 km/h
2586 25-08-2020 23:25:00 21.2 C 10.75 g/m*3 21.2 C 1.6 km/h
2587 25-08-2020 23:30:00 21.1 C 10.69 g/m*3 21.1 C 0 km/h
2588 25-08-2020 23:35:00 20.9 C 10.75 g/m*3 20.9 C 1.6 km/h
2589 25-08-2020 23:40:00 20.8 C 10.5 g/m*3 20.8 C 3.2 km/h
2590 25-08-2020 23:45:00 20.7 C 10.62 g/m*3 20.7 C 1.6 km/h
2591 25-08-2020 23:50:00 20.7 C 10.8 g/m*3 20.7 C 0 km/h
2592 25-08-2020 23:55:00 20.6 C 10.74 g/m*3 20.6 C 0 km/h
2593 26-08-2020 00:00:00 20.6 C 10.74 g/m*3 20.6 C 0 km/h
2594 26-08-2020 00:05:00 20.6 C 10.56 g/m*3 20.6 C 12.9 km/h
2595 26-08-2020 00:10:00 20.6 C 10.74 g/m*3 20.6 C 1.6 km/h
2596 26-08-2020 00:15:00 20.7 C 10.62 g/m*3 20.7 C 8.1 km/h
2597 26-08-2020 00:20:00 21.1 C 10.87 g/m*3 21.1 C 6.4 km/h
2598 26-08-2020 00:25:00 21.2 C 10.93 g/m*3 21.2 C 8.1 km/h
2599 26-08-2020 00:30:00 21.3 C 11.18 g/m*3 21.3 C 6.4 km/h
2600 26-08-2020 00:35:00 21.3 C 11 g/m*3 21.3 C 4.8 km/h
Sensor: Nr:Datum:Temp:Abs-Feuchte:Windchill:Wind:
Aussen-T/F 2601 26-08-2020 00:40:00 21.3 C 11.37 g/m*3 21.3 C 6.4 km/h
2602 26-08-2020 00:45:00 21.3 C 11.18 g/m*3 21.3 C 3.2 km/h
2603 26-08-2020 00:50:00 21.2 C 11.3 g/m*3 21.2 C 4.8 km/h
2604 26-08-2020 00:55:00 21.2 C 11.68 g/m*3 21.2 C 3.2 km/h
2605 26-08-2020 01:00:00 21.1 C 11.61 g/m*3 21.1 C 4.8 km/h
2606 26-08-2020 01:05:00 21 C 11.54 g/m*3 21 C 3.2 km/h
2607 26-08-2020 01:10:00 21 C 11.54 g/m*3 21 C 6.4 km/h
2608 26-08-2020 01:15:00 21.1 C 11.61 g/m*3 21.1 C 11.3 km/h
2609 26-08-2020 01:20:00 21.2 C 11.68 g/m*3 21.2 C 3.2 km/h
2610 26-08-2020 01:25:00 21.3 C 11.74 g/m*3 21.3 C 3.2 km/h
2611 26-08-2020 01:30:00 21.3 C 11.93 g/m*3 21.3 C 3.2 km/h
2612 26-08-2020 01:35:00 21.2 C 11.86 g/m*3 21.2 C 11.3 km/h
2613 26-08-2020 01:40:00 21.4 C 12.19 g/m*3 21.4 C 12.9 km/h
2614 26-08-2020 01:45:00 21.8 C 12.28 g/m*3 21.8 C 14.5 km/h
2615 26-08-2020 01:50:00 22.2 C 12.57 g/m*3 22.2 C 16.1 km/h
2616 26-08-2020 01:55:00 22.3 C 12.44 g/m*3 22.3 C 8.1 km/h
2617 26-08-2020 02:00:00 22.4 C 12.51 g/m*3 22.4 C 11.3 km/h
2618 26-08-2020 02:05:00 22.5 C 12.58 g/m*3 22.5 C 9.7 km/h
2619 26-08-2020 02:10:00 22.5 C 12.58 g/m*3 22.5 C 19.3 km/h
2620 26-08-2020 02:15:00 22.6 C 12.66 g/m*3 22.6 C 19.3 km/h
2621 26-08-2020 02:20:00 22.5 C 12.58 g/m*3 22.5 C 8.1 km/h
2622 26-08-2020 02:25:00 22.5 C 12.58 g/m*3 22.5 C 12.9 km/h
2623 26-08-2020 02:30:00 22.6 C 12.66 g/m*3 22.6 C 11.3 km/h
2624 26-08-2020 02:35:00 22.6 C 12.46 g/m*3 22.6 C 14.5 km/h
2625 26-08-2020 02:40:00 22.4 C 12.31 g/m*3 22.4 C 9.7 km/h
Sensor: Nr:Datum:Temp:Abs-Feuchte:Windchill:Wind:
Aussen-T/F 2626 26-08-2020 02:45:00 22.4 C 12.51 g/m*3 22.4 C 27.4 km/h
2627 26-08-2020 02:50:00 22.4 C 12.51 g/m*3 22.4 C 29 km/h
2628 26-08-2020 02:55:00 22.5 C 12.58 g/m*3 22.5 C 29 km/h
2629 26-08-2020 03:00:00 22.4 C 12.51 g/m*3 22.4 C 25.7 km/h
2630 26-08-2020 03:05:00 22.3 C 12.44 g/m*3 22.3 C 22.5 km/h
2631 26-08-2020 03:10:00 22.3 C 12.44 g/m*3 22.3 C 25.7 km/h
2632 26-08-2020 03:15:00 22.2 C 12.37 g/m*3 22.2 C 27.4 km/h
2633 26-08-2020 03:20:00 22.1 C 12.49 g/m*3 22.1 C 27.4 km/h
2634 26-08-2020 03:25:00 21.9 C 12.35 g/m*3 21.9 C 17.7 km/h
2635 26-08-2020 03:30:00 21.8 C 12.28 g/m*3 21.8 C 20.9 km/h
2636 26-08-2020 03:35:00 21.7 C 12.21 g/m*3 21.7 C 24.1 km/h
2637 26-08-2020 03:40:00 21.6 C 11.76 g/m*3 21.6 C 35.4 km/h
2638 26-08-2020 03:45:00 21.5 C 11.69 g/m*3 21.5 C 20.9 km/h
2639 26-08-2020 03:50:00 21.3 C 11.74 g/m*3 21.3 C 17.7 km/h
2640 26-08-2020 03:55:00 21.2 C 11.86 g/m*3 21.2 C 14.5 km/h
2641 26-08-2020 04:00:00 21 C 11.72 g/m*3 21 C 19.3 km/h
2642 26-08-2020 04:05:00 20.9 C 11.47 g/m*3 20.9 C 20.9 km/h
2643 26-08-2020 04:10:00 20.8 C 11.41 g/m*3 20.8 C 19.3 km/h
2644 26-08-2020 04:15:00 20.7 C 11.34 g/m*3 20.7 C 25.7 km/h
2645 26-08-2020 04:20:00 20.7 C 11.16 g/m*3 20.7 C 20.9 km/h
2646 26-08-2020 04:25:00 20.6 C 11.1 g/m*3 20.6 C 25.7 km/h
2647 26-08-2020 04:30:00 20.5 C 11.03 g/m*3 20.5 C 16.1 km/h
2648 26-08-2020 04:35:00 20.4 C 11.14 g/m*3 20.4 C 16.1 km/h
2649 26-08-2020 04:40:00 20.3 C 10.73 g/m*3 20.3 C 25.7 km/h
2650 26-08-2020 04:45:00 20.4 C 10.61 g/m*3 20.4 C 24.1 km/h
Sensor: Nr:Datum:Temp:Abs-Feuchte:Windchill:Wind:
Aussen-T/F 2651 26-08-2020 04:50:00 20.4 C 10.44 g/m*3 20.4 C 20.9 km/h
2652 26-08-2020 04:55:00 20.4 C 10.26 g/m*3 20.4 C 25.7 km/h
2653 26-08-2020 05:00:00 20.3 C 10.2 g/m*3 20.3 C 25.7 km/h
2654 26-08-2020 05:05:00 20.3 C 10.38 g/m*3 20.3 C 12.9 km/h
2655 26-08-2020 05:10:00 20.2 C 10.32 g/m*3 20.2 C 16.1 km/h
2656 26-08-2020 05:15:00 20.2 C 10.32 g/m*3 20.2 C 19.3 km/h
2657 26-08-2020 05:20:00 20.2 C 10.32 g/m*3 20.2 C 22.5 km/h
2658 26-08-2020 05:25:00 20.1 C 10.08 g/m*3 20.1 C 24.1 km/h
2659 26-08-2020 05:30:00 20.1 C 10.08 g/m*3 20.1 C 20.9 km/h
2660 26-08-2020 05:35:00 20.1 C 10.26 g/m*3 20.1 C 20.9 km/h
2661 26-08-2020 05:40:00 19.9 C 9.79 g/m*3 19.9 C 27.4 km/h
2662 26-08-2020 05:45:00 19.9 C 9.79 g/m*3 19.9 C 37 km/h
2663 26-08-2020 05:50:00 19.8 C 9.74 g/m*3 19.8 C 22.5 km/h
2664 26-08-2020 05:55:00 19.8 C 9.91 g/m*3 19.8 C 20.9 km/h
2665 26-08-2020 06:00:00 19.8 C 9.74 g/m*3 19.8 C 25.7 km/h
2666 26-08-2020 06:05:00 19.7 C 9.85 g/m*3 19.7 C 19.3 km/h
2667 26-08-2020 06:10:00 19.7 C 9.68 g/m*3 19.7 C 25.7 km/h
2668 26-08-2020 06:15:00 19.7 C 9.68 g/m*3 19.7 C 24.1 km/h
2669 26-08-2020 06:20:00 19.7 C 9.51 g/m*3 19.7 C 35.4 km/h
2670 26-08-2020 06:25:00 19.7 C 9.68 g/m*3 19.7 C 25.7 km/h
2671 26-08-2020 06:30:00 19.6 C 9.62 g/m*3 19.6 C 24.1 km/h
2672 26-08-2020 06:35:00 19.6 C 9.79 g/m*3 19.6 C 19.3 km/h
2673 26-08-2020 06:40:00 19.5 C 9.73 g/m*3 19.5 C 16.1 km/h
2674 26-08-2020 06:45:00 19.4 C 9.84 g/m*3 19.4 C 16.1 km/h
2675 26-08-2020 06:50:00 19.3 C 9.79 g/m*3 19.3 C 12.9 km/h
Sensor: Nr:Datum:Temp:Abs-Feuchte:Windchill:Wind:
Aussen-T/F 2676 26-08-2020 06:55:00 19.3 C 9.95 g/m*3 19.3 C 14.5 km/h
2677 26-08-2020 07:00:00 19.3 C 9.95 g/m*3 19.3 C 17.7 km/h
2678 26-08-2020 07:05:00 19.2 C 9.89 g/m*3 19.2 C 19.3 km/h
2679 26-08-2020 07:10:00 19.2 C 9.56 g/m*3 19.2 C 24.1 km/h
2680 26-08-2020 07:15:00 19.2 C 9.56 g/m*3 19.2 C 17.7 km/h
2681 26-08-2020 07:20:00 19.2 C 9.4 g/m*3 19.2 C 19.3 km/h
2682 26-08-2020 07:25:00 19.2 C 9.4 g/m*3 19.2 C 27.4 km/h
2683 26-08-2020 07:30:00 19.3 C 9.45 g/m*3 19.3 C 22.5 km/h
2684 26-08-2020 07:35:00 19.2 C 9.56 g/m*3 19.2 C 20.9 km/h
2685 26-08-2020 07:40:00 19.2 C 9.56 g/m*3 19.2 C 19.3 km/h
2686 26-08-2020 07:45:00 19.2 C 9.56 g/m*3 19.2 C 22.5 km/h
2687 26-08-2020 07:50:00 19.3 C 9.79 g/m*3 19.3 C 14.5 km/h
2688 26-08-2020 07:55:00 19.2 C 9.56 g/m*3 19.2 C 20.9 km/h
2689 26-08-2020 08:00:00 19.2 C 9.73 g/m*3 19.2 C 17.7 km/h
2690 26-08-2020 08:05:00 19.2 C 9.56 g/m*3 19.2 C 19.3 km/h
2691 26-08-2020 08:10:00 19.3 C 9.79 g/m*3 19.3 C 20.9 km/h
2692 26-08-2020 08:15:00 19.2 C 9.73 g/m*3 19.2 C 19.3 km/h
2693 26-08-2020 08:20:00 19.3 C 9.95 g/m*3 19.3 C 9.7 km/h
2694 26-08-2020 08:25:00 19.3 C 9.79 g/m*3 19.3 C 19.3 km/h
2695 26-08-2020 08:30:00 19.3 C 9.62 g/m*3 19.3 C 20.9 km/h
2696 26-08-2020 08:35:00 19.3 C 9.79 g/m*3 19.3 C 16.1 km/h
2697 26-08-2020 08:40:00 19.3 C 9.79 g/m*3 19.3 C 29 km/h
2698 26-08-2020 08:45:00 19.4 C 9.84 g/m*3 19.4 C 20.9 km/h
2699 26-08-2020 08:50:00 19.4 C 9.84 g/m*3 19.4 C 17.7 km/h
2700 26-08-2020 08:55:00 19.4 C 9.84 g/m*3 19.4 C 22.5 km/h
Sensor: Nr:Datum:Temp:Abs-Feuchte:Windchill:Wind:
Aussen-T/F 2701 26-08-2020 09:00:00 19.4 C 9.84 g/m*3 19.4 C 22.5 km/h
2702 26-08-2020 09:05:00 19.4 C 10.01 g/m*3 19.4 C 14.5 km/h
2703 26-08-2020 09:10:00 19.3 C 9.95 g/m*3 19.3 C 12.9 km/h
2704 26-08-2020 09:15:00 19.3 C 9.95 g/m*3 19.3 C 16.1 km/h
2705 26-08-2020 09:20:00 19.3 C 9.95 g/m*3 19.3 C 19.3 km/h
2706 26-08-2020 09:25:00 19.4 C 10.01 g/m*3 19.4 C 22.5 km/h
2707 26-08-2020 09:30:00 19.5 C 9.9 g/m*3 19.5 C 27.4 km/h
2708 26-08-2020 09:35:00 19.5 C 10.07 g/m*3 19.5 C 14.5 km/h
2709 26-08-2020 09:40:00 19.6 C 10.13 g/m*3 19.6 C 12.9 km/h
2710 26-08-2020 09:45:00 19.5 C 10.07 g/m*3 19.5 C 19.3 km/h
2711 26-08-2020 09:50:00 19.4 C 10.01 g/m*3 19.4 C 19.3 km/h
2712 26-08-2020 09:55:00 19.4 C 10.01 g/m*3 19.4 C 17.7 km/h
2713 26-08-2020 10:00:00 19.5 C 10.07 g/m*3 19.5 C 16.1 km/h
2714 26-08-2020 10:05:00 19.5 C 10.07 g/m*3 19.5 C 19.3 km/h
2715 26-08-2020 10:10:00 19.5 C 10.07 g/m*3 19.5 C 17.7 km/h
2716 26-08-2020 10:15:00 19.6 C 10.13 g/m*3 19.6 C 14.5 km/h
2717 26-08-2020 10:20:00 19.6 C 10.3 g/m*3 19.6 C 17.7 km/h
2718 26-08-2020 10:25:00 19.6 C 10.13 g/m*3 19.6 C 12.9 km/h
2719 26-08-2020 10:30:00 19.6 C 10.13 g/m*3 19.6 C 14.5 km/h
2720 26-08-2020 10:35:00 19.6 C 10.13 g/m*3 19.6 C 17.7 km/h
2721 26-08-2020 10:40:00 19.6 C 10.3 g/m*3 19.6 C 17.7 km/h
2722 26-08-2020 10:45:00 19.5 C 10.07 g/m*3 19.5 C 20.9 km/h
2723 26-08-2020 10:50:00 19.5 C 10.24 g/m*3 19.5 C 24.1 km/h
2724 26-08-2020 10:55:00 19.5 C 10.07 g/m*3 19.5 C 20.9 km/h
2725 26-08-2020 11:00:00 19.5 C 10.24 g/m*3 19.5 C 16.1 km/h
Sensor: Nr:Datum:Temp:Abs-Feuchte:Windchill:Wind:
Aussen-T/F 2726 26-08-2020 11:05:00 19.4 C 10.01 g/m*3 19.4 C 14.5 km/h
2727 26-08-2020 11:10:00 19.4 C 10.01 g/m*3 19.4 C 25.7 km/h
2728 26-08-2020 11:15:00 19.5 C 10.07 g/m*3 19.5 C 17.7 km/h
2729 26-08-2020 11:20:00 19.5 C 10.07 g/m*3 19.5 C 29 km/h
2730 26-08-2020 11:25:00 19.6 C 10.13 g/m*3 19.6 C 19.3 km/h
2731 26-08-2020 11:30:00 19.7 C 10.02 g/m*3 19.7 C 20.9 km/h
2732 26-08-2020 11:35:00 19.8 C 10.08 g/m*3 19.8 C 14.5 km/h
2733 26-08-2020 11:40:00 20 C 10.2 g/m*3 20 C 17.7 km/h
2734 26-08-2020 11:45:00 20.1 C 10.26 g/m*3 20.1 C 20.9 km/h
2735 26-08-2020 11:50:00 20.2 C 10.32 g/m*3 20.2 C 20.9 km/h
2736 26-08-2020 11:55:00 20.2 C 9.97 g/m*3 20.2 C 27.4 km/h
2737 26-08-2020 12:00:00 20.2 C 10.14 g/m*3 20.2 C 19.3 km/h
2738 26-08-2020 12:05:00 20.2 C 10.32 g/m*3 20.2 C 22.5 km/h
2739 26-08-2020 12:10:00 20.2 C 10.49 g/m*3 20.2 C 20.9 km/h
2740 26-08-2020 12:15:00 20.2 C 10.49 g/m*3 20.2 C 19.3 km/h
2741 26-08-2020 12:20:00 20.2 C 10.49 g/m*3 20.2 C 19.3 km/h
2742 26-08-2020 12:25:00 20.1 C 10.6 g/m*3 20.1 C 30.6 km/h
2743 26-08-2020 12:30:00 20 C 10.54 g/m*3 20 C 12.9 km/h
2744 26-08-2020 12:35:00 19.9 C 10.65 g/m*3 19.9 C 14.5 km/h
2745 26-08-2020 12:40:00 20.1 C 10.78 g/m*3 20.1 C 16.1 km/h
2746 26-08-2020 12:45:00 20.1 C 10.78 g/m*3 20.1 C 20.9 km/h
2747 26-08-2020 12:50:00 20.2 C 10.67 g/m*3 20.2 C 19.3 km/h
2748 26-08-2020 12:55:00 20.2 C 10.84 g/m*3 20.2 C 20.9 km/h
2749 26-08-2020 13:00:00 20.2 C 10.84 g/m*3 20.2 C 25.7 km/h
2750 26-08-2020 13:05:00 20.4 C 10.97 g/m*3 20.4 C 12.9 km/h
Sensor: Nr:Datum:Temp:Abs-Feuchte:Windchill:Wind:
Aussen-T/F 2751 26-08-2020 13:10:00 20.7 C 10.98 g/m*3 20.7 C 19.3 km/h
2752 26-08-2020 13:15:00 20.8 C 10.86 g/m*3 20.8 C 20.9 km/h
2753 26-08-2020 13:20:00 20.8 C 10.86 g/m*3 20.8 C 24.1 km/h
2754 26-08-2020 13:25:00 20.7 C 10.8 g/m*3 20.7 C 17.7 km/h
2755 26-08-2020 13:30:00 21 C 10.99 g/m*3 21 C 20.9 km/h
2756 26-08-2020 13:35:00 21.3 C 11 g/m*3 21.3 C 29 km/h
2757 26-08-2020 13:40:00 21.6 C 10.81 g/m*3 21.6 C 24.1 km/h
2758 26-08-2020 13:45:00 21.6 C 10.62 g/m*3 21.6 C 22.5 km/h
2759 26-08-2020 13:50:00 21.6 C 10.81 g/m*3 21.6 C 24.1 km/h
2760 26-08-2020 13:55:00 21.6 C 10.81 g/m*3 21.6 C 20.9 km/h
2761 26-08-2020 14:00:00 21.6 C 10.62 g/m*3 21.6 C 22.5 km/h
2762 26-08-2020 14:05:00 21.5 C 10.56 g/m*3 21.5 C 22.5 km/h
2763 26-08-2020 14:10:00 21.4 C 10.69 g/m*3 21.4 C 17.7 km/h
2764 26-08-2020 14:15:00 21.5 C 10.56 g/m*3 21.5 C 20.9 km/h
2765 26-08-2020 14:20:00 21.6 C 10.62 g/m*3 21.6 C 20.9 km/h
2766 26-08-2020 14:25:00 21.6 C 10.24 g/m*3 21.6 C 22.5 km/h
2767 26-08-2020 14:30:00 21.7 C 10.49 g/m*3 21.7 C 17.7 km/h
2768 26-08-2020 14:35:00 21.8 C 10.74 g/m*3 21.8 C 19.3 km/h
2769 26-08-2020 14:40:00 21.9 C 10.42 g/m*3 21.9 C 20.9 km/h
2770 26-08-2020 14:45:00 21.9 C 10.42 g/m*3 21.9 C 14.5 km/h
2771 26-08-2020 14:50:00 21.8 C 10.55 g/m*3 21.8 C 16.1 km/h
2772 26-08-2020 14:55:00 21.8 C 10.17 g/m*3 21.8 C 37 km/h
2773 26-08-2020 15:00:00 21.8 C 10.17 g/m*3 21.8 C 20.9 km/h
2774 26-08-2020 15:05:00 21.9 C 10.23 g/m*3 21.9 C 22.5 km/h
2775 26-08-2020 15:10:00 22.1 C 10.54 g/m*3 22.1 C 19.3 km/h
Sensor: Nr:Datum:Temp:Abs-Feuchte:Windchill:Wind:
Aussen-T/F 2776 26-08-2020 15:15:00 22.2 C 10.41 g/m*3 22.2 C 20.9 km/h
2777 26-08-2020 15:20:00 22.1 C 10.35 g/m*3 22.1 C 19.3 km/h
2778 26-08-2020 15:25:00 22.2 C 10.41 g/m*3 22.2 C 22.5 km/h
2779 26-08-2020 15:30:00 22.5 C 10.39 g/m*3 22.5 C 24.1 km/h
2780 26-08-2020 15:35:00 22.7 C 10.3 g/m*3 22.7 C 22.5 km/h
2781 26-08-2020 15:40:00 22.8 C 10.57 g/m*3 22.8 C 22.5 km/h
2782 26-08-2020 15:45:00 23.2 C 10.6 g/m*3 23.2 C 20.9 km/h
2783 26-08-2020 15:50:00 23.2 C 10.39 g/m*3 23.2 C 16.1 km/h
2784 26-08-2020 15:55:00 23.2 C 10.19 g/m*3 23.2 C 22.5 km/h
2785 26-08-2020 16:00:00 23 C 10.28 g/m*3 23 C 19.3 km/h
2786 26-08-2020 16:05:00 22.8 C 10.36 g/m*3 22.8 C 19.3 km/h
2787 26-08-2020 16:10:00 22.8 C 10.16 g/m*3 22.8 C 33.8 km/h
2788 26-08-2020 16:15:00 22.8 C 10.16 g/m*3 22.8 C 33.8 km/h
2789 26-08-2020 16:20:00 22.9 C 10.22 g/m*3 22.9 C 29 km/h
2790 26-08-2020 16:25:00 22.8 C 10.16 g/m*3 22.8 C 35.4 km/h
2791 26-08-2020 16:30:00 22.7 C 10.3 g/m*3 22.7 C 30.6 km/h
2792 26-08-2020 16:35:00 23 C 10.28 g/m*3 23 C 29 km/h
2793 26-08-2020 16:40:00 23.4 C 10.09 g/m*3 23.4 C 24.1 km/h
2794 26-08-2020 16:45:00 23.3 C 10.25 g/m*3 23.3 C 27.4 km/h
2795 26-08-2020 16:50:00 23.1 C 10.13 g/m*3 23.1 C 24.1 km/h
2796 26-08-2020 16:55:00 22.9 C 10.42 g/m*3 22.9 C 17.7 km/h
2797 26-08-2020 17:00:00 22.8 C 10.36 g/m*3 22.8 C 16.1 km/h
2798 26-08-2020 17:05:00 22.8 C 10.36 g/m*3 22.8 C 20.9 km/h
2799 26-08-2020 17:10:00 22.8 C 10.16 g/m*3 22.8 C 19.3 km/h
2800 26-08-2020 17:15:00 22.8 C 10.36 g/m*3 22.8 C 17.7 km/h
Sensor: Nr:Datum:Temp:Abs-Feuchte:Windchill:Wind:
Aussen-T/F 2801 26-08-2020 17:20:00 22.7 C 10.1 g/m*3 22.7 C 24.1 km/h
2802 26-08-2020 17:25:00 22.7 C 10.1 g/m*3 22.7 C 22.5 km/h
2803 26-08-2020 17:30:00 22.7 C 10.3 g/m*3 22.7 C 20.9 km/h
2804 26-08-2020 17:35:00 22.7 C 10.1 g/m*3 22.7 C 17.7 km/h
2805 26-08-2020 17:40:00 22.7 C 10.1 g/m*3 22.7 C 19.3 km/h
2806 26-08-2020 17:45:00 22.6 C 10.04 g/m*3 22.6 C 25.7 km/h
2807 26-08-2020 17:50:00 22.6 C 10.04 g/m*3 22.6 C 19.3 km/h
2808 26-08-2020 17:55:00 22.6 C 10.25 g/m*3 22.6 C 19.3 km/h
2809 26-08-2020 18:00:00 22.6 C 10.25 g/m*3 22.6 C 19.3 km/h
2810 26-08-2020 18:05:00 22.5 C 10.19 g/m*3 22.5 C 19.3 km/h
2811 26-08-2020 18:10:00 22.6 C 10.25 g/m*3 22.6 C 19.3 km/h
2812 26-08-2020 18:15:00 22.6 C 10.25 g/m*3 22.6 C 19.3 km/h
2813 26-08-2020 18:20:00 22.5 C 9.99 g/m*3 22.5 C 25.7 km/h
2814 26-08-2020 18:25:00 22.4 C 10.13 g/m*3 22.4 C 20.9 km/h
2815 26-08-2020 18:30:00 22.3 C 10.27 g/m*3 22.3 C 16.1 km/h
2816 26-08-2020 18:35:00 22.3 C 10.27 g/m*3 22.3 C 19.3 km/h
2817 26-08-2020 18:40:00 22.2 C 10.21 g/m*3 22.2 C 19.3 km/h
2818 26-08-2020 18:45:00 22.1 C 10.15 g/m*3 22.1 C 19.3 km/h
2819 26-08-2020 18:50:00 22.1 C 10.15 g/m*3 22.1 C 19.3 km/h
2820 26-08-2020 18:55:00 22 C 10.09 g/m*3 22 C 16.1 km/h
2821 26-08-2020 19:00:00 21.9 C 10.23 g/m*3 21.9 C 17.7 km/h
2822 26-08-2020 19:05:00 21.9 C 10.23 g/m*3 21.9 C 16.1 km/h
2823 26-08-2020 19:10:00 21.8 C 10.17 g/m*3 21.8 C 16.1 km/h
2824 26-08-2020 19:15:00 21.7 C 10.3 g/m*3 21.7 C 14.5 km/h
2825 26-08-2020 19:20:00 21.6 C 10.24 g/m*3 21.6 C 17.7 km/h
Sensor: Nr:Datum:Temp:Abs-Feuchte:Windchill:Wind:
Aussen-T/F 2826 26-08-2020 19:25:00 21.6 C 10.43 g/m*3 21.6 C 12.9 km/h
2827 26-08-2020 19:30:00 21.5 C 10.37 g/m*3 21.5 C 16.1 km/h
2828 26-08-2020 19:35:00 21.4 C 10.31 g/m*3 21.4 C 12.9 km/h
2829 26-08-2020 19:40:00 21.3 C 10.44 g/m*3 21.3 C 11.3 km/h
2830 26-08-2020 19:45:00 21.3 C 10.44 g/m*3 21.3 C 14.5 km/h
2831 26-08-2020 19:50:00 21.2 C 10.56 g/m*3 21.2 C 12.9 km/h
2832 26-08-2020 19:55:00 21.1 C 10.5 g/m*3 21.1 C 14.5 km/h
2833 26-08-2020 20:00:00 21 C 10.62 g/m*3 21 C 14.5 km/h
2834 26-08-2020 20:05:00 20.9 C 10.56 g/m*3 20.9 C 19.3 km/h
2835 26-08-2020 20:10:00 20.8 C 10.5 g/m*3 20.8 C 19.3 km/h
2836 26-08-2020 20:15:00 20.8 C 10.68 g/m*3 20.8 C 22.5 km/h
2837 26-08-2020 20:20:00 20.7 C 10.62 g/m*3 20.7 C 17.7 km/h
2838 26-08-2020 20:25:00 20.7 C 10.8 g/m*3 20.7 C 11.3 km/h
2839 26-08-2020 20:30:00 20.6 C 10.74 g/m*3 20.6 C 9.7 km/h
2840 26-08-2020 20:35:00 20.6 C 10.74 g/m*3 20.6 C 12.9 km/h
2841 26-08-2020 20:40:00 20.4 C 10.61 g/m*3 20.4 C 11.3 km/h
2842 26-08-2020 20:45:00 20.3 C 10.55 g/m*3 20.3 C 19.3 km/h
2843 26-08-2020 20:50:00 20.3 C 10.73 g/m*3 20.3 C 17.7 km/h
2844 26-08-2020 20:55:00 20.2 C 10.67 g/m*3 20.2 C 16.1 km/h
2845 26-08-2020 21:00:00 20.2 C 10.84 g/m*3 20.2 C 12.9 km/h
2846 26-08-2020 21:05:00 20.1 C 10.78 g/m*3 20.1 C 22.5 km/h
2847 26-08-2020 21:10:00 20 C 10.54 g/m*3 20 C 11.3 km/h
2848 26-08-2020 21:15:00 19.9 C 10.48 g/m*3 19.9 C 16.1 km/h
2849 26-08-2020 21:20:00 19.9 C 10.48 g/m*3 19.9 C 12.9 km/h
2850 26-08-2020 21:25:00 19.9 C 10.48 g/m*3 19.9 C 16.1 km/h
Sensor: Nr:Datum:Temp:Abs-Feuchte:Windchill:Wind:
Aussen-T/F 2851 26-08-2020 21:30:00 19.9 C 10.48 g/m*3 19.9 C 17.7 km/h
2852 26-08-2020 21:35:00 19.9 C 10.48 g/m*3 19.9 C 14.5 km/h
2853 26-08-2020 21:40:00 19.9 C 10.65 g/m*3 19.9 C 9.7 km/h
2854 26-08-2020 21:45:00 19.9 C 10.65 g/m*3 19.9 C 8.1 km/h
2855 26-08-2020 21:50:00 19.8 C 10.59 g/m*3 19.8 C 12.9 km/h
2856 26-08-2020 21:55:00 19.8 C 10.59 g/m*3 19.8 C 11.3 km/h
2857 26-08-2020 22:00:00 19.7 C 10.53 g/m*3 19.7 C 11.3 km/h
2858 26-08-2020 22:05:00 19.7 C 10.53 g/m*3 19.7 C 11.3 km/h
2859 26-08-2020 22:10:00 19.6 C 10.47 g/m*3 19.6 C 11.3 km/h
2860 26-08-2020 22:15:00 19.6 C 10.64 g/m*3 19.6 C 8.1 km/h
2861 26-08-2020 22:20:00 19.6 C 10.64 g/m*3 19.6 C 0 km/h
2862 26-08-2020 22:25:00 19.4 C 10.51 g/m*3 19.4 C 4.8 km/h
2863 26-08-2020 22:30:00 19.3 C 10.45 g/m*3 19.3 C 12.9 km/h
2864 26-08-2020 22:35:00 19.3 C 10.62 g/m*3 19.3 C 6.4 km/h
2865 26-08-2020 22:40:00 19.3 C 10.62 g/m*3 19.3 C 4.8 km/h
2866 26-08-2020 22:45:00 19.2 C 10.55 g/m*3 19.2 C 1.6 km/h
2867 26-08-2020 22:50:00 19.2 C 10.72 g/m*3 19.2 C 8.1 km/h
2868 26-08-2020 22:55:00 19.1 C 10.66 g/m*3 19.1 C 3.2 km/h
2869 26-08-2020 23:00:00 19 C 10.59 g/m*3 19 C 4.8 km/h
2870 26-08-2020 23:05:00 18.9 C 10.53 g/m*3 18.9 C 3.2 km/h
2871 26-08-2020 23:10:00 18.9 C 10.69 g/m*3 18.9 C 0 km/h
2872 26-08-2020 23:15:00 18.9 C 10.69 g/m*3 18.9 C 6.4 km/h
2873 26-08-2020 23:20:00 18.8 C 10.79 g/m*3 18.8 C 0 km/h
2874 26-08-2020 23:25:00 18.8 C 10.79 g/m*3 18.8 C 1.6 km/h
2875 26-08-2020 23:30:00 18.7 C 10.73 g/m*3 18.7 C 0 km/h
Sensor: Nr:Datum:Temp:Abs-Feuchte:Windchill:Wind:
Aussen-T/F 2876 26-08-2020 23:35:00 18.6 C 10.66 g/m*3 18.6 C 3.2 km/h
2877 26-08-2020 23:40:00 18.6 C 10.82 g/m*3 18.6 C 3.2 km/h
2878 26-08-2020 23:45:00 18.4 C 10.54 g/m*3 18.4 C 3.2 km/h
2879 26-08-2020 23:50:00 18.4 C 10.7 g/m*3 18.4 C 0 km/h
2880 26-08-2020 23:55:00 18.3 C 10.63 g/m*3 18.3 C 3.2 km/h
2881 27-08-2020 00:00:00 18.3 C 10.63 g/m*3 18.3 C 6.4 km/h
2882 27-08-2020 00:05:00 18.3 C 10.79 g/m*3 18.3 C 4.8 km/h
2883 27-08-2020 00:10:00 18.3 C 10.79 g/m*3 18.3 C 4.8 km/h
2884 27-08-2020 00:15:00 18.2 C 10.57 g/m*3 18.2 C 6.4 km/h
2885 27-08-2020 00:20:00 18.2 C 10.72 g/m*3 18.2 C 3.2 km/h
2886 27-08-2020 00:25:00 18.1 C 10.66 g/m*3 18.1 C 9.7 km/h
2887 27-08-2020 00:30:00 18.1 C 10.66 g/m*3 18.1 C 9.7 km/h
2888 27-08-2020 00:35:00 18 C 10.75 g/m*3 18 C 1.6 km/h
2889 27-08-2020 00:40:00 17.9 C 10.69 g/m*3 17.9 C 1.6 km/h
2890 27-08-2020 00:45:00 17.8 C 10.62 g/m*3 17.8 C 3.2 km/h
2891 27-08-2020 00:50:00 17.8 C 10.78 g/m*3 17.8 C 0 km/h
2892 27-08-2020 00:55:00 17.7 C 10.71 g/m*3 17.7 C 4.8 km/h
2893 27-08-2020 01:00:00 17.7 C 10.71 g/m*3 17.7 C 4.8 km/h
2894 27-08-2020 01:05:00 17.7 C 10.71 g/m*3 17.7 C 4.8 km/h
2895 27-08-2020 01:10:00 17.7 C 10.86 g/m*3 17.7 C 4.8 km/h
2896 27-08-2020 01:15:00 17.6 C 10.8 g/m*3 17.6 C 1.6 km/h
2897 27-08-2020 01:20:00 17.6 C 10.8 g/m*3 17.6 C 1.6 km/h
2898 27-08-2020 01:25:00 17.5 C 10.73 g/m*3 17.5 C 0 km/h
2899 27-08-2020 01:30:00 17.4 C 10.82 g/m*3 17.4 C 1.6 km/h
2900 27-08-2020 01:35:00 17.2 C 10.69 g/m*3 17.2 C 1.6 km/h
Sensor: Nr:Datum:Temp:Abs-Feuchte:Windchill:Wind:
Aussen-T/F 2901 27-08-2020 01:40:00 17.1 C 10.63 g/m*3 17.1 C 0 km/h
2902 27-08-2020 01:45:00 16.9 C 10.64 g/m*3 16.9 C 1.6 km/h
2903 27-08-2020 01:50:00 16.8 C 10.72 g/m*3 16.8 C 3.2 km/h
2904 27-08-2020 01:55:00 16.6 C 10.74 g/m*3 16.6 C 3.2 km/h
2905 27-08-2020 02:00:00 16.4 C 10.61 g/m*3 16.4 C 0 km/h
2906 27-08-2020 02:05:00 16.3 C 10.68 g/m*3 16.3 C 1.6 km/h
2907 27-08-2020 02:10:00 16.2 C 10.76 g/m*3 16.2 C 0 km/h
2908 27-08-2020 02:15:00 16.1 C 10.69 g/m*3 16.1 C 0 km/h
2909 27-08-2020 02:20:00 16.1 C 10.83 g/m*3 16.1 C 0 km/h
2910 27-08-2020 02:25:00 16.1 C 10.83 g/m*3 16.1 C 1.6 km/h
2911 27-08-2020 02:30:00 16.1 C 10.83 g/m*3 16.1 C 3.2 km/h
2912 27-08-2020 02:35:00 16.1 C 10.83 g/m*3 16.1 C 4.8 km/h
2913 27-08-2020 02:40:00 16.1 C 10.83 g/m*3 16.1 C 4.8 km/h
2914 27-08-2020 02:45:00 16.2 C 10.89 g/m*3 16.2 C 6.4 km/h
2915 27-08-2020 02:50:00 16.2 C 10.89 g/m*3 16.2 C 3.2 km/h
2916 27-08-2020 02:55:00 16.2 C 10.89 g/m*3 16.2 C 3.2 km/h
2917 27-08-2020 03:00:00 16.2 C 10.76 g/m*3 16.2 C 1.6 km/h
2918 27-08-2020 03:05:00 16.1 C 10.83 g/m*3 16.1 C 4.8 km/h
2919 27-08-2020 03:10:00 16 C 10.76 g/m*3 16 C 1.6 km/h
2920 27-08-2020 03:15:00 15.9 C 10.7 g/m*3 15.9 C 1.6 km/h
2921 27-08-2020 03:20:00 15.7 C 10.57 g/m*3 15.7 C 4.8 km/h
2922 27-08-2020 03:25:00 15.6 C 10.64 g/m*3 15.6 C 0 km/h
2923 27-08-2020 03:30:00 15.4 C 10.51 g/m*3 15.4 C 3.2 km/h
2924 27-08-2020 03:35:00 15.3 C 10.58 g/m*3 15.3 C 1.6 km/h
2925 27-08-2020 03:40:00 15.2 C 10.51 g/m*3 15.2 C 0 km/h
Sensor: Nr:Datum:Temp:Abs-Feuchte:Windchill:Wind:
Aussen-T/F 2926 27-08-2020 03:45:00 15 C 10.51 g/m*3 15 C 0 km/h
2927 27-08-2020 03:50:00 14.8 C 10.39 g/m*3 14.8 C 0 km/h
2928 27-08-2020 03:55:00 14.7 C 10.32 g/m*3 14.7 C 0 km/h
2929 27-08-2020 04:00:00 14.6 C 10.39 g/m*3 14.6 C 1.6 km/h
2930 27-08-2020 04:05:00 14.4 C 10.38 g/m*3 14.4 C 3.2 km/h
2931 27-08-2020 04:10:00 14.3 C 10.32 g/m*3 14.3 C 1.6 km/h
2932 27-08-2020 04:15:00 14.3 C 10.32 g/m*3 14.3 C 0 km/h
2933 27-08-2020 04:20:00 14.2 C 10.38 g/m*3 14.2 C 1.6 km/h
2934 27-08-2020 04:25:00 14.1 C 10.32 g/m*3 14.1 C 3.2 km/h
2935 27-08-2020 04:30:00 13.9 C 10.31 g/m*3 13.9 C 1.6 km/h
2936 27-08-2020 04:35:00 13.9 C 10.31 g/m*3 13.9 C 0 km/h
2937 27-08-2020 04:40:00 13.8 C 10.37 g/m*3 13.8 C 1.6 km/h
2938 27-08-2020 04:45:00 13.8 C 10.37 g/m*3 13.8 C 0 km/h
2939 27-08-2020 04:50:00 13.7 C 10.3 g/m*3 13.7 C 1.6 km/h
2940 27-08-2020 04:55:00 13.7 C 10.3 g/m*3 13.7 C 0 km/h
2941 27-08-2020 05:00:00 13.6 C 10.24 g/m*3 13.6 C 0 km/h
2942 27-08-2020 05:05:00 13.6 C 10.24 g/m*3 13.6 C 0 km/h
2943 27-08-2020 05:10:00 13.4 C 10.11 g/m*3 13.4 C 0 km/h
2944 27-08-2020 05:15:00 13.3 C 10.17 g/m*3 13.3 C 0 km/h
2945 27-08-2020 05:20:00 13.2 C 10.1 g/m*3 13.2 C 0 km/h
2946 27-08-2020 05:25:00 13.2 C 10.1 g/m*3 13.2 C 0 km/h
2947 27-08-2020 05:30:00 13.1 C 10.16 g/m*3 13.1 C 0 km/h
2948 27-08-2020 05:35:00 13.1 C 10.16 g/m*3 13.1 C 0 km/h
2949 27-08-2020 05:40:00 13.1 C 10.16 g/m*3 13.1 C 0 km/h
2950 27-08-2020 05:45:00 13.1 C 10.27 g/m*3 13.1 C 0 km/h
Sensor: Nr:Datum:Temp:Abs-Feuchte:Windchill:Wind:
Aussen-T/F 2951 27-08-2020 05:50:00 13.1 C 10.16 g/m*3 13.1 C 0 km/h
2952 27-08-2020 05:55:00 13 C 10.09 g/m*3 13 C 0 km/h
2953 27-08-2020 06:00:00 12.9 C 10.03 g/m*3 12.9 C 0 km/h
2954 27-08-2020 06:05:00 12.9 C 10.14 g/m*3 12.9 C 0 km/h
2955 27-08-2020 06:10:00 12.8 C 10.08 g/m*3 12.8 C 0 km/h
2956 27-08-2020 06:15:00 12.8 C 10.08 g/m*3 12.8 C 0 km/h
2957 27-08-2020 06:20:00 12.8 C 10.08 g/m*3 12.8 C 0 km/h
2958 27-08-2020 06:25:00 12.8 C 10.08 g/m*3 12.8 C 0 km/h
2959 27-08-2020 06:30:00 12.8 C 10.08 g/m*3 12.8 C 1.6 km/h
2960 27-08-2020 06:35:00 12.8 C 10.19 g/m*3 12.8 C 1.6 km/h
2961 27-08-2020 06:40:00 12.8 C 10.19 g/m*3 12.8 C 4.8 km/h
2962 27-08-2020 06:45:00 12.8 C 10.19 g/m*3 12.8 C 1.6 km/h
2963 27-08-2020 06:50:00 12.8 C 10.19 g/m*3 12.8 C 1.6 km/h
2964 27-08-2020 06:55:00 12.7 C 10.02 g/m*3 12.7 C 0 km/h
2965 27-08-2020 07:00:00 12.7 C 10.02 g/m*3 12.7 C 1.6 km/h
2966 27-08-2020 07:05:00 12.6 C 10.07 g/m*3 12.6 C 3.2 km/h
2967 27-08-2020 07:10:00 12.6 C 10.07 g/m*3 12.6 C 3.2 km/h
2968 27-08-2020 07:15:00 12.6 C 10.07 g/m*3 12.6 C 1.6 km/h
2969 27-08-2020 07:20:00 12.7 C 10.24 g/m*3 12.7 C 4.8 km/h
2970 27-08-2020 07:25:00 12.7 C 10.24 g/m*3 12.7 C 9.7 km/h
2971 27-08-2020 07:30:00 12.8 C 10.19 g/m*3 12.8 C 4.8 km/h
2972 27-08-2020 07:35:00 12.8 C 10.19 g/m*3 12.8 C 4.8 km/h
2973 27-08-2020 07:40:00 12.9 C 10.26 g/m*3 12.9 C 1.6 km/h
2974 27-08-2020 07:45:00 12.9 C 10.26 g/m*3 12.9 C 4.8 km/h
2975 27-08-2020 07:50:00 12.9 C 10.26 g/m*3 12.9 C 3.2 km/h
Sensor: Nr:Datum:Temp:Abs-Feuchte:Windchill:Wind:
Aussen-T/F 2976 27-08-2020 07:55:00 13 C 10.32 g/m*3 13 C 1.6 km/h
2977 27-08-2020 08:00:00 13 C 10.32 g/m*3 13 C 0 km/h
2978 27-08-2020 08:05:00 13.1 C 10.38 g/m*3 13.1 C 0 km/h
2979 27-08-2020 08:10:00 13.1 C 10.38 g/m*3 13.1 C 1.6 km/h
2980 27-08-2020 08:15:00 13.2 C 10.45 g/m*3 13.2 C 1.6 km/h
2981 27-08-2020 08:20:00 13.2 C 10.45 g/m*3 13.2 C 3.2 km/h
2982 27-08-2020 08:25:00 13.4 C 10.58 g/m*3 13.4 C 8.1 km/h
2983 27-08-2020 08:30:00 13.7 C 10.66 g/m*3 13.7 C 8.1 km/h
2984 27-08-2020 08:35:00 13.9 C 10.55 g/m*3 13.9 C 9.7 km/h
2985 27-08-2020 08:40:00 14.1 C 10.68 g/m*3 14.1 C 1.6 km/h
2986 27-08-2020 08:45:00 14.3 C 10.81 g/m*3 14.3 C 4.8 km/h
2987 27-08-2020 08:50:00 14.5 C 10.82 g/m*3 14.5 C 6.4 km/h
2988 27-08-2020 08:55:00 14.8 C 10.89 g/m*3 14.8 C 8.1 km/h
2989 27-08-2020 09:00:00 14.9 C 10.83 g/m*3 14.9 C 8.1 km/h
2990 27-08-2020 09:05:00 15.2 C 11.03 g/m*3 15.2 C 8.1 km/h
2991 27-08-2020 09:10:00 15.4 C 11.04 g/m*3 15.4 C 8.1 km/h
2992 27-08-2020 09:15:00 15.6 C 11.04 g/m*3 15.6 C 9.7 km/h
2993 27-08-2020 09:20:00 15.8 C 11.04 g/m*3 15.8 C 9.7 km/h
2994 27-08-2020 09:25:00 15.9 C 10.97 g/m*3 15.9 C 9.7 km/h
2995 27-08-2020 09:30:00 16.1 C 11.1 g/m*3 16.1 C 8.1 km/h
2996 27-08-2020 09:35:00 16.3 C 11.24 g/m*3 16.3 C 11.3 km/h
2997 27-08-2020 09:40:00 16.4 C 11.17 g/m*3 16.4 C 9.7 km/h
2998 27-08-2020 09:45:00 16.6 C 11.16 g/m*3 16.6 C 11.3 km/h
2999 27-08-2020 09:50:00 16.7 C 11.23 g/m*3 16.7 C 11.3 km/h
3000 27-08-2020 09:55:00 16.8 C 11.15 g/m*3 16.8 C 9.7 km/h
Sensor: Nr:Datum:Temp:Abs-Feuchte:Windchill:Wind:
Aussen-T/F 3001 27-08-2020 10:00:00 16.8 C 11.15 g/m*3 16.8 C 9.7 km/h
3002 27-08-2020 10:05:00 16.8 C 11.15 g/m*3 16.8 C 8.1 km/h
3003 27-08-2020 10:10:00 16.7 C 11.23 g/m*3 16.7 C 8.1 km/h
3004 27-08-2020 10:15:00 16.8 C 11.29 g/m*3 16.8 C 6.4 km/h
3005 27-08-2020 10:20:00 16.8 C 11.29 g/m*3 16.8 C 6.4 km/h
3006 27-08-2020 10:25:00 17 C 11.29 g/m*3 17 C 6.4 km/h
3007 27-08-2020 10:30:00 17.2 C 11.28 g/m*3 17.2 C 8.1 km/h
3008 27-08-2020 10:35:00 17.3 C 11.34 g/m*3 17.3 C 6.4 km/h
3009 27-08-2020 10:40:00 17.4 C 11.41 g/m*3 17.4 C 4.8 km/h
3010 27-08-2020 10:45:00 17.7 C 11.47 g/m*3 17.7 C 4.8 km/h
3011 27-08-2020 10:50:00 17.9 C 11.45 g/m*3 17.9 C 4.8 km/h
3012 27-08-2020 10:55:00 18.1 C 11.74 g/m*3 18.1 C 1.6 km/h
3013 27-08-2020 11:00:00 18.3 C 11.57 g/m*3 18.3 C 3.2 km/h
3014 27-08-2020 11:05:00 18.6 C 11.78 g/m*3 18.6 C 4.8 km/h
3015 27-08-2020 11:10:00 18.7 C 11.37 g/m*3 18.7 C 8.1 km/h
3016 27-08-2020 11:15:00 18.8 C 11.6 g/m*3 18.8 C 6.4 km/h
3017 27-08-2020 11:20:00 18.9 C 11.5 g/m*3 18.9 C 8.1 km/h
3018 27-08-2020 11:25:00 19 C 11.41 g/m*3 19 C 9.7 km/h
3019 27-08-2020 11:30:00 19 C 11.41 g/m*3 19 C 9.7 km/h
3020 27-08-2020 11:35:00 19 C 11.24 g/m*3 19 C 6.4 km/h
3021 27-08-2020 11:40:00 19.1 C 11.47 g/m*3 19.1 C 6.4 km/h
3022 27-08-2020 11:45:00 19.1 C 11.31 g/m*3 19.1 C 8.1 km/h
3023 27-08-2020 11:50:00 19.1 C 11.31 g/m*3 19.1 C 6.4 km/h
3024 27-08-2020 11:55:00 19.2 C 11.21 g/m*3 19.2 C 1.6 km/h
3025 27-08-2020 12:00:00 19.3 C 11.28 g/m*3 19.3 C 9.7 km/h
Sensor: Nr:Datum:Temp:Abs-Feuchte:Windchill:Wind:
Aussen-T/F 3026 27-08-2020 12:05:00 19.3 C 11.44 g/m*3 19.3 C 4.8 km/h
3027 27-08-2020 12:10:00 19.4 C 11.18 g/m*3 19.4 C 6.4 km/h
3028 27-08-2020 12:15:00 19.4 C 11.01 g/m*3 19.4 C 3.2 km/h
3029 27-08-2020 12:20:00 19.4 C 11.01 g/m*3 19.4 C 1.6 km/h
3030 27-08-2020 12:25:00 19.5 C 10.91 g/m*3 19.5 C 4.8 km/h
3031 27-08-2020 12:30:00 19.5 C 10.91 g/m*3 19.5 C 6.4 km/h
3032 27-08-2020 12:35:00 19.6 C 10.8 g/m*3 19.6 C 11.3 km/h
3033 27-08-2020 12:40:00 19.5 C 10.91 g/m*3 19.5 C 4.8 km/h
3034 27-08-2020 12:45:00 19.6 C 10.8 g/m*3 19.6 C 0 km/h
3035 27-08-2020 12:50:00 19.7 C 11.04 g/m*3 19.7 C 6.4 km/h
3036 27-08-2020 12:55:00 19.8 C 10.93 g/m*3 19.8 C 3.2 km/h
3037 27-08-2020 13:00:00 19.8 C 11.1 g/m*3 19.8 C 3.2 km/h
3038 27-08-2020 13:05:00 19.9 C 10.82 g/m*3 19.9 C 11.3 km/h
3039 27-08-2020 13:10:00 20 C 10.89 g/m*3 20 C 8.1 km/h
3040 27-08-2020 13:15:00 20.1 C 10.95 g/m*3 20.1 C 12.9 km/h
3041 27-08-2020 13:20:00 20 C 10.71 g/m*3 20 C 6.4 km/h
3042 27-08-2020 13:25:00 19.9 C 11 g/m*3 19.9 C 8.1 km/h
3043 27-08-2020 13:30:00 20.1 C 10.78 g/m*3 20.1 C 16.1 km/h
3044 27-08-2020 13:35:00 20.2 C 10.84 g/m*3 20.2 C 11.3 km/h
3045 27-08-2020 13:40:00 20.3 C 10.73 g/m*3 20.3 C 11.3 km/h
3046 27-08-2020 13:45:00 20.3 C 10.9 g/m*3 20.3 C 8.1 km/h
3047 27-08-2020 13:50:00 20.4 C 10.79 g/m*3 20.4 C 8.1 km/h
3048 27-08-2020 13:55:00 20.5 C 10.68 g/m*3 20.5 C 6.4 km/h
3049 27-08-2020 14:00:00 20.7 C 10.98 g/m*3 20.7 C 12.9 km/h
3050 27-08-2020 14:05:00 20.9 C 10.56 g/m*3 20.9 C 9.7 km/h
Sensor: Nr:Datum:Temp:Abs-Feuchte:Windchill:Wind:
Aussen-T/F 3051 27-08-2020 14:10:00 21.2 C 10.75 g/m*3 21.2 C 8.1 km/h
3052 27-08-2020 14:15:00 21.3 C 10.81 g/m*3 21.3 C 12.9 km/h
3053 27-08-2020 14:20:00 21.3 C 10.62 g/m*3 21.3 C 4.8 km/h
3054 27-08-2020 14:25:00 21.4 C 10.69 g/m*3 21.4 C 9.7 km/h
3055 27-08-2020 14:30:00 21.6 C 10.81 g/m*3 21.6 C 8.1 km/h
3056 27-08-2020 14:35:00 21.5 C 10.56 g/m*3 21.5 C 9.7 km/h
3057 27-08-2020 14:40:00 21.5 C 10.56 g/m*3 21.5 C 4.8 km/h
3058 27-08-2020 14:45:00 21.5 C 10.37 g/m*3 21.5 C 6.4 km/h
3059 27-08-2020 14:50:00 21.4 C 10.5 g/m*3 21.4 C 0 km/h
3060 27-08-2020 14:55:00 21.4 C 10.5 g/m*3 21.4 C 0 km/h
3061 27-08-2020 15:00:00 21.7 C 10.68 g/m*3 21.7 C 9.7 km/h
3062 27-08-2020 15:05:00 22.1 C 10.54 g/m*3 22.1 C 6.4 km/h
3063 27-08-2020 15:10:00 22.3 C 10.27 g/m*3 22.3 C 11.3 km/h
3064 27-08-2020 15:15:00 22.4 C 10.33 g/m*3 22.4 C 22.5 km/h
3065 27-08-2020 15:20:00 22.6 C 10.04 g/m*3 22.6 C 11.3 km/h
3066 27-08-2020 15:25:00 22.6 C 10.04 g/m*3 22.6 C 11.3 km/h
3067 27-08-2020 15:30:00 22.6 C 10.25 g/m*3 22.6 C 8.1 km/h
3068 27-08-2020 15:35:00 22.6 C 10.25 g/m*3 22.6 C 9.7 km/h
3069 27-08-2020 15:40:00 22.8 C 10.36 g/m*3 22.8 C 9.7 km/h
3070 27-08-2020 15:45:00 23 C 10.28 g/m*3 23 C 11.3 km/h
3071 27-08-2020 15:50:00 23.1 C 10.13 g/m*3 23.1 C 14.5 km/h
3072 27-08-2020 15:55:00 23.3 C 10.25 g/m*3 23.3 C 8.1 km/h
3073 27-08-2020 16:00:00 23.5 C 10.15 g/m*3 23.5 C 8.1 km/h
3074 27-08-2020 16:05:00 23.7 C 10.27 g/m*3 23.7 C 9.7 km/h
3075 27-08-2020 16:10:00 24 C 10.01 g/m*3 24 C 12.9 km/h
Sensor: Nr:Datum:Temp:Abs-Feuchte:Windchill:Wind:
Aussen-T/F 3076 27-08-2020 16:15:00 24.2 C 10.12 g/m*3 24.2 C 16.1 km/h
3077 27-08-2020 16:20:00 24.2 C 10.34 g/m*3 24.2 C 9.7 km/h
3078 27-08-2020 16:25:00 24.2 C 10.12 g/m*3 24.2 C 9.7 km/h
3079 27-08-2020 16:30:00 24.3 C 10.18 g/m*3 24.3 C 4.8 km/h
3080 27-08-2020 16:35:00 24.7 C 10.64 g/m*3 24.7 C 4.8 km/h
3081 27-08-2020 16:40:00 25.1 C 10.19 g/m*3 25.1 C 9.7 km/h
3082 27-08-2020 16:45:00 25.2 C 10.24 g/m*3 25.2 C 16.1 km/h
3083 27-08-2020 16:50:00 25.3 C 10.3 g/m*3 25.3 C 11.3 km/h
3084 27-08-2020 16:55:00 25.3 C 10.3 g/m*3 25.3 C 12.9 km/h
3085 27-08-2020 17:00:00 25.4 C 10.12 g/m*3 25.4 C 11.3 km/h
3086 27-08-2020 17:05:00 25.4 C 10.12 g/m*3 25.4 C 9.7 km/h
3087 27-08-2020 17:10:00 25.4 C 10.12 g/m*3 25.4 C 11.3 km/h
3088 27-08-2020 17:15:00 25.3 C 9.83 g/m*3 25.3 C 12.9 km/h
3089 27-08-2020 17:20:00 25.4 C 10.12 g/m*3 25.4 C 8.1 km/h
3090 27-08-2020 17:25:00 25.6 C 9.76 g/m*3 25.6 C 9.7 km/h
3091 27-08-2020 17:30:00 25.5 C 9.94 g/m*3 25.5 C 14.5 km/h
3092 27-08-2020 17:35:00 25.4 C 10.12 g/m*3 25.4 C 8.1 km/h
3093 27-08-2020 17:40:00 25.7 C 9.82 g/m*3 25.7 C 9.7 km/h
3094 27-08-2020 17:45:00 25.8 C 9.87 g/m*3 25.8 C 9.7 km/h
3095 27-08-2020 17:50:00 25.7 C 9.82 g/m*3 25.7 C 12.9 km/h
3096 27-08-2020 17:55:00 25.6 C 9.76 g/m*3 25.6 C 12.9 km/h
3097 27-08-2020 18:00:00 25.7 C 9.82 g/m*3 25.7 C 9.7 km/h
3098 27-08-2020 18:05:00 26 C 9.98 g/m*3 26 C 9.7 km/h
3099 27-08-2020 18:10:00 26.1 C 9.55 g/m*3 26.1 C 11.3 km/h
3100 27-08-2020 18:15:00 25.9 C 9.68 g/m*3 25.9 C 9.7 km/h
Sensor: Nr:Datum:Temp:Abs-Feuchte:Windchill:Wind:
Aussen-T/F 3101 27-08-2020 18:20:00 26 C 9.49 g/m*3 26 C 9.7 km/h
3102 27-08-2020 18:25:00 25.9 C 9.44 g/m*3 25.9 C 9.7 km/h
3103 27-08-2020 18:30:00 25.8 C 9.63 g/m*3 25.8 C 6.4 km/h
3104 27-08-2020 18:35:00 25.8 C 9.63 g/m*3 25.8 C 16.1 km/h
3105 27-08-2020 18:40:00 25.8 C 9.63 g/m*3 25.8 C 4.8 km/h
3106 27-08-2020 18:45:00 25.8 C 9.39 g/m*3 25.8 C 8.1 km/h
3107 27-08-2020 18:50:00 25.7 C 9.58 g/m*3 25.7 C 9.7 km/h
3108 27-08-2020 18:55:00 25.5 C 9.94 g/m*3 25.5 C 12.9 km/h
3109 27-08-2020 19:00:00 25.5 C 9.71 g/m*3 25.5 C 8.1 km/h
3110 27-08-2020 19:05:00 25.5 C 10.18 g/m*3 25.5 C 4.8 km/h
3111 27-08-2020 19:10:00 25.4 C 9.65 g/m*3 25.4 C 4.8 km/h
3112 27-08-2020 19:15:00 25.1 C 9.72 g/m*3 25.1 C 9.7 km/h
3113 27-08-2020 19:20:00 24.8 C 9.79 g/m*3 24.8 C 6.4 km/h
3114 27-08-2020 19:25:00 24.6 C 10.13 g/m*3 24.6 C 6.4 km/h
3115 27-08-2020 19:30:00 24.3 C 11.06 g/m*3 24.3 C 0 km/h
3116 27-08-2020 19:35:00 24.1 C 10.5 g/m*3 24.1 C 1.6 km/h
3117 27-08-2020 19:40:00 23.8 C 10.97 g/m*3 23.8 C 3.2 km/h
3118 27-08-2020 19:45:00 23.7 C 10.69 g/m*3 23.7 C 3.2 km/h
3119 27-08-2020 19:50:00 23.4 C 10.72 g/m*3 23.4 C 0 km/h
3120 27-08-2020 19:55:00 22.9 C 10.42 g/m*3 22.9 C 1.6 km/h
3121 27-08-2020 20:00:00 22.4 C 10.53 g/m*3 22.4 C 0 km/h
3122 27-08-2020 20:05:00 21.8 C 10.55 g/m*3 21.8 C 6.4 km/h
3123 27-08-2020 20:10:00 21.2 C 10.38 g/m*3 21.2 C 4.8 km/h
3124 27-08-2020 20:15:00 20.6 C 10.2 g/m*3 20.6 C 4.8 km/h
3125 27-08-2020 20:20:00 20.2 C 10.14 g/m*3 20.2 C 6.4 km/h
Sensor: Nr:Datum:Temp:Abs-Feuchte:Windchill:Wind:
Aussen-T/F 3126 27-08-2020 20:25:00 19.8 C 10.08 g/m*3 19.8 C 6.4 km/h
3127 27-08-2020 20:30:00 19.4 C 10.18 g/m*3 19.4 C 3.2 km/h
3128 27-08-2020 20:35:00 19.1 C 10.16 g/m*3 19.1 C 1.6 km/h
3129 27-08-2020 20:40:00 18.8 C 9.99 g/m*3 18.8 C 0 km/h
3130 27-08-2020 20:45:00 18.6 C 10.03 g/m*3 18.6 C 0 km/h
3131 27-08-2020 20:50:00 18.3 C 9.85 g/m*3 18.3 C 6.4 km/h
3132 27-08-2020 20:55:00 18.2 C 9.95 g/m*3 18.2 C 3.2 km/h
3133 27-08-2020 21:00:00 18 C 9.98 g/m*3 18 C 4.8 km/h
3134 27-08-2020 21:05:00 17.8 C 9.87 g/m*3 17.8 C 4.8 km/h
3135 27-08-2020 21:10:00 17.7 C 9.96 g/m*3 17.7 C 0 km/h
3136 27-08-2020 21:15:00 17.6 C 9.9 g/m*3 17.6 C 0 km/h
3137 27-08-2020 21:20:00 17.5 C 9.84 g/m*3 17.5 C 0 km/h
3138 27-08-2020 21:25:00 17.4 C 9.78 g/m*3 17.4 C 0 km/h
3139 27-08-2020 21:30:00 17.3 C 9.87 g/m*3 17.3 C 4.8 km/h
3140 27-08-2020 21:35:00 17.3 C 10.02 g/m*3 17.3 C 4.8 km/h
3141 27-08-2020 21:40:00 17.3 C 9.87 g/m*3 17.3 C 6.4 km/h
3142 27-08-2020 21:45:00 17.3 C 9.87 g/m*3 17.3 C 4.8 km/h
3143 27-08-2020 21:50:00 17.3 C 9.87 g/m*3 17.3 C 0 km/h
3144 27-08-2020 21:55:00 17.3 C 9.87 g/m*3 17.3 C 0 km/h
3145 27-08-2020 22:00:00 17.3 C 9.87 g/m*3 17.3 C 0 km/h
3146 27-08-2020 22:05:00 17.3 C 10.02 g/m*3 17.3 C 0 km/h
3147 27-08-2020 22:10:00 17.3 C 10.16 g/m*3 17.3 C 0 km/h
3148 27-08-2020 22:15:00 17.3 C 10.16 g/m*3 17.3 C 0 km/h
3149 27-08-2020 22:20:00 17.3 C 10.16 g/m*3 17.3 C 0 km/h
3150 27-08-2020 22:25:00 17.2 C 9.96 g/m*3 17.2 C 0 km/h
Sensor: Nr:Datum:Temp:Abs-Feuchte:Windchill:Wind:
Aussen-T/F 3151 27-08-2020 22:30:00 17.2 C 10.1 g/m*3 17.2 C 0 km/h
3152 27-08-2020 22:35:00 17.1 C 10.04 g/m*3 17.1 C 0 km/h
3153 27-08-2020 22:40:00 17.1 C 10.04 g/m*3 17.1 C 0 km/h
3154 27-08-2020 22:45:00 17.1 C 10.19 g/m*3 17.1 C 0 km/h
3155 27-08-2020 22:50:00 17.1 C 10.19 g/m*3 17.1 C 0 km/h
3156 27-08-2020 22:55:00 17.2 C 10.4 g/m*3 17.2 C 0 km/h
3157 27-08-2020 23:00:00 17.3 C 10.46 g/m*3 17.3 C 0 km/h
3158 27-08-2020 23:05:00 17.3 C 10.46 g/m*3 17.3 C 0 km/h
3159 27-08-2020 23:10:00 17.5 C 10.88 g/m*3 17.5 C 0 km/h
3160 27-08-2020 23:15:00 17.6 C 11.25 g/m*3 17.6 C 0 km/h
3161 27-08-2020 23:20:00 17.6 C 11.4 g/m*3 17.6 C 0 km/h
3162 27-08-2020 23:25:00 17.6 C 10.95 g/m*3 17.6 C 0 km/h
3163 27-08-2020 23:30:00 17.6 C 11.55 g/m*3 17.6 C 0 km/h
3164 27-08-2020 23:35:00 17.6 C 11.85 g/m*3 17.6 C 0 km/h
3165 27-08-2020 23:40:00 17.5 C 11.93 g/m*3 17.5 C 0 km/h
3166 27-08-2020 23:45:00 17.3 C 11.93 g/m*3 17.3 C 0 km/h
3167 27-08-2020 23:50:00 17.1 C 11.94 g/m*3 17.1 C 8.1 km/h
3168 27-08-2020 23:55:00 16.9 C 11.94 g/m*3 16.9 C 6.4 km/h
3169 28-08-2020 00:00:00 16.7 C 11.8 g/m*3 16.7 C 6.4 km/h
3170 28-08-2020 00:05:00 16.6 C 11.72 g/m*3 16.6 C 6.4 km/h
3171 28-08-2020 00:10:00 16.5 C 11.8 g/m*3 16.5 C 4.8 km/h
3172 28-08-2020 00:15:00 16.4 C 11.58 g/m*3 16.4 C 4.8 km/h
3173 28-08-2020 00:20:00 16.4 C 11.72 g/m*3 16.4 C 4.8 km/h
3174 28-08-2020 00:25:00 16.4 C 11.72 g/m*3 16.4 C 4.8 km/h
3175 28-08-2020 00:30:00 16.4 C 11.72 g/m*3 16.4 C 4.8 km/h
Sensor: Nr:Datum:Temp:Abs-Feuchte:Windchill:Wind:
Aussen-T/F 3176 28-08-2020 00:35:00 16.4 C 11.72 g/m*3 16.4 C 0 km/h
3177 28-08-2020 00:40:00 16.4 C 11.58 g/m*3 16.4 C 3.2 km/h
3178 28-08-2020 00:45:00 16.4 C 11.45 g/m*3 16.4 C 3.2 km/h
3179 28-08-2020 00:50:00 16.4 C 11.45 g/m*3 16.4 C 1.6 km/h
3180 28-08-2020 00:55:00 16.4 C 11.45 g/m*3 16.4 C 0 km/h
3181 28-08-2020 01:00:00 16.4 C 11.45 g/m*3 16.4 C 0 km/h
3182 28-08-2020 01:05:00 16.6 C 11.72 g/m*3 16.6 C 0 km/h
3183 28-08-2020 01:10:00 16.6 C 11.58 g/m*3 16.6 C 0 km/h
3184 28-08-2020 01:15:00 16.6 C 11.72 g/m*3 16.6 C 0 km/h
3185 28-08-2020 01:20:00 16.6 C 11.72 g/m*3 16.6 C 0 km/h
3186 28-08-2020 01:25:00 16.7 C 11.65 g/m*3 16.7 C 0 km/h
3187 28-08-2020 01:30:00 16.7 C 11.65 g/m*3 16.7 C 0 km/h
3188 28-08-2020 01:35:00 16.7 C 11.8 g/m*3 16.7 C 0 km/h
3189 28-08-2020 01:40:00 16.8 C 12.15 g/m*3 16.8 C 0 km/h
3190 28-08-2020 01:45:00 16.8 C 12.3 g/m*3 16.8 C 4.8 km/h
3191 28-08-2020 01:50:00 16.7 C 12.36 g/m*3 16.7 C 6.4 km/h
3192 28-08-2020 01:55:00 16.7 C 12.51 g/m*3 16.7 C 6.4 km/h
3193 28-08-2020 02:00:00 16.6 C 12.57 g/m*3 16.6 C 8.1 km/h
3194 28-08-2020 02:05:00 16.6 C 12.57 g/m*3 16.6 C 4.8 km/h
3195 28-08-2020 02:10:00 16.5 C 12.64 g/m*3 16.5 C 8.1 km/h
3196 28-08-2020 02:15:00 16.5 C 12.64 g/m*3 16.5 C 4.8 km/h
3197 28-08-2020 02:20:00 16.4 C 12.56 g/m*3 16.4 C 0 km/h
3198 28-08-2020 02:25:00 16.5 C 12.78 g/m*3 16.5 C 4.8 km/h
3199 28-08-2020 02:30:00 16.4 C 12.7 g/m*3 16.4 C 4.8 km/h
3200 28-08-2020 02:35:00 16.4 C 12.7 g/m*3 16.4 C 3.2 km/h
Sensor: Nr:Datum:Temp:Abs-Feuchte:Windchill:Wind:
Aussen-T/F 3201 28-08-2020 02:40:00 16.4 C 12.84 g/m*3 16.4 C 4.8 km/h
3202 28-08-2020 02:45:00 16.3 C 12.76 g/m*3 16.3 C 1.6 km/h